Provisional Data: Susquehanna River near Danville, PA


Please select a monitoring station.
Please select start date.
Please select start date.

Toggle Unit: C/F Toggle Unit: C/F
Sample Time Temperature (C) Temperature (F) Specific Conductivity (mS/cm) pH   Turbidity (NTU+) DO (mg/L)
2/8/2023 12:00:00 AM 0.61 33.098 0.262 7.98 4.28 13.27
2/8/2023 12:15:00 AM 0.62 33.116 0.262 7.98 4.35 13.28
2/8/2023 12:30:00 AM 0.62 33.116 0.262 7.98 4.34 13.28
2/8/2023 12:45:00 AM 0.62 33.116 0.262 7.98 4.4 13.29
2/8/2023 1:00:00 AM 0.62 33.116 0.262 7.98 4.44 13.29
2/8/2023 1:15:00 AM 0.63 33.134 0.262 7.97 4.43 13.28
2/8/2023 1:30:00 AM 0.63 33.134 0.262 7.97 4.27 13.28
2/8/2023 1:45:00 AM 0.64 33.152 0.262 7.96 4.48 13.27
2/8/2023 2:00:00 AM 0.64 33.152 0.262 7.97 4.29 13.27
2/8/2023 2:15:00 AM 0.64 33.152 0.262 7.96 4.31 13.26
2/8/2023 2:30:00 AM 0.65 33.17 0.262 7.97 4.61 13.25
2/8/2023 2:45:00 AM 0.65 33.17 0.262 7.96 4.16 13.24
2/8/2023 3:00:00 AM 0.65 33.17 0.262 7.96 4.31 13.25
2/8/2023 3:15:00 AM 0.66 33.188 0.262 7.97 4.43 13.25
2/8/2023 3:30:00 AM 0.66 33.188 0.262 7.96 4.22 13.25
2/8/2023 3:45:00 AM 0.66 33.188 0.262 7.96 4.18 13.26
2/8/2023 4:00:00 AM 0.67 33.206 0.262 7.96 4.4 13.25
2/8/2023 4:15:00 AM 0.67 33.206 0.262 7.96 4.27 13.24
2/8/2023 4:30:00 AM 0.67 33.206 0.262 7.96 4.22 13.22
2/8/2023 4:45:00 AM 0.68 33.224 0.262 7.96 4.22 13.23
2/8/2023 5:00:00 AM 0.68 33.224 0.262 7.96 4.21 13.22
2/8/2023 5:15:00 AM 0.69 33.242 0.262 7.96 4.17 13.2
2/8/2023 5:30:00 AM 0.69 33.242 0.262 7.95 4.19 13.2
2/8/2023 5:45:00 AM 0.69 33.242 0.262 7.95 4.28 13.19
2/8/2023 6:00:00 AM 0.7 33.26 0.262 7.95 4.04 13.18
2/8/2023 6:15:00 AM 0.7 33.26 0.262 7.95 4.1 13.17
2/8/2023 6:30:00 AM 0.71 33.278 0.262 7.94 4.16 13.17
2/8/2023 6:45:00 AM 0.71 33.278 0.262 7.95 4.05 13.16
2/8/2023 7:00:00 AM 1.55 34.79 0.264 7.64 5.84 12.94
2/8/2023 7:15:00 AM 0.86 33.548 0.263 7.88 6.22 13.17
2/8/2023 7:30:00 AM 0.72 33.296 0.263 7.97 6.41 13.2
2/8/2023 7:45:00 AM 0.69 33.242 0.263 7.99 6.08 13.2
2/8/2023 8:00:00 AM 0.67 33.206 0.263 7.99 5.81 13.2
2/8/2023 8:15:00 AM 0.64 33.152 0.263 7.99 5.86 13.2
2/8/2023 8:30:00 AM 0.63 33.134 0.263 7.99 5.88 13.21
2/8/2023 8:45:00 AM 0.62 33.116 0.263 7.99 5.95 13.21
2/8/2023 9:00:00 AM 0.63 33.134 0.263 7.99 6.24 13.21
2/8/2023 9:15:00 AM 0.63 33.134 0.262 7.99 5.83 13.21
2/8/2023 9:30:00 AM 0.64 33.152 0.262 7.99 6.05 13.21
2/8/2023 9:45:00 AM 0.66 33.188 0.262 7.99 5.79 13.21
2/8/2023 10:00:00 AM 0.68 33.224 0.262 7.99 5.81 13.21
2/8/2023 10:15:00 AM 0.69 33.242 0.262 7.99 6.62 13.22
2/8/2023 10:30:00 AM 0.73 33.314 0.262 7.99 6.31 13.21
2/8/2023 10:45:00 AM 0.82 33.476 0.262 8 6.26 13.2
2/8/2023 11:00:00 AM 0.84 33.512 0.262 8 5.82 13.22
2/8/2023 11:15:00 AM 0.86 33.548 0.262 8 5.55 13.21
2/8/2023 11:30:00 AM 0.9 33.62 0.261 8 5.42 13.22
2/8/2023 11:45:00 AM 0.95 33.71 0.261 8 5.53 13.22
2/8/2023 12:00:00 PM 1 33.8 0.261 8 5.26 13.23
2/8/2023 12:15:00 PM 1.04 33.872 0.261 8 5.02 13.23
2/8/2023 12:30:00 PM 1.1 33.98 0.261 8 5.14 13.23
2/8/2023 12:45:00 PM 1.14 34.052 0.261 8.01 5.3 13.23
2/8/2023 1:00:00 PM 1.19 34.142 0.261 8.01 5.22 13.23
2/8/2023 1:15:00 PM 1.23 34.214 0.261 8.01 5.19 13.23
2/8/2023 1:30:00 PM 1.26 34.268 0.261 8.01 4.93 13.22
2/8/2023 1:45:00 PM 1.32 34.376 0.261 8.01 4.87 13.22
2/8/2023 2:00:00 PM 1.37 34.466 0.261 8.01 4.63 13.23
2/8/2023 2:15:00 PM 1.41 34.538 0.26 8.01 5.18 13.23
2/8/2023 2:30:00 PM 1.45 34.61 0.26 8.01 5.12 13.23
2/8/2023 2:45:00 PM 1.48 34.664 0.26 8.01 5.01 13.23
2/8/2023 3:00:00 PM 1.53 34.754 0.26 8.01 4.84 13.23
2/8/2023 3:15:00 PM 1.53 34.754 0.26 8.01 4.4 13.23
2/8/2023 3:30:00 PM 1.54 34.772 0.26 8.02 4.33 13.22
2/8/2023 3:45:00 PM 1.54 34.772 0.26 8.02 4.5 13.2
2/8/2023 4:00:00 PM 1.55 34.79 0.26 8.01 4.67 13.19
2/8/2023 4:15:00 PM 1.55 34.79 0.26 8.01 4.38 13.19
2/8/2023 4:30:00 PM 1.55 34.79 0.26 8.01 4.39 13.19
2/8/2023 4:45:00 PM 1.55 34.79 0.26 8.01 4.53 13.19
2/8/2023 5:00:00 PM 1.56 34.808 0.26 8.01 4.24 13.17
2/8/2023 5:15:00 PM 1.56 34.808 0.261 8.01 4.26 13.16
2/8/2023 5:30:00 PM 1.56 34.808 0.261 8.01 4.11 13.15
2/8/2023 5:45:00 PM 1.56 34.808 0.26 8.01 4.02 13.14
2/8/2023 6:00:00 PM 1.56 34.808 0.261 8.01 4.14 13.15
2/8/2023 6:15:00 PM 1.56 34.808 0.261 8.01 4.24 13.13
2/8/2023 6:30:00 PM 1.56 34.808 0.261 8.01 4.02 13.13
2/8/2023 6:45:00 PM 1.56 34.808 0.261 8.01 4.05 13.12
2/8/2023 7:00:00 PM 1.57 34.826 0.261 8.01 3.94 13.11
2/8/2023 7:15:00 PM 1.57 34.826 0.261 8.01 4.07 13.11
2/8/2023 7:30:00 PM 1.57 34.826 0.261 8.01 3.92 13.1
2/8/2023 7:45:00 PM 1.57 34.826 0.261 8.01 3.85 13.1
2/8/2023 8:00:00 PM 1.57 34.826 0.261 8.01 3.94 13.09
2/8/2023 8:15:00 PM 1.57 34.826 0.261 8 3.98 13.07
2/8/2023 8:30:00 PM 1.57 34.826 0.261 8.01 4.07 13.08
2/8/2023 8:45:00 PM 1.57 34.826 0.261 8.01 3.87 13.09
2/8/2023 9:00:00 PM 1.57 34.826 0.261 8.01 4.04 13.08
2/8/2023 9:15:00 PM 1.57 34.826 0.261 8.01 4.08 13.09
2/8/2023 9:30:00 PM 1.57 34.826 0.261 8.01 4.12 13.08
2/8/2023 9:45:00 PM 1.57 34.826 0.261 8 3.82 13.06
2/8/2023 10:00:00 PM 1.57 34.826 0.261 8.01 3.95 13.08
2/8/2023 10:15:00 PM 1.57 34.826 0.261 8 4 13.08
2/8/2023 10:30:00 PM 1.57 34.826 0.261 8.01 4.04 13.08
2/8/2023 10:45:00 PM 1.57 34.826 0.261 8 3.91 13.07
2/8/2023 11:00:00 PM 1.57 34.826 0.261 8 3.97 13.08
2/8/2023 11:15:00 PM 1.57 34.826 0.261 7.99 4.05 13.09
2/8/2023 11:30:00 PM 1.57 34.826 0.261 7.99 4.06 13.1
2/8/2023 11:45:00 PM 1.57 34.826 0.261 7.99 4.05 13.09
2/9/2023 12:00:00 AM 1.57 34.826 0.261 7.98 4 13.08
2/9/2023 12:15:00 AM 1.57 34.826 0.261 7.98 3.97 13.07
2/9/2023 12:30:00 AM 1.57 34.826 0.261 7.98 3.87 13.07
2/9/2023 12:45:00 AM 1.57 34.826 0.261 7.98 3.94 13.07
2/9/2023 1:00:00 AM 1.57 34.826 0.261 7.97 3.97 13.07
2/9/2023 1:15:00 AM 1.57 34.826 0.261 7.97 3.99 13.07
2/9/2023 1:30:00 AM 1.58 34.844 0.261 7.96 3.97 13.06
2/9/2023 1:45:00 AM 1.58 34.844 0.261 7.97 4.04 13.07
2/9/2023 2:00:00 AM 1.57 34.826 0.261 7.95 4.07 13.07
2/9/2023 2:15:00 AM 1.58 34.844 0.261 7.95 4.08 13.08
2/9/2023 2:30:00 AM 1.58 34.844 0.261 7.95 4.07 13.08
2/9/2023 2:45:00 AM 1.58 34.844 0.261 7.95 4.05 13.08
2/9/2023 3:00:00 AM 1.58 34.844 0.261 7.94 4.25 13.07
2/9/2023 3:15:00 AM 1.58 34.844 0.261 7.94 4.2 13.07
2/9/2023 3:30:00 AM 1.59 34.862 0.261 7.95 4.02 13.07
2/9/2023 3:45:00 AM 1.59 34.862 0.261 7.94 3.99 13.06
2/9/2023 4:00:00 AM 1.59 34.862 0.261 7.94 3.99 13.07
2/9/2023 4:15:00 AM 1.59 34.862 0.261 7.94 3.98 13.05
2/9/2023 4:30:00 AM 1.59 34.862 0.261 7.94 4.08 13.03
2/9/2023 4:45:00 AM 1.6 34.88 0.261 7.94 3.99 13.03
2/9/2023 5:00:00 AM 1.6 34.88 0.261 7.93 4.06 13.03
2/9/2023 5:15:00 AM 1.6 34.88 0.261 7.93 3.98 13.03
2/9/2023 5:30:00 AM 1.6 34.88 0.261 7.94 4.15 13.02
2/9/2023 5:45:00 AM 1.61 34.898 0.261 7.93 3.87 13.01
2/9/2023 6:00:00 AM 1.61 34.898 0.261 7.94 4.03 12.98
2/9/2023 6:15:00 AM 1.61 34.898 0.261 7.94 3.96 12.98
2/9/2023 6:30:00 AM 1.62 34.916 0.261 7.94 3.8 12.97
2/9/2023 6:45:00 AM 1.62 34.916 0.261 7.93 3.77 12.95
2/9/2023 7:00:00 AM 1.62 34.916 0.261 7.95 3.93 13
2/9/2023 7:15:00 AM 1.69 35.042 0.263 7.89 4.46 13.02
2/9/2023 7:30:00 AM 1.5 34.7 0.263 8 5.27 13.05
2/9/2023 7:45:00 AM 1.44 34.592 0.264 8.03 5.05 13.05
2/9/2023 8:00:00 AM 1.4 34.52 0.264 8.04 5.11 13.05
2/9/2023 8:15:00 AM 1.37 34.466 0.264 8.04 4.61 13.05
2/9/2023 8:30:00 AM 1.35 34.43 0.264 8.04 5.81 13.05
2/9/2023 8:45:00 AM 1.38 34.484 0.264 8.05 5.67 13.04
2/9/2023 9:00:00 AM 1.35 34.43 0.265 8.05 5.3 13.04
2/9/2023 9:15:00 AM 1.33 34.394 0.265 8.05 4.76 13.05
2/9/2023 9:30:00 AM 1.32 34.376 0.265 8.05 4.73 13.04
2/9/2023 9:45:00 AM 1.32 34.376 0.265 8.05 4.8 13.04
2/9/2023 10:00:00 AM 1.31 34.358 0.265 8.04 4.94 13.05
2/9/2023 10:15:00 AM 1.31 34.358 0.265 8.05 5.08 13.05
2/9/2023 10:30:00 AM 1.31 34.358 0.265 8.05 4.61 13.05
2/9/2023 10:45:00 AM 1.32 34.376 0.265 8.05 5.07 13.05
2/9/2023 11:00:00 AM 1.34 34.412 0.265 8.05 4.99 13.05
2/9/2023 11:15:00 AM 1.34 34.412 0.266 8.05 5.09 13.06
2/9/2023 11:30:00 AM 1.36 34.448 0.266 8.05 4.97 13.06
2/9/2023 11:45:00 AM 1.37 34.466 0.266 8.05 5.18 13.06
2/9/2023 12:00:00 PM 1.38 34.484 0.266 8.05 4.87 13.07
2/9/2023 12:15:00 PM 1.41 34.538 0.266 8.06 4.93 13.06
2/9/2023 12:30:00 PM 1.45 34.61 0.266 8.05 5 13.07
2/9/2023 12:45:00 PM 1.49 34.682 0.266 8.06 4.69 13.07
2/9/2023 1:00:00 PM 1.54 34.772 0.266 8.06 4.88 13.07
2/9/2023 1:15:00 PM 1.58 34.844 0.266 8.06 5.81 13.07
2/9/2023 1:30:00 PM 1.62 34.916 0.266 8.06 5.23 13.07
2/9/2023 1:45:00 PM 1.66 34.988 0.267 8.06 5.25 13.08
2/9/2023 2:00:00 PM 1.68 35.024 0.267 8.06 5.19 13.08
2/9/2023 2:15:00 PM 1.7 35.06 0.267 8.06 4.76 13.07
2/9/2023 2:30:00 PM 1.71 35.078 0.267 8.06 5.36 13.07
2/9/2023 2:45:00 PM 1.72 35.096 0.267 8.07 4.81 13.07
2/9/2023 3:00:00 PM 1.75 35.15 0.268 8.07 4.6 13.08
2/9/2023 3:15:00 PM 1.76 35.168 0.268 8.07 4.77 13.07
2/9/2023 3:30:00 PM 1.76 35.168 0.268 8.07 4.63 13.06
2/9/2023 3:45:00 PM 1.77 35.186 0.268 8.07 4.5 13.05
2/9/2023 4:00:00 PM 1.77 35.186 0.268 8.07 5.04 13.04
2/9/2023 4:15:00 PM 1.77 35.186 0.268 8.07 4.51 13.04
2/9/2023 4:30:00 PM 1.77 35.186 0.268 8.06 4.77 13.03
2/9/2023 4:45:00 PM 1.77 35.186 0.268 8.07 4.32 13.03
2/9/2023 5:00:00 PM 1.78 35.204 0.268 8.07 4.39 13.02
2/9/2023 5:15:00 PM 1.78 35.204 0.268 8.06 4.43 13.01
2/9/2023 5:30:00 PM 1.78 35.204 0.268 8.06 4.29 13.01
2/9/2023 5:45:00 PM 1.78 35.204 0.268 8.07 4.67 13
2/9/2023 6:00:00 PM 1.78 35.204 0.268 8.06 4.29 13
2/9/2023 6:15:00 PM 1.78 35.204 0.268 8.06 4.21 12.99
2/9/2023 6:30:00 PM 1.79 35.222 0.268 8.07 4.11 12.99
2/9/2023 6:45:00 PM 1.79 35.222 0.268 8.06 4.26 12.98
2/9/2023 7:00:00 PM 1.79 35.222 0.268 8.06 4.21 12.98
2/9/2023 7:15:00 PM 1.79 35.222 0.268 8.06 4.07 12.96
2/9/2023 7:30:00 PM 1.79 35.222 0.268 8.06 4.1 12.96
2/9/2023 7:45:00 PM 1.79 35.222 0.268 8.05 3.96 12.96
2/9/2023 8:00:00 PM 1.79 35.222 0.268 8.06 3.99 12.96
2/9/2023 8:15:00 PM 1.8 35.24 0.268 8.06 4.17 12.96
2/9/2023 8:30:00 PM 1.8 35.24 0.268 8.05 4.14 12.95
2/9/2023 8:45:00 PM 1.8 35.24 0.268 8.06 4.29 12.96
2/9/2023 9:00:00 PM 1.8 35.24 0.268 8.06 4.06 12.95
2/9/2023 9:15:00 PM 1.8 35.24 0.268 8.06 4.3 12.95
2/9/2023 9:30:00 PM 1.8 35.24 0.268 8.05 3.97 12.95
2/9/2023 9:45:00 PM 1.8 35.24 0.268 8.05 4 12.94
2/9/2023 10:00:00 PM 1.8 35.24 0.268 8.05 4.03 12.94
2/9/2023 10:15:00 PM 1.8 35.24 0.268 8.05 4.18 12.95
2/9/2023 10:30:00 PM 1.81 35.258 0.268 8.04 4.11 12.95
2/9/2023 10:45:00 PM 1.81 35.258 0.268 8.04 4.13 12.95
2/9/2023 11:00:00 PM 1.81 35.258 0.268 8.04 4.01 12.96
2/9/2023 11:15:00 PM 1.81 35.258 0.268 8.05 4.07 12.95
2/9/2023 11:30:00 PM 1.81 35.258 0.268 8.05 3.99 12.96
2/9/2023 11:45:00 PM 1.81 35.258 0.268 8.05 4.06 12.94
2/10/2023 12:00:00 AM 1.81 35.258 0.268 8.04 4.04 12.93
2/10/2023 12:15:00 AM 1.82 35.276 0.268 8.04 3.88 12.93
2/10/2023 12:30:00 AM 1.82 35.276 0.268 8.03 3.94 12.91
2/10/2023 12:45:00 AM 1.82 35.276 0.268 8.04 3.97 12.92
2/10/2023 1:00:00 AM 1.82 35.276 0.268 8.03 4.03 12.91
2/10/2023 1:15:00 AM 1.82 35.276 0.268 8.04 3.99 12.92
2/10/2023 1:30:00 AM 1.82 35.276 0.268 8.04 3.97 12.92
2/10/2023 1:45:00 AM 1.83 35.294 0.268 8.02 3.98 12.92
2/10/2023 2:00:00 AM 1.83 35.294 0.268 8.03 4.11 12.9
2/10/2023 2:15:00 AM 1.83 35.294 0.268 8.02 3.94 12.89
2/10/2023 2:30:00 AM 1.83 35.294 0.268 8.02 3.82 12.9
2/10/2023 2:45:00 AM 1.83 35.294 0.268 8.03 4.05 12.9
2/10/2023 3:00:00 AM 1.84 35.312 0.268 8.02 4.01 12.9
2/10/2023 3:15:00 AM 1.84 35.312 0.268 8.03 4.03 12.9
2/10/2023 3:30:00 AM 1.84 35.312 0.268 8.02 3.95 12.9
2/10/2023 3:45:00 AM 1.85 35.33 0.268 8.02 3.81 12.89
2/10/2023 4:00:00 AM 1.85 35.33 0.268 8.02 3.9 12.85
2/10/2023 4:15:00 AM 1.85 35.33 0.268 8.02 3.97 12.85
2/10/2023 4:30:00 AM 1.86 35.348 0.268 8.02 3.94 12.84
2/10/2023 4:45:00 AM 1.86 35.348 0.268 8.01 3.84 12.83
2/10/2023 5:00:00 AM 1.86 35.348 0.268 8.01 3.76 12.83
2/10/2023 5:15:00 AM 1.86 35.348 0.268 8.01 3.74 12.81
2/10/2023 5:30:00 AM 1.87 35.366 0.268 8.01 3.69 12.8
2/10/2023 5:45:00 AM 1.87 35.366 0.268 8.01 3.7 12.8
2/10/2023 6:00:00 AM 1.87 35.366 0.268 8.01 3.78 12.78
2/10/2023 6:15:00 AM 1.88 35.384 0.268 8 3.72 12.76
2/10/2023 6:30:00 AM 1.88 35.384 0.268 8 3.73 12.75
2/10/2023 6:45:00 AM 1.88 35.384 0.268 8.01 3.69 12.73
2/10/2023 7:00:00 AM 1.88 35.384 0.268 8.01 3.59 12.75
2/10/2023 7:15:00 AM 2.01 35.618 0.268 7.92 4.01 12.81
2/10/2023 7:30:00 AM 2.09 35.762 0.269 7.93 4.42 12.87
2/10/2023 7:45:00 AM 2.5 36.5 0.273 8 5.73 12.73
2/10/2023 8:00:00 AM 2.59 36.662 0.274 8.06 5.62 12.7
2/10/2023 8:15:00 AM 2.62 36.716 0.274 8.09 5.97 12.7
2/10/2023 8:30:00 AM 2.63 36.734 0.275 8.1 6.76 12.7
2/10/2023 8:45:00 AM 2.63 36.734 0.275 8.11 7.68 12.7
2/10/2023 9:00:00 AM 2.63 36.734 0.275 8.11 6.68 12.7
2/10/2023 9:15:00 AM 2.63 36.734 0.275 8.12 6.48 12.7
2/10/2023 9:30:00 AM 2.62 36.716 0.275 8.12 7.88 12.71
2/10/2023 9:45:00 AM 2.62 36.716 0.275 8.11 7.37 12.71
2/10/2023 10:00:00 AM 2.62 36.716 0.275 8.12 7.46 12.71
2/10/2023 10:15:00 AM 2.63 36.734 0.275 8.12 6.91 12.72
2/10/2023 10:30:00 AM 2.64 36.752 0.275 8.13 6.82 12.72
2/10/2023 10:45:00 AM 2.67 36.806 0.274 8.13 6.76 12.72
2/10/2023 11:00:00 AM 2.7 36.86 0.274 8.13 6.72 12.73
2/10/2023 11:15:00 AM 2.73 36.914 0.274 8.13 6.7 12.72
2/10/2023 11:30:00 AM 2.75 36.95 0.274 8.14 7.03 12.73
2/10/2023 11:45:00 AM 2.78 37.004 0.274 8.14 6.92 12.73
2/10/2023 12:00:00 PM 2.81 37.058 0.274 8.14 7.84 12.73
2/10/2023 12:15:00 PM 2.83 37.094 0.274 8.14 7.15 12.73
2/10/2023 12:30:00 PM 2.86 37.148 0.274 8.14 7.61 12.73
2/10/2023 12:45:00 PM 2.87 37.166 0.274 8.15 6.46 12.73
2/10/2023 1:00:00 PM 2.89 37.202 0.274 8.15 7.43 12.73
2/10/2023 1:15:00 PM 2.9 37.22 0.274 8.15 6.96 12.73
2/10/2023 1:30:00 PM 2.92 37.256 0.274 8.15 7.62 12.73
2/10/2023 1:45:00 PM 2.94 37.292 0.274 8.15 7.88 12.73
2/10/2023 2:00:00 PM 2.96 37.328 0.274 8.15 7.86 12.73
2/10/2023 2:15:00 PM 2.98 37.364 0.274 8.16 7.68 12.74
2/10/2023 2:30:00 PM 2.99 37.382 0.274 8.16 7.75 12.74
2/10/2023 2:45:00 PM 3 37.4 0.274 8.16 7.28 12.74
2/10/2023 3:00:00 PM 3.02 37.436 0.274 8.16 7.97 12.74
2/10/2023 3:15:00 PM 3.02 37.436 0.274 8.17 6.12 12.74
2/10/2023 3:30:00 PM 3.02 37.436 0.275 8.17 6.34 12.73
2/10/2023 3:45:00 PM 3.02 37.436 0.275 8.16 5.27 12.71
2/10/2023 4:00:00 PM 3.02 37.436 0.274 8.16 5.67 12.7
2/10/2023 4:15:00 PM 3.02 37.436 0.275 8.16 5.63 12.7
2/10/2023 4:30:00 PM 3.02 37.436 0.275 8.16 5.28 12.71
2/10/2023 4:45:00 PM 3.02 37.436 0.275 8.16 4.96 12.69
2/10/2023 5:00:00 PM 3.02 37.436 0.275 8.16 5.25 12.7
2/10/2023 5:15:00 PM 3.02 37.436 0.275 8.16 5.19 12.69
2/10/2023 5:30:00 PM 3.02 37.436 0.275 8.15 5.33 12.68
2/10/2023 5:45:00 PM 3.03 37.454 0.275 8.15 5.49 12.66
2/10/2023 6:00:00 PM 3.02 37.436 0.275 8.15 5.16 12.65
2/10/2023 6:15:00 PM 3.02 37.436 0.275 8.15 5.16 12.66
2/10/2023 6:30:00 PM 3.02 37.436 0.275 8.15 4.85 12.64
2/10/2023 6:45:00 PM 3.02 37.436 0.275 8.15 4.64 12.65
2/10/2023 7:00:00 PM 3.02 37.436 0.275 8.15 4.96 12.66
2/10/2023 7:15:00 PM 3.02 37.436 0.275 8.15 4.75 12.66
2/10/2023 7:30:00 PM 3.02 37.436 0.275 8.14 4.72 12.64
2/10/2023 7:45:00 PM 3.02 37.436 0.275 8.15 5.03 12.64
2/10/2023 8:00:00 PM 3.02 37.436 0.275 8.13 4.87 12.61
2/10/2023 8:15:00 PM 3.02 37.436 0.275 8.13 4.65 12.59
2/10/2023 8:30:00 PM 3.02 37.436 0.275 8.13 4.68 12.6
2/10/2023 8:45:00 PM 3.02 37.436 0.275 8.14 5 12.61
2/10/2023 9:00:00 PM 3.02 37.436 0.275 8.14 4.87 12.61
2/10/2023 9:15:00 PM 3.02 37.436 0.275 8.13 4.78 12.6
2/10/2023 9:30:00 PM 3.02 37.436 0.275 8.12 4.83 12.58
2/10/2023 9:45:00 PM 3.02 37.436 0.275 8.13 4.41 12.58
2/10/2023 10:00:00 PM 3.03 37.454 0.275 8.13 4.46 12.57
2/10/2023 10:15:00 PM 3.03 37.454 0.275 8.12 4.54 12.55
2/10/2023 10:30:00 PM 3.03 37.454 0.275 8.11 4.54 12.52
2/10/2023 10:45:00 PM 3.03 37.454 0.275 8.11 4.56 12.5
2/10/2023 11:00:00 PM 3.03 37.454 0.275 8.11 4.63 12.49
2/10/2023 11:15:00 PM 3.03 37.454 0.275 8.11 4.49 12.48
2/10/2023 11:30:00 PM 3.03 37.454 0.275 8.11 4.26 12.48
2/10/2023 11:45:00 PM 3.03 37.454 0.275 8.1 4.36 12.49
2/11/2023 12:00:00 AM 3.03 37.454 0.275 8.1 4.51 12.49
2/11/2023 12:15:00 AM 3.03 37.454 0.275 8.11 4.41 12.5
2/11/2023 12:30:00 AM 3.03 37.454 0.275 8.1 4.39 12.48
2/11/2023 12:45:00 AM 3.03 37.454 0.275 8.1 4.26 12.48
2/11/2023 1:00:00 AM 3.03 37.454 0.275 8.09 4.68 12.47
2/11/2023 1:15:00 AM 3.03 37.454 0.275 8.1 4.17 12.48
2/11/2023 1:30:00 AM 3.03 37.454 0.275 8.09 4.37 12.47
2/11/2023 1:45:00 AM 3.03 37.454 0.275 8.09 4.25 12.47
2/11/2023 2:00:00 AM 3.03 37.454 0.275 8.09 4.4 12.46
2/11/2023 2:15:00 AM 3.03 37.454 0.275 8.08 4.13 12.45
2/11/2023 2:30:00 AM 3.03 37.454 0.275 8.09 4.22 12.48
2/11/2023 2:45:00 AM 3.04 37.472 0.275 8.1 4.25 12.47
2/11/2023 3:00:00 AM 3.04 37.472 0.275 8.09 4.33 12.45
2/11/2023 3:15:00 AM 3.04 37.472 0.275 8.09 4.35 12.44
2/11/2023 3:30:00 AM 3.04 37.472 0.275 8.09 4.1 12.43
2/11/2023 3:45:00 AM 3.04 37.472 0.275 8.08 4.26 12.41
2/11/2023 4:00:00 AM 3.04 37.472 0.275 8.08 4.06 12.37
2/11/2023 4:15:00 AM 3.05 37.49 0.275 8.08 4.1 12.34
2/11/2023 4:30:00 AM 3.05 37.49 0.275 8.07 4.02 12.31
2/11/2023 4:45:00 AM 3.05 37.49 0.275 8.07 4.01 12.32
2/11/2023 5:00:00 AM 3.05 37.49 0.275 8.06 3.97 12.31
2/11/2023 5:15:00 AM 3.05 37.49 0.275 8.07 4.01 12.29
2/11/2023 5:30:00 AM 3.06 37.508 0.275 8.06 3.98 12.27
2/11/2023 5:45:00 AM 3.06 37.508 0.275 8.06 3.96 12.26
2/11/2023 6:00:00 AM 3.06 37.508 0.275 8.06 4.13 12.26
2/11/2023 6:15:00 AM 3.06 37.508 0.275 8.05 3.97 12.25
2/11/2023 6:30:00 AM 3.06 37.508 0.275 8.05 3.98 12.23
2/11/2023 6:45:00 AM 3.07 37.526 0.275 8.05 3.94 12.2
2/11/2023 7:00:00 AM 3.08 37.544 0.275 8.04 4.5 12.33
2/11/2023 7:15:00 AM 3.17 37.706 0.276 7.94 4.77 12.42
2/11/2023 7:30:00 AM 2.63 36.734 0.277 8.03 6.8 12.58
2/11/2023 7:45:00 AM 2.43 36.374 0.276 8.11 6.68 12.62
2/11/2023 8:00:00 AM 2.36 36.248 0.276 8.13 6.84 12.62
2/11/2023 8:15:00 AM 2.33 36.194 0.276 8.14 7.03 12.62
2/11/2023 8:30:00 AM 2.33 36.194 0.276 8.14 6.35 12.62
2/11/2023 8:45:00 AM 2.33 36.194 0.276 8.14 6.3 12.63
2/11/2023 9:00:00 AM 2.34 36.212 0.276 8.14 6.21 12.62
2/11/2023 9:15:00 AM 2.36 36.248 0.276 8.14 6.75 12.63
2/11/2023 9:30:00 AM 2.39 36.302 0.276 8.14 6.63 12.63
2/11/2023 9:45:00 AM 2.4 36.32 0.276 8.14 6.39 12.62
2/11/2023 10:00:00 AM 2.41 36.338 0.276 8.14 6.07 12.62
2/11/2023 10:15:00 AM 2.43 36.374 0.276 8.14 6.69 12.63
2/11/2023 10:30:00 AM 2.45 36.41 0.276 8.14 6.02 12.63
2/11/2023 10:45:00 AM 2.45 36.41 0.276 8.14 6.55 12.63
2/11/2023 11:00:00 AM 2.46 36.428 0.276 8.14 6.92 12.64
2/11/2023 11:15:00 AM 2.5 36.5 0.275 8.14 6.16 12.64
2/11/2023 11:30:00 AM 2.54 36.572 0.275 8.14 6.25 12.64
2/11/2023 11:45:00 AM 2.58 36.644 0.275 8.14 6.64 12.65
2/11/2023 12:00:00 PM 2.63 36.734 0.275 8.14 6.08 12.65
2/11/2023 12:15:00 PM 2.69 36.842 0.275 8.14 6.71 12.65
2/11/2023 12:30:00 PM 2.74 36.932 0.275 8.14 6.44 12.65
2/11/2023 12:45:00 PM 2.81 37.058 0.275 8.15 6.54 12.66
2/11/2023 1:00:00 PM 2.86 37.148 0.275 8.15 6.67 12.66
2/11/2023 1:15:00 PM 2.9 37.22 0.274 8.15 5.81 12.67
2/11/2023 1:30:00 PM 2.94 37.292 0.274 8.15 6.35 12.67
2/11/2023 1:45:00 PM 2.97 37.346 0.274 8.15 7.16 12.68
2/11/2023 2:00:00 PM 3.01 37.418 0.274 8.15 6.12 12.69
2/11/2023 2:15:00 PM 3.04 37.472 0.274 8.15 6.65 12.68
2/11/2023 2:30:00 PM 3.07 37.526 0.274 8.15 6.96 12.69
2/11/2023 2:45:00 PM 3.09 37.562 0.274 8.15 6.7 12.69
2/11/2023 3:00:00 PM 3.1 37.58 0.274 8.15 5.14 12.68
2/11/2023 3:15:00 PM 3.1 37.58 0.274 8.15 4.93 12.68
2/11/2023 3:30:00 PM 3.1 37.58 0.274 8.16 4.96 12.67
2/11/2023 3:45:00 PM 3.1 37.58 0.274 8.16 4.62 12.67
2/11/2023 4:00:00 PM 3.1 37.58 0.274 8.15 4.75 12.65
2/11/2023 4:15:00 PM 3.1 37.58 0.274 8.15 5.04 12.64
2/11/2023 4:30:00 PM 3.1 37.58 0.274 8.15 4.73 12.64
2/11/2023 4:45:00 PM 3.1 37.58 0.274 8.15 4.88 12.64
2/11/2023 5:00:00 PM 3.1 37.58 0.274 8.14 4.44 12.62
2/11/2023 5:15:00 PM 3.1 37.58 0.274 8.14 4.42 12.61
2/11/2023 5:30:00 PM 3.11 37.598 0.274 8.14 4.46 12.6
2/11/2023 5:45:00 PM 3.11 37.598 0.274 8.14 4.49 12.6
2/11/2023 6:00:00 PM 3.11 37.598 0.274 8.14 4.23 12.57
2/11/2023 6:15:00 PM 3.11 37.598 0.274 8.13 4.29 12.55
2/11/2023 6:30:00 PM 3.11 37.598 0.274 8.14 4.34 12.56
2/11/2023 6:45:00 PM 3.11 37.598 0.274 8.14 4.36 12.57
2/11/2023 7:00:00 PM 3.11 37.598 0.274 8.13 4.26 12.55
2/11/2023 7:15:00 PM 3.11 37.598 0.274 8.14 4.3 12.55
2/11/2023 7:30:00 PM 3.11 37.598 0.274 8.14 4.2 12.54
2/11/2023 7:45:00 PM 3.11 37.598 0.274 8.13 4.58 12.56
2/11/2023 8:00:00 PM 3.11 37.598 0.274 8.14 4.18 12.55
2/11/2023 8:15:00 PM 3.11 37.598 0.274 8.14 4.3 12.55
2/11/2023 8:30:00 PM 3.11 37.598 0.274 8.14 4.33 12.55
2/11/2023 8:45:00 PM 3.11 37.598 0.274 8.14 4.48 12.54
2/11/2023 9:00:00 PM 3.11 37.598 0.274 8.13 4.4 12.53
2/11/2023 9:15:00 PM 3.12 37.616 0.274 8.13 4.23 12.52
2/11/2023 9:30:00 PM 3.12 37.616 0.274 8.13 4.12 12.48
2/11/2023 9:45:00 PM 3.12 37.616 0.274 8.13 3.9 12.49
2/11/2023 10:00:00 PM 3.12 37.616 0.274 8.13 3.94 12.48
2/11/2023 10:15:00 PM 3.13 37.634 0.274 8.12 3.87 12.47
2/11/2023 10:30:00 PM 3.13 37.634 0.274 8.12 4.01 12.45
2/11/2023 10:45:00 PM 3.13 37.634 0.274 8.12 3.84 12.44
2/11/2023 11:00:00 PM 3.13 37.634 0.274 8.11 3.83 12.44
2/11/2023 11:15:00 PM 3.13 37.634 0.274 8.12 3.81 12.43
2/11/2023 11:30:00 PM 3.13 37.634 0.274 8.11 3.89 12.43
2/11/2023 11:45:00 PM 3.13 37.634 0.274 8.12 3.75 12.42
2/12/2023 12:00:00 AM 3.13 37.634 0.274 8.12 4.07 12.43
2/12/2023 12:15:00 AM 3.13 37.634 0.274 8.12 3.81 12.4
2/12/2023 12:30:00 AM 3.13 37.634 0.274 8.12 3.91 12.41
2/12/2023 12:45:00 AM 3.13 37.634 0.274 8.12 3.76 12.42
2/12/2023 1:00:00 AM 3.13 37.634 0.274 8.11 3.79 12.42
2/12/2023 1:15:00 AM 3.13 37.634 0.274 8.12 3.87 12.41
2/12/2023 1:30:00 AM 3.13 37.634 0.274 8.11 3.77 12.4
2/12/2023 1:45:00 AM 3.13 37.634 0.274 8.12 3.71 12.41
2/12/2023 2:00:00 AM 3.13 37.634 0.274 8.12 3.74 12.41
2/12/2023 2:15:00 AM 3.13 37.634 0.274 8.11 3.92 12.39
2/12/2023 2:30:00 AM 3.13 37.634 0.274 8.11 3.8 12.42
2/12/2023 2:45:00 AM 3.13 37.634 0.274 8.12 3.94 12.41
2/12/2023 3:00:00 AM 3.13 37.634 0.274 8.11 3.85 12.4
2/12/2023 3:15:00 AM 3.13 37.634 0.274 8.11 3.82 12.4
2/12/2023 3:30:00 AM 3.13 37.634 0.274 8.11 3.77 12.4
2/12/2023 3:45:00 AM 3.13 37.634 0.274 8.11 3.73 12.4
2/12/2023 4:00:00 AM 3.13 37.634 0.274 8.11 3.79 12.38
2/12/2023 4:15:00 AM 3.13 37.634 0.274 8.11 3.71 12.4
2/12/2023 4:30:00 AM 3.13 37.634 0.274 8.11 3.68 12.38
2/12/2023 4:45:00 AM 3.14 37.652 0.274 8.11 3.66 12.36
2/12/2023 5:00:00 AM 3.14 37.652 0.274 8.11 3.66 12.36
2/12/2023 5:15:00 AM 3.14 37.652 0.274 8.11 3.66 12.36
2/12/2023 5:30:00 AM 3.14 37.652 0.274 8.11 3.66 12.36
2/12/2023 5:45:00 AM 3.14 37.652 0.274 8.11 3.69 12.35
2/12/2023 6:00:00 AM 3.14 37.652 0.274 8.11 3.61 12.36
2/12/2023 6:15:00 AM 3.13 37.634 0.274 8.11 3.66 12.36
2/12/2023 6:30:00 AM 3.14 37.652 0.274 8.1 3.77 12.38
2/12/2023 6:45:00 AM 3.13 37.634 0.274 8.1 3.79 12.36
2/12/2023 7:00:00 AM 3.13 37.634 0.274 8.11 3.82 12.4
2/12/2023 7:15:00 AM 3.21 37.778 0.274 8.06 4.83 12.39
2/12/2023 7:30:00 AM 2.96 37.328 0.27 8.1 5.51 12.42
2/12/2023 7:45:00 AM 2.84 37.112 0.267 8.11 5.24 12.41
2/12/2023 8:00:00 AM 2.78 37.004 0.266 8.12 5.71 12.41
2/12/2023 8:15:00 AM 2.75 36.95 0.266 8.12 5.5 12.41
2/12/2023 8:30:00 AM 2.74 36.932 0.266 8.12 5.75 12.41
2/12/2023 8:45:00 AM 2.73 36.914 0.265 8.12 5.92 12.4
2/12/2023 9:00:00 AM 2.73 36.914 0.265 8.11 5.29 12.4
2/12/2023 9:15:00 AM 2.74 36.932 0.265 8.12 6.48 12.41
2/12/2023 9:30:00 AM 2.74 36.932 0.265 8.12 6.19 12.42
2/12/2023 9:45:00 AM 2.75 36.95 0.265 8.11 6.01 12.41
2/12/2023 10:00:00 AM 2.76 36.968 0.264 8.12 5.36 12.42
2/12/2023 10:15:00 AM 2.78 37.004 0.264 8.12 5.3 12.42
2/12/2023 10:30:00 AM 2.8 37.04 0.264 8.12 6.15 12.43
2/12/2023 10:45:00 AM 2.82 37.076 0.264 8.12 6.3 12.44
2/12/2023 11:00:00 AM 2.83 37.094 0.263 8.12 6.07 12.44
2/12/2023 11:15:00 AM 2.86 37.148 0.263 8.12 6.43 12.45
2/12/2023 11:30:00 AM 2.88 37.184 0.263 8.12 6.19 12.45
2/12/2023 11:45:00 AM 2.9 37.22 0.263 8.12 6.84 12.46
2/12/2023 12:00:00 PM 2.93 37.274 0.263 8.12 6.15 12.46
2/12/2023 12:15:00 PM 2.96 37.328 0.262 8.12 7.25 12.47
2/12/2023 12:30:00 PM 2.99 37.382 0.262 8.12 5.92 12.47
2/12/2023 12:45:00 PM 3.01 37.418 0.262 8.13 5.99 12.48
2/12/2023 1:00:00 PM 3.03 37.454 0.262 8.13 6.58 12.48
2/12/2023 1:15:00 PM 3.05 37.49 0.262 8.13 7.07 12.48
2/12/2023 1:30:00 PM 3.07 37.526 0.262 8.13 6.3 12.49
2/12/2023 1:45:00 PM 3.09 37.562 0.261 8.13 6.76 12.49
2/12/2023 2:00:00 PM 3.11 37.598 0.261 8.13 6.75 12.5
2/12/2023 2:15:00 PM 3.13 37.634 0.261 8.13 6.03 12.51
2/12/2023 2:30:00 PM 3.14 37.652 0.261 8.13 6.17 12.5
2/12/2023 2:45:00 PM 3.15 37.67 0.261 8.13 5.47 12.5
2/12/2023 3:00:00 PM 3.15 37.67 0.261 8.13 4.99 12.49
2/12/2023 3:15:00 PM 3.15 37.67 0.261 8.13 5.65 12.49
2/12/2023 3:30:00 PM 3.15 37.67 0.261 8.13 5.44 12.48
2/12/2023 3:45:00 PM 3.15 37.67 0.261 8.13 5 12.48
2/12/2023 4:00:00 PM 3.15 37.67 0.261 8.13 5.25 12.47
2/12/2023 4:15:00 PM 3.15 37.67 0.261 8.13 4.94 12.46
2/12/2023 4:30:00 PM 3.15 37.67 0.261 8.13 4.87 12.46
2/12/2023 4:45:00 PM 3.15 37.67 0.261 8.13 5.04 12.46
2/12/2023 5:00:00 PM 3.15 37.67 0.261 8.13 5.3 12.46
2/12/2023 5:15:00 PM 3.15 37.67 0.261 8.13 4.78 12.44
2/12/2023 5:30:00 PM 3.15 37.67 0.261 8.13 4.95 12.45
2/12/2023 5:45:00 PM 3.15 37.67 0.261 8.13 4.94 12.43
2/12/2023 6:00:00 PM 3.15 37.67 0.261 8.13 4.71 12.44
2/12/2023 6:15:00 PM 3.15 37.67 0.261 8.13 4.61 12.42
2/12/2023 6:30:00 PM 3.15 37.67 0.261 8.12 4.66 12.42
2/12/2023 6:45:00 PM 3.15 37.67 0.261 8.13 4.67 12.41
2/12/2023 7:00:00 PM 3.15 37.67 0.261 8.12 4.57 12.41
2/12/2023 7:15:00 PM 3.15 37.67 0.261 8.12 4.37 12.41
2/12/2023 7:30:00 PM 3.15 37.67 0.261 8.12 4.72 12.4
2/12/2023 7:45:00 PM 3.15 37.67 0.261 8.12 4.5 12.4
2/12/2023 8:00:00 PM 3.15 37.67 0.261 8.11 4.75 12.4
2/12/2023 8:15:00 PM 3.15 37.67 0.261 8.12 4.44 12.38
2/12/2023 8:30:00 PM 3.16 37.688 0.261 8.12 4.33 12.37
2/12/2023 8:45:00 PM 3.16 37.688 0.261 8.12 4.24 12.35
2/12/2023 9:00:00 PM 3.17 37.706 0.261 8.11 4.27 12.35
2/12/2023 9:15:00 PM 3.17 37.706 0.261 8.11 4.24 12.33
2/12/2023 9:30:00 PM 3.17 37.706 0.261 8.1 4.23 12.33
2/12/2023 9:45:00 PM 3.17 37.706 0.261 8.11 4.26 12.33
2/12/2023 10:00:00 PM 3.17 37.706 0.261 8.11 4.1 12.31
2/12/2023 10:15:00 PM 3.18 37.724 0.261 8.11 4.13 12.3
2/12/2023 10:30:00 PM 3.18 37.724 0.261 8.11 4.15 12.29
2/12/2023 10:45:00 PM 3.18 37.724 0.261 8.11 3.96 12.28
2/12/2023 11:00:00 PM 3.19 37.742 0.261 8.11 4.08 12.26
2/12/2023 11:15:00 PM 3.19 37.742 0.261 8.11 3.97 12.27
2/12/2023 11:30:00 PM 3.19 37.742 0.261 8.11 3.85 12.24
2/12/2023 11:45:00 PM 3.19 37.742 0.261 8.11 3.96 12.25
2/13/2023 12:00:00 AM 3.19 37.742 0.261 8.1 4.1 12.24
2/13/2023 12:15:00 AM 3.2 37.76 0.261 8.1 3.92 12.25
2/13/2023 12:30:00 AM 3.2 37.76 0.261 8.1 3.8 12.25
2/13/2023 12:45:00 AM 3.2 37.76 0.261 8.1 4.09 12.22
2/13/2023 1:00:00 AM 3.2 37.76 0.261 8.11 3.9 12.24
2/13/2023 1:15:00 AM 3.21 37.778 0.261 8.11 3.83 12.23
2/13/2023 1:30:00 AM 3.21 37.778 0.261 8.1 3.98 12.22
2/13/2023 1:45:00 AM 3.21 37.778 0.261 8.11 3.84 12.22
2/13/2023 2:00:00 AM 3.21 37.778 0.261 8.1 3.77 12.21
2/13/2023 2:15:00 AM 3.21 37.778 0.261 8.1 3.78 12.2
2/13/2023 2:30:00 AM 3.21 37.778 0.261 8.09 3.92 12.2
2/13/2023 2:45:00 AM 3.21 37.778 0.261 8.09 3.76 12.19
2/13/2023 3:00:00 AM 3.21 37.778 0.261 8.1 3.87 12.19
2/13/2023 3:15:00 AM 3.21 37.778 0.261 8.09 3.75 12.22
2/13/2023 3:30:00 AM 3.21 37.778 0.261 8.1 3.75 12.21
2/13/2023 3:45:00 AM 3.21 37.778 0.261 8.09 3.86 12.21
2/13/2023 4:00:00 AM 3.21 37.778 0.261 8.09 3.89 12.22
2/13/2023 4:15:00 AM 3.21 37.778 0.261 8.11 3.86 12.24
2/13/2023 4:30:00 AM 3.21 37.778 0.261 8.1 3.96 12.25
2/13/2023 4:45:00 AM 3.21 37.778 0.261 8.1 4.02 12.22
2/13/2023 5:00:00 AM 3.21 37.778 0.261 8.09 3.8 12.21
2/13/2023 5:15:00 AM 3.21 37.778 0.261 8.1 3.8 12.19
2/13/2023 5:30:00 AM 3.21 37.778 0.261 8.09 3.75 12.18
2/13/2023 5:45:00 AM 3.21 37.778 0.261 8.1 3.78 12.2
2/13/2023 6:00:00 AM 3.21 37.778 0.261 8.1 3.91 12.2
2/13/2023 6:15:00 AM 3.21 37.778 0.261 8.1 3.9 12.21
2/13/2023 6:30:00 AM 3.21 37.778 0.261 8.1 3.94 12.22
2/13/2023 6:45:00 AM 3.21 37.778 0.261 8.11 3.82 12.22
2/13/2023 7:00:00 AM 3.21 37.778 0.261 8.1 3.91 12.22
2/13/2023 7:15:00 AM 3.02 37.436 0.261 8.09 7.01 12.34
2/13/2023 7:30:00 AM 2.77 36.986 0.26 8.11 6.92 12.39
2/13/2023 7:45:00 AM 2.55 36.59 0.259 8.13 6.21 12.44
2/13/2023 8:00:00 AM 2.47 36.446 0.259 8.14 6.67 12.46
2/13/2023 8:15:00 AM 2.43 36.374 0.259 8.14 6.61 12.47
2/13/2023 8:30:00 AM 2.41 36.338 0.259 8.14 6.82 12.48
2/13/2023 8:45:00 AM 2.4 36.32 0.259 8.14 6.28 12.48
2/13/2023 9:00:00 AM 2.39 36.302 0.259 8.14 6.79 12.49
2/13/2023 9:15:00 AM 2.39 36.302 0.259 8.14 6.6 12.49
2/13/2023 9:30:00 AM 2.39 36.302 0.258 8.14 6.29 12.5
2/13/2023 9:45:00 AM 2.41 36.338 0.258 8.14 6.57 12.5
2/13/2023 10:00:00 AM 2.42 36.356 0.258 8.14 6.34 12.51
2/13/2023 10:15:00 AM 2.45 36.41 0.258 8.14 6.25 12.51
2/13/2023 10:30:00 AM 2.47 36.446 0.258 8.14 7.21 12.52
2/13/2023 10:45:00 AM 2.51 36.518 0.258 8.14 6.47 12.53
2/13/2023 11:00:00 AM 2.53 36.554 0.258 8.14 7.36 12.53
2/13/2023 11:15:00 AM 2.57 36.626 0.258 8.14 7.35 12.54
2/13/2023 11:30:00 AM 2.6 36.68 0.258 8.14 6.68 12.54
2/13/2023 11:45:00 AM 2.65 36.77 0.258 8.14 7.01 12.54
2/13/2023 12:00:00 PM 2.68 36.824 0.258 8.14 7.46 12.55
2/13/2023 12:15:00 PM 2.69 36.842 0.258 8.14 7.2 12.55
2/13/2023 12:30:00 PM 2.72 36.896 0.258 8.15 7.85 12.55
2/13/2023 12:45:00 PM 2.75 36.95 0.258 8.14 7.34 12.56
2/13/2023 1:00:00 PM 2.76 36.968 0.258 8.14 7.93 12.56
2/13/2023 1:15:00 PM 2.77 36.986 0.258 8.15 6.94 12.55
2/13/2023 1:30:00 PM 2.78 37.004 0.258 8.14 6.99 12.55
2/13/2023 1:45:00 PM 2.79 37.022 0.258 8.14 8.42 12.57
2/13/2023 2:00:00 PM 2.79 37.022 0.258 8.15 8.12 12.44
2/13/2023 2:15:00 PM 2.78 37.004 0.258 8.15 8 12.57
2/13/2023 2:30:00 PM 2.79 37.022 0.258 8.15 7.84 12.57
2/13/2023 2:45:00 PM 2.8 37.04 0.258 8.15 8.66 12.58
2/13/2023 3:00:00 PM 2.81 37.058 0.258 8.15 7.64 12.58
2/13/2023 3:15:00 PM 2.82 37.076 0.258 8.15 7.94 12.57
2/13/2023 3:30:00 PM 2.83 37.094 0.258 8.15 6.84 12.56
2/13/2023 3:45:00 PM 2.83 37.094 0.258 8.15 6.65 12.55
2/13/2023 4:00:00 PM 2.83 37.094 0.258 8.15 7.06 12.54
2/13/2023 4:15:00 PM 2.83 37.094 0.258 8.15 6.69 12.53
2/13/2023 4:30:00 PM 2.83 37.094 0.258 8.15 6.85 12.53
2/13/2023 4:45:00 PM 2.84 37.112 0.258 8.15 6.63 12.53
2/13/2023 5:00:00 PM 2.84 37.112 0.258 8.15 6.43 12.53
2/13/2023 5:15:00 PM 2.84 37.112 0.258 8.15 6.28 12.53
2/13/2023 5:30:00 PM 2.84 37.112 0.258 8.15 7.14 12.52
2/13/2023 5:45:00 PM 2.84 37.112 0.258 8.15 7.19 12.52
2/13/2023 6:00:00 PM 2.84 37.112 0.258 8.15 6.54 12.52
2/13/2023 6:15:00 PM 2.84 37.112 0.258 8.15 6.5 12.52
2/13/2023 6:30:00 PM 2.84 37.112 0.258 8.15 6.1 12.51
2/13/2023 6:45:00 PM 2.84 37.112 0.258 8.15 6.22 12.51
2/13/2023 7:00:00 PM 2.84 37.112 0.258 8.15 6.39 12.51
2/13/2023 7:15:00 PM 2.84 37.112 0.258 8.15 5.78 12.5
2/13/2023 7:30:00 PM 2.84 37.112 0.258 8.15 5.9 12.5
2/13/2023 7:45:00 PM 2.85 37.13 0.258 8.14 5.86 12.49
2/13/2023 8:00:00 PM 2.85 37.13 0.258 8.14 5.44 12.49
2/13/2023 8:15:00 PM 2.85 37.13 0.258 8.14 5.65 12.48
2/13/2023 8:30:00 PM 2.85 37.13 0.258 8.14 5.49 12.46
2/13/2023 8:45:00 PM 2.86 37.148 0.258 8.14 5.38 12.45
2/13/2023 9:00:00 PM 2.86 37.148 0.258 8.14 5.65 12.45
2/13/2023 9:15:00 PM 2.86 37.148 0.258 8.14 5.73 12.46
2/13/2023 9:30:00 PM 2.87 37.166 0.258 8.14 5.54 12.46
2/13/2023 9:45:00 PM 2.86 37.148 0.258 8.14 5.75 12.47
2/13/2023 10:00:00 PM 2.87 37.166 0.258 8.14 5.63 12.46
2/13/2023 10:15:00 PM 2.87 37.166 0.258 8.14 5.4 12.45
2/13/2023 10:30:00 PM 2.87 37.166 0.258 8.14 5.47 12.45
2/13/2023 10:45:00 PM 2.88 37.184 0.258 8.14 5.66 12.44
2/13/2023 11:00:00 PM 2.88 37.184 0.258 8.13 5.54 12.42
2/13/2023 11:15:00 PM 2.88 37.184 0.258 8.14 5.01 12.42
2/13/2023 11:30:00 PM 2.89 37.202 0.258 8.13 5.21 12.41
2/13/2023 11:45:00 PM 2.89 37.202 0.258 8.13 5.15 12.4
2/14/2023 12:00:00 AM 2.89 37.202 0.258 8.13 4.65 12.41
2/14/2023 12:15:00 AM 2.89 37.202 0.258 8.13 5.13 12.4
2/14/2023 12:30:00 AM 2.89 37.202 0.258 8.13 5.14 12.4
2/14/2023 12:45:00 AM 2.89 37.202 0.258 8.13 5.03 12.39
2/14/2023 1:00:00 AM 2.9 37.22 0.258 8.13 4.94 12.39
2/14/2023 1:15:00 AM 2.9 37.22 0.258 8.13 5.07 12.37
2/14/2023 1:30:00 AM 2.9 37.22 0.258 8.12 5.14 12.37
2/14/2023 1:45:00 AM 2.9 37.22 0.258 8.12 5.04 12.38
2/14/2023 2:00:00 AM 2.9 37.22 0.258 8.13 5.12 12.37
2/14/2023 2:15:00 AM 2.9 37.22 0.258 8.13 4.84 12.37
2/14/2023 2:30:00 AM 2.9 37.22 0.258 8.12 4.62 12.38
2/14/2023 2:45:00 AM 2.9 37.22 0.258 8.13 4.64 12.39
2/14/2023 3:00:00 AM 2.9 37.22 0.258 8.13 5.04 12.38
2/14/2023 3:15:00 AM 2.9 37.22 0.258 8.13 5.01 12.39
2/14/2023 3:30:00 AM 2.9 37.22 0.258 8.13 5.13 12.39
2/14/2023 3:45:00 AM 2.9 37.22 0.258 8.12 5.09 12.39
2/14/2023 4:00:00 AM 2.9 37.22 0.258 8.12 5.07 12.38
2/14/2023 4:15:00 AM 2.9 37.22 0.258 8.13 4.63 12.34
2/14/2023 4:30:00 AM 2.91 37.238 0.258 8.13 5.03 12.37
2/14/2023 4:45:00 AM 2.91 37.238 0.258 8.12 5.13 12.37
2/14/2023 5:00:00 AM 2.91 37.238 0.258 8.13 5.04 12.36
2/14/2023 5:15:00 AM 2.91 37.238 0.258 8.13 4.83 12.38
2/14/2023 5:30:00 AM 2.91 37.238 0.258 8.13 5.29 12.36
2/14/2023 5:45:00 AM 2.92 37.256 0.258 8.13 4.99 12.36
2/14/2023 6:00:00 AM 2.92 37.256 0.258 8.13 5.1 12.35
2/14/2023 6:15:00 AM 2.92 37.256 0.258 8.13 4.99 12.34
2/14/2023 6:30:00 AM 2.93 37.274 0.258 8.13 4.85 12.31
2/14/2023 6:45:00 AM 2.93 37.274 0.258 8.12 4.75 12.31
2/14/2023 7:00:00 AM 3.17 37.706 0.258 8.09 5.75 12.31
2/14/2023 7:15:00 AM 2.85 37.13 0.259 8.1 7.74 12.39
2/14/2023 7:30:00 AM 2.54 36.572 0.259 8.11 8.1 12.46
2/14/2023 7:45:00 AM 2.41 36.338 0.259 8.11 9.21 12.48
2/14/2023 8:00:00 AM 2.35 36.23 0.258 8.11 8.66 12.48
2/14/2023 8:15:00 AM 2.33 36.194 0.258 8.11 7.58 12.48
2/14/2023 8:30:00 AM 2.32 36.176 0.258 8.11 8.18 12.49
2/14/2023 8:45:00 AM 2.31 36.158 0.258 8.11 8.15 12.5
2/14/2023 9:00:00 AM 2.31 36.158 0.257 8.11 8.64 12.5
2/14/2023 9:15:00 AM 2.32 36.176 0.257 8.11 8.03 12.51
2/14/2023 9:30:00 AM 2.33 36.194 0.257 8.12 7.82 12.51
2/14/2023 9:45:00 AM 2.35 36.23 0.257 8.12 8.29 12.52
2/14/2023 10:00:00 AM 2.37 36.266 0.257 8.12 8.1 12.52
2/14/2023 10:15:00 AM 2.4 36.32 0.256 8.12 7.97 12.52
2/14/2023 10:30:00 AM 2.44 36.392 0.256 8.12 8.19 12.53
2/14/2023 10:45:00 AM 2.47 36.446 0.256 8.12 8.95 12.54
2/14/2023 11:00:00 AM 2.5 36.5 0.256 8.12 8.88 12.53
2/14/2023 11:15:00 AM 2.54 36.572 0.255 8.12 8.95 12.54
2/14/2023 11:30:00 AM 2.59 36.662 0.255 8.12 8.95 12.55
2/14/2023 11:45:00 AM 2.63 36.734 0.255 8.12 8.79 12.55
2/14/2023 12:00:00 PM 2.68 36.824 0.254 8.12 8.7 12.55
2/14/2023 12:15:00 PM 2.74 36.932 0.254 8.12 8.97 12.56
2/14/2023 12:30:00 PM 2.79 37.022 0.254 8.12 8.16 12.56
2/14/2023 12:45:00 PM 2.84 37.112 0.254 8.12 7.99 12.57
2/14/2023 1:00:00 PM 2.88 37.184 0.253 8.12 8.86 12.57
2/14/2023 1:15:00 PM 2.92 37.256 0.253 8.12 7.8 12.56
2/14/2023 1:30:00 PM 2.97 37.346 0.253 8.12 8.22 12.57
2/14/2023 1:45:00 PM 3.01 37.418 0.253 8.12 8.67 12.57
2/14/2023 2:00:00 PM 3.05 37.49 0.253 8.12 9.49 12.58
2/14/2023 2:15:00 PM 3.08 37.544 0.252 8.12 8.63 12.58
2/14/2023 2:30:00 PM 3.09 37.562 0.252 8.12 8.47 12.58
2/14/2023 2:45:00 PM 3.11 37.598 0.252 8.12 8.94 12.59
2/14/2023 3:00:00 PM 3.12 37.616 0.252 8.12 8.3 12.57
2/14/2023 3:15:00 PM 3.12 37.616 0.252 8.12 7.79 12.57
2/14/2023 3:30:00 PM 3.12 37.616 0.252 8.12 7.66 12.56
2/14/2023 3:45:00 PM 3.12 37.616 0.252 8.12 8.06 12.56
2/14/2023 4:00:00 PM 3.12 37.616 0.252 8.12 7.68 12.54
2/14/2023 4:15:00 PM 3.12 37.616 0.252 8.12 7.88 12.54
2/14/2023 4:30:00 PM 3.12 37.616 0.252 8.12 7.61 12.54
2/14/2023 4:45:00 PM 3.12 37.616 0.252 8.12 7.72 12.54
2/14/2023 5:00:00 PM 3.12 37.616 0.252 8.12 8.2 12.53
2/14/2023 5:15:00 PM 3.12 37.616 0.252 8.12 7.51 12.53
2/14/2023 5:30:00 PM 3.12 37.616 0.252 8.12 7.36 12.52
2/14/2023 5:45:00 PM 3.12 37.616 0.252 8.11 7.17 12.52
2/14/2023 6:00:00 PM 3.12 37.616 0.252 8.12 7.38 12.52
2/14/2023 6:15:00 PM 3.12 37.616 0.252 8.11 6.83 12.5
2/14/2023 6:30:00 PM 3.12 37.616 0.252 8.11 6.64 12.51
2/14/2023 6:45:00 PM 3.12 37.616 0.252 8.11 6.56 12.5
2/14/2023 7:00:00 PM 3.12 37.616 0.252 8.11 6.82 12.48
2/14/2023 7:15:00 PM 3.12 37.616 0.252 8.1 6.9 12.46
2/14/2023 7:30:00 PM 3.12 37.616 0.252 8.11 6.67 12.47
2/14/2023 7:45:00 PM 3.12 37.616 0.252 8.11 6.44 12.47
2/14/2023 8:00:00 PM 3.12 37.616 0.252 8.11 6.41 12.45
2/14/2023 8:15:00 PM 3.12 37.616 0.252 8.11 7.01 12.45
2/14/2023 8:30:00 PM 3.13 37.634 0.252 8.11 6.84 12.44
2/14/2023 8:45:00 PM 3.12 37.616 0.252 8.1 7.36 12.44
2/14/2023 9:00:00 PM 3.13 37.634 0.252 8.1 7 12.42
2/14/2023 9:15:00 PM 3.12 37.616 0.252 8.1 6.76 12.42
2/14/2023 9:30:00 PM 3.12 37.616 0.252 8.1 6.54 12.41
2/14/2023 9:45:00 PM 3.12 37.616 0.252 8.1 6.65 12.4
2/14/2023 10:00:00 PM 3.12 37.616 0.252 8.1 6.4 12.41
2/14/2023 10:15:00 PM 3.13 37.634 0.252 8.1 6.55 12.37
2/14/2023 10:30:00 PM 3.13 37.634 0.252 8.09 5.98 12.33
2/14/2023 10:45:00 PM 3.13 37.634 0.252 8.09 6.51 12.33
2/14/2023 11:00:00 PM 3.13 37.634 0.252 8.09 6.61 12.32
2/14/2023 11:15:00 PM 3.14 37.652 0.252 8.09 6.2 12.32
2/14/2023 11:30:00 PM 3.13 37.634 0.252 8.09 6.23 12.33
2/14/2023 11:45:00 PM 3.14 37.652 0.252 8.08 6.57 12.32
2/15/2023 12:00:00 AM 3.14 37.652 0.252 8.09 6.1 12.3
2/15/2023 12:15:00 AM 3.14 37.652 0.253 8.08 6.11 12.3
2/15/2023 12:30:00 AM 3.14 37.652 0.252 8.09 6.08 12.32
2/15/2023 12:45:00 AM 3.14 37.652 0.252 8.09 5.99 12.35
2/15/2023 1:00:00 AM 3.15 37.67 0.253 8.1 5.94 12.35
2/15/2023 1:15:00 AM 3.15 37.67 0.252 8.1 6.13 12.35
2/15/2023 1:30:00 AM 3.16 37.688 0.253 8.1 5.93 12.36
2/15/2023 1:45:00 AM 3.16 37.688 0.252 8.09 5.93 12.34
2/15/2023 2:00:00 AM 3.16 37.688 0.252 8.09 6.07 12.33
2/15/2023 2:15:00 AM 3.16 37.688 0.253 8.09 6.14 12.3
2/15/2023 2:30:00 AM 3.17 37.706 0.252 8.08 5.91 12.28
2/15/2023 2:45:00 AM 3.17 37.706 0.253 8.08 5.9 12.27
2/15/2023 3:00:00 AM 3.17 37.706 0.253 8.08 6.05 12.28
2/15/2023 3:15:00 AM 3.17 37.706 0.253 8.09 5.8 12.26
2/15/2023 3:30:00 AM 3.18 37.724 0.253 8.08 5.84 12.24
2/15/2023 3:45:00 AM 3.18 37.724 0.253 8.08 5.69 12.23
2/15/2023 4:00:00 AM 3.18 37.724 0.253 8.08 5.78 12.24
2/15/2023 4:15:00 AM 3.18 37.724 0.252 8.08 5.73 12.26
2/15/2023 4:30:00 AM 3.18 37.724 0.253 8.08 5.76 12.24
2/15/2023 4:45:00 AM 3.18 37.724 0.253 8.09 5.78 12.27
2/15/2023 5:00:00 AM 3.18 37.724 0.252 8.09 5.97 12.29
2/15/2023 5:15:00 AM 3.18 37.724 0.252 8.09 5.89 12.29
2/15/2023 5:30:00 AM 3.17 37.706 0.252 8.08 5.96 12.28
2/15/2023 5:45:00 AM 3.17 37.706 0.252 8.09 5.85 12.29
2/15/2023 6:00:00 AM 3.17 37.706 0.253 8.07 6.01 12.3
2/15/2023 6:15:00 AM 3.18 37.724 0.252 8.09 6.04 12.27
2/15/2023 6:30:00 AM 3.18 37.724 0.253 8.08 5.98 12.26
2/15/2023 6:45:00 AM 3.17 37.706 0.253 8.09 6.28 12.29
2/15/2023 7:00:00 AM 3.24 37.832 0.253 8.08 7.41 12.34
2/15/2023 7:15:00 AM 3.23 37.814 0.25 8.09 9.39 12.39
2/15/2023 7:30:00 AM 3.16 37.688 0.248 8.1 8.27 12.41
2/15/2023 7:45:00 AM 3.1 37.58 0.248 8.1 8.31 12.43
2/15/2023 8:00:00 AM 3.08 37.544 0.247 8.1 8.45 12.43
2/15/2023 8:15:00 AM 3.06 37.508 0.247 8.1 9.64 12.43
2/15/2023 8:30:00 AM 3.05 37.49 0.247 8.1 9.73 12.42
2/15/2023 8:45:00 AM 3.05 37.49 0.247 8.09 9.04 12.43
2/15/2023 9:00:00 AM 3.05 37.49 0.247 8.09 8.46 12.43
2/15/2023 9:15:00 AM 3.05 37.49 0.246 8.09 9.67 12.43
2/15/2023 9:30:00 AM 3.06 37.508 0.246 8.09 9.6 12.44
2/15/2023 9:45:00 AM 3.07 37.526 0.246 8.09 9.06 12.44
2/15/2023 10:00:00 AM 3.1 37.58 0.246 8.09 9.13 12.45
2/15/2023 10:15:00 AM 3.13 37.634 0.246 8.09 8.5 12.45
2/15/2023 10:30:00 AM 3.17 37.706 0.245 8.1 9.09 12.45
2/15/2023 10:45:00 AM 3.22 37.796 0.245 8.1 8.44 12.45
2/15/2023 11:00:00 AM 3.27 37.886 0.245 8.1 9.42 12.46
2/15/2023 11:15:00 AM 3.33 37.994 0.245 8.1 9.39 12.47
2/15/2023 11:30:00 AM 3.37 38.066 0.245 8.1 8.74 12.47
2/15/2023 11:45:00 AM 3.4 38.12 0.245 8.1 9.43 12.47
2/15/2023 12:00:00 PM 3.46 38.228 0.245 8.1 8.39 12.47
2/15/2023 12:15:00 PM 3.51 38.318 0.244 8.1 8.98 12.47
2/15/2023 12:30:00 PM 3.57 38.426 0.244 8.1 9.01 12.48
2/15/2023 12:45:00 PM 3.65 38.57 0.244 8.11 8.25 12.48
2/15/2023 1:00:00 PM 3.71 38.678 0.244 8.11 8.91 12.48
2/15/2023 1:15:00 PM 3.78 38.804 0.244 8.11 8.13 12.48
2/15/2023 1:30:00 PM 3.85 38.93 0.243 8.11 8.63 12.48
2/15/2023 1:45:00 PM 3.9 39.02 0.243 8.11 8.35 12.49
2/15/2023 2:00:00 PM 3.97 39.146 0.243 8.1 8.2 12.49
2/15/2023 2:15:00 PM 4.04 39.272 0.243 8.11 9.64 12.49
2/15/2023 2:30:00 PM 4.08 39.344 0.242 8.11 8.36 12.49
2/15/2023 2:45:00 PM 4.13 39.434 0.242 8.11 9.11 12.49
2/15/2023 3:00:00 PM 4.15 39.47 0.242 8.11 8.52 12.49
2/15/2023 3:15:00 PM 4.16 39.488 0.242 8.11 7.78 12.48
2/15/2023 3:30:00 PM 4.17 39.506 0.242 8.11 7.48 12.48
2/15/2023 3:45:00 PM 4.17 39.506 0.242 8.11 7.99 12.46
2/15/2023 4:00:00 PM 4.17 39.506 0.242 8.11 7.15 12.46
2/15/2023 4:15:00 PM 4.17 39.506 0.242 8.11 6.68 12.45
2/15/2023 4:30:00 PM 4.16 39.488 0.242 8.11 7.15 12.44
2/15/2023 4:45:00 PM 4.16 39.488 0.242 8.11 7.15 12.44
2/15/2023 5:00:00 PM 4.16 39.488 0.242 8.11 6.96 12.44
2/15/2023 5:15:00 PM 4.16 39.488 0.242 8.1 6.99 12.43
2/15/2023 5:30:00 PM 4.16 39.488 0.242 8.11 6.67 12.43
2/15/2023 5:45:00 PM 4.16 39.488 0.242 8.1 6.25 12.42
2/15/2023 6:00:00 PM 4.16 39.488 0.242 8.11 6.62 12.41
2/15/2023 6:15:00 PM 4.16 39.488 0.242 8.1 6.5 12.4
2/15/2023 6:30:00 PM 4.16 39.488 0.242 8.1 6.68 12.41
2/15/2023 6:45:00 PM 4.15 39.47 0.242 8.11 6.56 12.41
2/15/2023 7:00:00 PM 4.15 39.47 0.242 8.1 6.43 12.4
2/15/2023 7:15:00 PM 4.15 39.47 0.242 8.1 6.65 12.39
2/15/2023 7:30:00 PM 4.15 39.47 0.242 8.1 6.52 12.39
2/15/2023 7:45:00 PM 4.15 39.47 0.242 8.1 6.41 12.38
2/15/2023 8:00:00 PM 4.15 39.47 0.242 8.1 6.62 12.34
2/15/2023 8:15:00 PM 4.15 39.47 0.242 8.1 6.35 12.34
2/15/2023 8:30:00 PM 4.15 39.47 0.242 8.09 6.61 12.34
2/15/2023 8:45:00 PM 4.15 39.47 0.242 8.09 6.28 12.33
2/15/2023 9:00:00 PM 4.15 39.47 0.242 8.09 6.79 12.31
2/15/2023 9:15:00 PM 4.14 39.452 0.242 8.09 6.38 12.31
2/15/2023 9:30:00 PM 4.14 39.452 0.242 8.08 6.26 12.31
2/15/2023 9:45:00 PM 4.14 39.452 0.242 8.09 6.6 12.32
2/15/2023 10:00:00 PM 4.14 39.452 0.242 8.09 6.05 12.31
2/15/2023 10:15:00 PM 4.14 39.452 0.242 8.08 6.27 12.29
2/15/2023 10:30:00 PM 4.14 39.452 0.242 8.08 6.11 12.29
2/15/2023 10:45:00 PM 4.14 39.452 0.242 8.08 6.09 12.29
2/15/2023 11:00:00 PM 4.13 39.434 0.242 8.08 5.95 12.29
2/15/2023 11:15:00 PM 4.13 39.434 0.242 8.08 6.37 12.28
2/15/2023 11:30:00 PM 4.13 39.434 0.242 8.07 6.15 12.26
2/15/2023 11:45:00 PM 4.13 39.434 0.242 8.07 6.01 12.26
2/16/2023 12:00:00 AM 4.13 39.434 0.242 8.07 6.39 12.26
2/16/2023 12:15:00 AM 4.13 39.434 0.242 8.08 6.04 12.26
2/16/2023 12:30:00 AM 4.13 39.434 0.242 8.08 6.08 12.25
2/16/2023 12:45:00 AM 4.13 39.434 0.242 8.07 6.01 12.24
2/16/2023 1:00:00 AM 4.14 39.452 0.242 8.07 6.3 12.22
2/16/2023 1:15:00 AM 4.14 39.452 0.243 8.07 6.05 12.2
2/16/2023 1:30:00 AM 4.13 39.434 0.242 8.07 6.11 12.25
2/16/2023 1:45:00 AM 4.13 39.434 0.242 8.07 5.85 12.23
2/16/2023 2:00:00 AM 4.13 39.434 0.243 8.07 6.07 12.22
2/16/2023 2:15:00 AM 4.13 39.434 0.243 8.05 5.94 12.19
2/16/2023 2:30:00 AM 4.13 39.434 0.243 8.05 5.8 12.19
2/16/2023 2:45:00 AM 4.13 39.434 0.243 8.05 5.81 12.16
2/16/2023 3:00:00 AM 4.13 39.434 0.243 8.04 5.68 12.17
2/16/2023 3:15:00 AM 4.12 39.416 0.243 8.02 5.89 12.15
2/16/2023 3:30:00 AM 4.12 39.416 0.243 8.02 5.72 12.15
2/16/2023 3:45:00 AM 4.12 39.416 0.243 8.01 5.66 12.14
2/16/2023 4:00:00 AM 4.12 39.416 0.243 8.01 5.64 12.12
2/16/2023 4:15:00 AM 4.12 39.416 0.243 8.02 5.53 12.13
2/16/2023 4:30:00 AM 4.12 39.416 0.243 8.02 5.71 12.12
2/16/2023 4:45:00 AM 4.12 39.416 0.243 8.01 5.77 12.13
2/16/2023 5:00:00 AM 4.12 39.416 0.243 8.01 5.94 12.13
2/16/2023 5:15:00 AM 4.11 39.398 0.243 8.02 5.67 12.15
2/16/2023 5:30:00 AM 4.11 39.398 0.243 8.01 5.66 12.15
2/16/2023 5:45:00 AM 4.11 39.398 0.243 8.01 5.56 12.13
2/16/2023 6:00:00 AM 4.11 39.398 0.243 8 5.66 12.12
2/16/2023 6:15:00 AM 4.12 39.416 0.243 8 5.61 12.09
2/16/2023 6:30:00 AM 4.12 39.416 0.243 8 5.54 12.09
2/16/2023 6:45:00 AM 4.12 39.416 0.243 7.99 5.39 12.1
2/16/2023 7:00:00 AM 4.15 39.47 0.244 7.89 7.46 11.99
2/16/2023 7:15:00 AM 4.2 39.56 0.241 8.02 8.28 12.17
2/16/2023 7:30:00 AM 4.2 39.56 0.238 8.07 8.11 12.13
2/16/2023 7:45:00 AM 4.19 39.542 0.237 8.08 7.85 12.12
2/16/2023 8:00:00 AM 4.17 39.506 0.237 8.08 9 12.12
2/16/2023 8:15:00 AM 4.15 39.47 0.237 8.08 8.21 12.11
2/16/2023 8:30:00 AM 4.13 39.434 0.237 8.08 8.4 12.11
2/16/2023 8:45:00 AM 4.12 39.416 0.237 8.08 8.68 12.12
2/16/2023 9:00:00 AM 4.14 39.452 0.237 8.08 7.61 12.12
2/16/2023 9:15:00 AM 4.13 39.434 0.237 8.08 8.39 12.12
2/16/2023 9:30:00 AM 4.12 39.416 0.237 8.08 7.71 12.13
2/16/2023 9:45:00 AM 4.11 39.398 0.237 8.08 7.7 12.14
2/16/2023 10:00:00 AM 4.12 39.416 0.237 8.08 8.07 12.14
2/16/2023 10:15:00 AM 4.12 39.416 0.237 8.08 7.57 12.15
2/16/2023 10:30:00 AM 4.13 39.434 0.237 8.08 8.38 12.15
2/16/2023 10:45:00 AM 4.14 39.452 0.237 8.08 8.25 12.16
2/16/2023 11:00:00 AM 4.15 39.47 0.236 8.08 8.71 12.16
2/16/2023 11:15:00 AM 4.16 39.488 0.236 8.08 7.99 12.17
2/16/2023 11:30:00 AM 4.17 39.506 0.236 8.08 6.6 12.17
2/16/2023 11:45:00 AM 4.19 39.542 0.236 8.08 7.9 12.17
2/16/2023 12:00:00 PM 4.2 39.56 0.236 8.08 7.49 12.17
2/16/2023 12:15:00 PM 4.21 39.578 0.236 8.08 7.77 12.18
2/16/2023 12:30:00 PM 4.22 39.596 0.236 8.08 8.07 12.18
2/16/2023 12:45:00 PM 4.22 39.596 0.236 8.08 7.71 12.18
2/16/2023 1:00:00 PM 4.23 39.614 0.236 8.08 7.66 12.18
2/16/2023 1:15:00 PM 4.23 39.614 0.236 8.08 8.1 12.18
2/16/2023 1:30:00 PM 4.23 39.614 0.236 8.08 7.11 12.18
2/16/2023 1:45:00 PM 4.24 39.632 0.236 8.08 6.39 12.16
2/16/2023 2:00:00 PM 4.24 39.632 0.236 8.08 6.11 12.16
2/16/2023 2:15:00 PM 4.24 39.632 0.236 8.08 6.44 12.15
2/16/2023 2:30:00 PM 4.24 39.632 0.236 8.08 6.23 12.14
2/16/2023 2:45:00 PM 4.24 39.632 0.236 8.08 6.13 12.12
2/16/2023 3:00:00 PM 4.24 39.632 0.236 8.08 5.73 12.11
2/16/2023 3:15:00 PM 4.24 39.632 0.236 8.08 6.19 12.12
2/16/2023 3:30:00 PM 4.24 39.632 0.236 8.08 6.13 12.12
2/16/2023 3:45:00 PM 4.24 39.632 0.236 8.07 6.32 12.1
2/16/2023 4:00:00 PM 4.24 39.632 0.236 8.08 5.78 12.11
2/16/2023 4:15:00 PM 4.24 39.632 0.236 8.08 6.42 12.1
2/16/2023 4:30:00 PM 4.24 39.632 0.236 8.08 6.11 12.09
2/16/2023 4:45:00 PM 4.25 39.65 0.236 8.07 5.87 12.07
2/16/2023 5:00:00 PM 4.25 39.65 0.236 8.06 5.88 12.06
2/16/2023 5:15:00 PM 4.25 39.65 0.236 8.07 6.12 12.07
2/16/2023 5:30:00 PM 4.25 39.65 0.236 8.07 5.23 12.09
2/16/2023 5:45:00 PM 4.24 39.632 0.236 8.07 5.82 12.07
2/16/2023 6:00:00 PM 4.25 39.65 0.236 8.07 5.92 12.07
2/16/2023 6:15:00 PM 4.25 39.65 0.236 8.06 5.55 12.07
2/16/2023 6:30:00 PM 4.25 39.65 0.236 8.06 5.71 12.04
2/16/2023 6:45:00 PM 4.25 39.65 0.236 8.06 5.51 12.05
2/16/2023 7:00:00 PM 4.25 39.65 0.236 8.06 6.62 12.04
2/16/2023 7:15:00 PM 4.25 39.65 0.236 8.06 5.71 12.04
2/16/2023 7:30:00 PM 4.25 39.65 0.236 8.05 5.79 12.06
2/16/2023 7:45:00 PM 4.25 39.65 0.236 8.05 5.71 12.04
2/16/2023 8:00:00 PM 4.25 39.65 0.236 8.05 5.76 12.03
2/16/2023 8:15:00 PM 4.25 39.65 0.237 8.05 5.48 12.02
2/16/2023 8:30:00 PM 4.25 39.65 0.237 8.04 5.38 12.01
2/16/2023 8:45:00 PM 4.25 39.65 0.237 8.04 5.78 12
2/16/2023 9:00:00 PM 4.25 39.65 0.237 8.03 5.68 12
2/16/2023 9:15:00 PM 4.25 39.65 0.237 8.02 5.64 12
2/16/2023 9:30:00 PM 4.25 39.65 0.237 8.02 5.5 11.98
2/16/2023 9:45:00 PM 4.25 39.65 0.237 8.01 5.36 11.97
2/16/2023 10:00:00 PM 4.25 39.65 0.237 8 5.4 11.95
2/16/2023 10:15:00 PM 4.25 39.65 0.237 8 5.4 11.95
2/16/2023 10:30:00 PM 4.25 39.65 0.237 8 5.21 11.96
2/16/2023 10:45:00 PM 4.25 39.65 0.237 8 5.36 11.94
2/16/2023 11:00:00 PM 4.26 39.668 0.237 8 5.31 11.94
2/16/2023 11:15:00 PM 4.26 39.668 0.237 8 5.3 11.93
2/16/2023 11:30:00 PM 4.26 39.668 0.237 7.98 5.27 11.92
2/16/2023 11:45:00 PM 4.26 39.668 0.237 8 5.28 11.93
2/17/2023 12:00:00 AM 4.26 39.668 0.237 7.99 5.22 11.92
2/17/2023 12:15:00 AM 4.26 39.668 0.237 8 5.27 11.92
2/17/2023 12:30:00 AM 4.26 39.668 0.237 8 5.24 11.9
2/17/2023 12:45:00 AM 4.26 39.668 0.237 7.99 5.05 11.91
2/17/2023 1:00:00 AM 4.26 39.668 0.237 7.99 5.12 11.91
2/17/2023 1:15:00 AM 4.26 39.668 0.237 7.99 5.33 11.91
2/17/2023 1:30:00 AM 4.26 39.668 0.237 8 5.21 11.9
2/17/2023 1:45:00 AM 4.26 39.668 0.237 7.98 5.09 11.86
2/17/2023 2:00:00 AM 4.26 39.668 0.237 7.99 5.16 11.87
2/17/2023 2:15:00 AM 4.26 39.668 0.237 7.98 5.07 11.86
2/17/2023 2:30:00 AM 4.26 39.668 0.237 7.98 4.91 11.86
2/17/2023 2:45:00 AM 4.26 39.668 0.237 7.98 5.01 11.86
2/17/2023 3:00:00 AM 4.26 39.668 0.237 7.98 5.11 11.85
2/17/2023 3:15:00 AM 4.26 39.668 0.237 7.97 5.08 11.86
2/17/2023 3:30:00 AM 4.27 39.686 0.237 7.97 5.1 11.85
2/17/2023 3:45:00 AM 4.27 39.686 0.237 7.96 5.06 11.84
2/17/2023 4:00:00 AM 4.27 39.686 0.237 7.96 5.05 11.81
2/17/2023 4:15:00 AM 4.27 39.686 0.238 7.95 4.97 11.8
2/17/2023 4:30:00 AM 4.27 39.686 0.238 7.95 4.92 11.79
2/17/2023 4:45:00 AM 4.28 39.704 0.238 7.95 4.85 11.79
2/17/2023 5:00:00 AM 4.28 39.704 0.238 7.94 4.92 11.79
2/17/2023 5:15:00 AM 4.28 39.704 0.238 7.95 4.94 11.79
2/17/2023 5:30:00 AM 4.28 39.704 0.238 7.95 4.92 11.77
2/17/2023 5:45:00 AM 4.28 39.704 0.238 7.94 4.96 11.78
2/17/2023 6:00:00 AM 4.29 39.722 0.238 7.94 4.93 11.76
2/17/2023 6:15:00 AM 4.29 39.722 0.238 7.93 4.98 11.73
2/17/2023 6:30:00 AM 4.29 39.722 0.238 7.92 4.9 11.73
2/17/2023 6:45:00 AM 4.29 39.722 0.238 7.92 4.88 11.71
2/17/2023 7:00:00 AM 4.33 39.794 0.238 7.97 6.81 11.73
2/17/2023 7:15:00 AM 4.66 40.388 0.237 7.99 7.9 11.86
2/17/2023 7:30:00 AM 4.86 40.748 0.236 8.04 7.96 11.82
2/17/2023 7:45:00 AM 4.9 40.82 0.236 8.05 8.16 11.81
2/17/2023 8:00:00 AM 4.91 40.838 0.237 8.06 7.72 11.8
2/17/2023 8:15:00 AM 4.91 40.838 0.237 8.05 7.4 11.8
2/17/2023 8:30:00 AM 4.92 40.856 0.237 8.06 7.26 11.79
2/17/2023 8:45:00 AM 4.93 40.874 0.237 8.05 7.33 11.79
2/17/2023 9:00:00 AM 4.94 40.892 0.237 8.05 7.69 11.79
2/17/2023 9:15:00 AM 4.94 40.892 0.237 8.05 7.61 11.78
2/17/2023 9:30:00 AM 4.96 40.928 0.237 8.05 7.26 11.78
2/17/2023 9:45:00 AM 4.99 40.982 0.237 8.06 7.55 11.77
2/17/2023 10:00:00 AM 5.03 41.054 0.237 8.06 7.17 11.77
2/17/2023 10:15:00 AM 5.04 41.072 0.238 8.07 6.62 11.77
2/17/2023 10:30:00 AM 5.06 41.108 0.238 8.07 6.69 11.76
2/17/2023 10:45:00 AM 5.07 41.126 0.238 8.07 7.23 11.76
2/17/2023 11:00:00 AM 5.07 41.126 0.238 8.07 7.67 11.76
2/17/2023 11:15:00 AM 5.08 41.144 0.238 8.07 7.5 11.75
2/17/2023 11:30:00 AM 5.09 41.162 0.238 8.07 6.57 11.76
2/17/2023 11:45:00 AM 5.1 41.18 0.238 8.07 6.2 11.76
2/17/2023 12:00:00 PM 5.12 41.216 0.238 8.08 5.9 11.76
2/17/2023 12:15:00 PM 5.15 41.27 0.238 8.08 6.1 11.77
2/17/2023 12:30:00 PM 5.16 41.288 0.238 8.08 6.26 11.77
2/17/2023 12:45:00 PM 5.17 41.306 0.238 8.08 6.69 11.77
2/17/2023 1:00:00 PM 5.2 41.36 0.238 8.08 6.68 11.77
2/17/2023 1:15:00 PM 5.25 41.45 0.238 8.08 6.54 11.78
2/17/2023 1:30:00 PM 5.29 41.522 0.238 8.09 6.15 11.79
2/17/2023 1:45:00 PM 5.3 41.54 0.238 8.09 6.41 11.78
2/17/2023 2:00:00 PM 5.32 41.576 0.238 8.09 6.17 11.79
2/17/2023 2:15:00 PM 5.32 41.576 0.238 8.09 5.98 11.78
2/17/2023 2:30:00 PM 5.32 41.576 0.238 8.09 5.55 11.77
2/17/2023 2:45:00 PM 5.33 41.594 0.238 8.1 6.61 11.76
2/17/2023 3:00:00 PM 5.33 41.594 0.238 8.09 5.55 11.75
2/17/2023 3:15:00 PM 5.32 41.576 0.238 8.09 5.72 11.75
2/17/2023 3:30:00 PM 5.33 41.594 0.238 8.09 5.33 11.73
2/17/2023 3:45:00 PM 5.32 41.576 0.238 8.09 5.42 11.73
2/17/2023 4:00:00 PM 5.32 41.576 0.238 8.09 5.29 11.72
2/17/2023 4:15:00 PM 5.32 41.576 0.238 8.08 5.17 11.71
2/17/2023 4:30:00 PM 5.32 41.576 0.238 8.08 5.45 11.71
2/17/2023 4:45:00 PM 5.32 41.576 0.238 8.09 5.53 11.7
2/17/2023 5:00:00 PM 5.31 41.558 0.238 8.08 5.25 11.7
2/17/2023 5:15:00 PM 5.31 41.558 0.238 8.09 5.2 11.69
2/17/2023 5:30:00 PM 5.31 41.558 0.238 8.08 5.27 11.69
2/17/2023 5:45:00 PM 5.31 41.558 0.238 8.08 5.35 11.68
2/17/2023 6:00:00 PM 5.31 41.558 0.238 8.08 5.21 11.68
2/17/2023 6:15:00 PM 5.31 41.558 0.238 8.07 5.42 11.67
2/17/2023 6:30:00 PM 5.31 41.558 0.238 8.07 4.91 11.66
2/17/2023 6:45:00 PM 5.3 41.54 0.238 8.08 5.14 11.65
2/17/2023 7:00:00 PM 5.3 41.54 0.238 8.06 5.32 11.64
2/17/2023 7:15:00 PM 5.3 41.54 0.238 8.06 5.4 11.63
2/17/2023 7:30:00 PM 5.3 41.54 0.238 8.05 5.4 11.63
2/17/2023 7:45:00 PM 5.3 41.54 0.238 8.05 5.11 11.59
2/17/2023 8:00:00 PM 5.3 41.54 0.238 8.04 5.01 11.59
2/17/2023 8:15:00 PM 5.3 41.54 0.238 8.04 5.19 11.6
2/17/2023 8:30:00 PM 5.3 41.54 0.238 8.04 4.9 11.6
2/17/2023 8:45:00 PM 5.3 41.54 0.239 8.04 5.11 11.58
2/17/2023 9:00:00 PM 5.29 41.522 0.239 8.02 5.27 11.58
2/17/2023 9:15:00 PM 5.29 41.522 0.239 8.03 5.03 11.6
2/17/2023 9:30:00 PM 5.29 41.522 0.239 8.03 5.07 11.59
2/17/2023 9:45:00 PM 5.29 41.522 0.239 8.02 4.86 11.56
2/17/2023 10:00:00 PM 5.28 41.504 0.239 8.01 4.87 11.54
2/17/2023 10:15:00 PM 5.28 41.504 0.239 8 4.67 11.53
2/17/2023 10:30:00 PM 5.28 41.504 0.239 8 4.96 11.51
2/17/2023 10:45:00 PM 5.28 41.504 0.239 7.98 4.54 11.52
2/17/2023 11:00:00 PM 5.28 41.504 0.239 7.97 4.66 11.53
2/17/2023 11:15:00 PM 5.28 41.504 0.239 7.96 4.6 11.48
2/17/2023 11:30:00 PM 5.28 41.504 0.239 7.95 4.65 11.5
2/17/2023 11:45:00 PM 5.28 41.504 0.239 7.95 4.77 11.49
2/18/2023 12:00:00 AM 5.28 41.504 0.239 7.95 4.81 11.49
2/18/2023 12:15:00 AM 5.28 41.504 0.239 7.95 4.75 11.49
2/18/2023 12:30:00 AM 5.28 41.504 0.239 7.96 4.62 11.47
2/18/2023 12:45:00 AM 5.27 41.486 0.239 7.97 4.75 11.47
2/18/2023 1:00:00 AM 5.27 41.486 0.239 7.96 4.75 11.49
2/18/2023 1:15:00 AM 5.27 41.486 0.239 7.97 4.68 11.49
2/18/2023 1:30:00 AM 5.27 41.486 0.239 7.98 4.85 11.51
2/18/2023 1:45:00 AM 5.27 41.486 0.239 7.98 4.42 11.53
2/18/2023 2:00:00 AM 5.26 41.468 0.239 7.97 4.77 11.53
2/18/2023 2:15:00 AM 5.26 41.468 0.239 7.98 5.04 11.52
2/18/2023 2:30:00 AM 5.27 41.486 0.239 7.99 4.71 11.53
2/18/2023 2:45:00 AM 5.27 41.486 0.239 7.99 4.68 11.51
2/18/2023 3:00:00 AM 5.27 41.486 0.239 7.98 4.76 11.5
2/18/2023 3:15:00 AM 5.27 41.486 0.239 7.97 4.58 11.49
2/18/2023 3:30:00 AM 5.27 41.486 0.239 7.96 4.51 11.45
2/18/2023 3:45:00 AM 5.27 41.486 0.239 7.96 4.56 11.48
2/18/2023 4:00:00 AM 5.27 41.486 0.239 7.96 4.63 11.45
2/18/2023 4:15:00 AM 5.27 41.486 0.239 7.95 4.65 11.44
2/18/2023 4:30:00 AM 5.27 41.486 0.239 7.93 4.5 11.45
2/18/2023 4:45:00 AM 5.27 41.486 0.24 7.93 4.56 11.43
2/18/2023 5:00:00 AM 5.27 41.486 0.24 7.91 4.66 11.42
2/18/2023 5:15:00 AM 5.28 41.504 0.24 7.92 4.53 11.4
2/18/2023 5:30:00 AM 5.28 41.504 0.24 7.91 4.52 11.39
2/18/2023 5:45:00 AM 5.28 41.504 0.24 7.9 4.51 11.38
2/18/2023 6:00:00 AM 5.28 41.504 0.24 7.9 4.49 11.41
2/18/2023 6:15:00 AM 5.28 41.504 0.24 7.91 4.54 11.42
2/18/2023 6:30:00 AM 5.28 41.504 0.24 7.91 4.61 11.4
2/18/2023 6:45:00 AM 5.28 41.504 0.24 7.91 4.74 11.4
2/18/2023 7:00:00 AM 5.28 41.504 0.24 7.9 4.42 11.39
2/18/2023 7:15:00 AM 5.28 41.504 0.24 7.91 4.55 11.37
2/18/2023 7:30:00 AM 5.29 41.522 0.24 7.92 4.45 11.36
2/18/2023 7:45:00 AM 5.07 41.126 0.241 7.91 5.58 11.55
2/18/2023 8:00:00 AM 4.56 40.208 0.241 8.01 6.14 11.66
2/18/2023 8:15:00 AM 4.23 39.614 0.24 8.07 6.14 11.75
2/18/2023 8:30:00 AM 4.09 39.362 0.24 8.1 6.53 11.77
2/18/2023 8:45:00 AM 4.04 39.272 0.24 8.11 5.65 11.79
2/18/2023 9:00:00 AM 4.03 39.254 0.24 8.11 6.16 11.8
2/18/2023 9:15:00 AM 4.02 39.236 0.24 8.11 5.76 11.81
2/18/2023 9:30:00 AM 4.02 39.236 0.24 8.12 5.75 11.83
2/18/2023 9:45:00 AM 4.03 39.254 0.24 8.12 6.19 11.84
2/18/2023 10:00:00 AM 4.04 39.272 0.24 8.12 6.02 11.85
2/18/2023 10:15:00 AM 4.05 39.29 0.24 8.12 6.09 11.87
2/18/2023 10:30:00 AM 4.06 39.308 0.241 8.13 5.21 11.88
2/18/2023 10:45:00 AM 4.08 39.344 0.241 8.13 5.99 11.9
2/18/2023 11:00:00 AM 4.1 39.38 0.241 8.13 6.03 11.91
2/18/2023 11:15:00 AM 4.12 39.416 0.241 8.14 5.85 11.93
2/18/2023 11:30:00 AM 4.15 39.47 0.241 8.14 6.46 11.94
2/18/2023 11:45:00 AM 4.19 39.542 0.241 8.14 5.61 11.95
2/18/2023 12:00:00 PM 4.23 39.614 0.241 8.14 6.18 11.97
2/18/2023 12:15:00 PM 4.27 39.686 0.241 8.14 5.82 11.97
2/18/2023 12:30:00 PM 4.31 39.758 0.241 8.15 5.79 11.98
2/18/2023 12:45:00 PM 4.36 39.848 0.241 8.15 6.07 11.99
2/18/2023 1:00:00 PM 4.39 39.902 0.241 8.15 6.05 11.99
2/18/2023 1:15:00 PM 4.44 39.992 0.241 8.15 5.72 12
2/18/2023 1:30:00 PM 4.48 40.064 0.241 8.15 5.85 12.01
2/18/2023 1:45:00 PM 4.52 40.136 0.241 8.15 6.28 12.01
2/18/2023 2:00:00 PM 4.55 40.19 0.241 8.15 6.08 12.02
2/18/2023 2:15:00 PM 4.57 40.226 0.241 8.16 6.28 12.01
2/18/2023 2:30:00 PM 4.57 40.226 0.241 8.15 5.42 11.99
2/18/2023 2:45:00 PM 4.57 40.226 0.241 8.16 5.34 11.98
2/18/2023 3:00:00 PM 4.58 40.244 0.241 8.15 5.23 11.98
2/18/2023 3:15:00 PM 4.58 40.244 0.241 8.15 5.5 11.97
2/18/2023 3:30:00 PM 4.58 40.244 0.241 8.15 5.25 11.97
2/18/2023 3:45:00 PM 4.58 40.244 0.241 8.15 5.3 11.96
2/18/2023 4:00:00 PM 4.58 40.244 0.241 8.15 4.86 11.95
2/18/2023 4:15:00 PM 4.58 40.244 0.241 8.15 4.91 11.94
2/18/2023 4:30:00 PM 4.58 40.244 0.241 8.14 5.08 11.93
2/18/2023 4:45:00 PM 4.58 40.244 0.241 8.14 5.01 11.93
2/18/2023 5:00:00 PM 4.58 40.244 0.241 8.14 5.05 11.93
2/18/2023 5:15:00 PM 4.58 40.244 0.241 8.14 5.02 11.93
2/18/2023 5:30:00 PM 4.58 40.244 0.241 8.14 4.76 11.91
2/18/2023 5:45:00 PM 4.58 40.244 0.241 8.14 5.27 11.91
2/18/2023 6:00:00 PM 4.58 40.244 0.241 8.14 5.04 11.9
2/18/2023 6:15:00 PM 4.58 40.244 0.241 8.14 4.77 11.9
2/18/2023 6:30:00 PM 4.58 40.244 0.241 8.14 4.69 11.91
2/18/2023 6:45:00 PM 4.59 40.262 0.241 8.14 5.08 11.91
2/18/2023 7:00:00 PM 4.59 40.262 0.241 8.13 4.78 11.91
2/18/2023 7:15:00 PM 4.59 40.262 0.241 8.14 4.61 11.89
2/18/2023 7:30:00 PM 4.59 40.262 0.241 8.13 4.73 11.87
2/18/2023 7:45:00 PM 4.59 40.262 0.241 8.13 4.7 11.89
2/18/2023 8:00:00 PM 4.59 40.262 0.241 8.13 4.74 11.85
2/18/2023 8:15:00 PM 4.59 40.262 0.241 8.13 4.56 11.85
2/18/2023 8:30:00 PM 4.59 40.262 0.241 8.12 4.55 11.84
2/18/2023 8:45:00 PM 4.59 40.262 0.241 8.12 4.95 11.83
2/18/2023 9:00:00 PM 4.59 40.262 0.241 8.12 4.63 11.83
2/18/2023 9:15:00 PM 4.6 40.28 0.241 8.13 4.89 11.81
2/18/2023 9:30:00 PM 4.59 40.262 0.241 8.11 4.51 11.81
2/18/2023 9:45:00 PM 4.59 40.262 0.241 8.12 4.59 11.8
2/18/2023 10:00:00 PM 4.59 40.262 0.241 8.12 4.7 11.82
2/18/2023 10:15:00 PM 4.59 40.262 0.241 8.12 4.37 11.81
2/18/2023 10:30:00 PM 4.59 40.262 0.241 8.12 4.36 11.78
2/18/2023 10:45:00 PM 4.59 40.262 0.241 8.12 4.44 11.77
2/18/2023 11:00:00 PM 4.59 40.262 0.241 8.11 4.56 11.76
2/18/2023 11:15:00 PM 4.59 40.262 0.241 8.1 4.38 11.76
2/18/2023 11:30:00 PM 4.59 40.262 0.241 8.1 4.36 11.76
2/18/2023 11:45:00 PM 4.59 40.262 0.241 8.11 4.29 11.75
2/19/2023 12:00:00 AM 4.59 40.262 0.241 8.1 4.44 11.75
2/19/2023 12:15:00 AM 4.59 40.262 0.241 8.11 4.45 11.75
2/19/2023 12:30:00 AM 4.59 40.262 0.241 8.12 4.4 11.76
2/19/2023 12:45:00 AM 4.59 40.262 0.241 8.12 4.38 11.75
2/19/2023 1:00:00 AM 4.59 40.262 0.241 8.11 4.5 11.76
2/19/2023 1:15:00 AM 4.6 40.28 0.241 8.12 4.42 11.7
2/19/2023 1:30:00 AM 4.6 40.28 0.241 8.1 4.24 11.71
2/19/2023 1:45:00 AM 4.6 40.28 0.241 8.1 4.41 11.72
2/19/2023 2:00:00 AM 4.6 40.28 0.241 8.11 4.03 11.71
2/19/2023 2:15:00 AM 4.6 40.28 0.241 8.11 4.27 11.72
2/19/2023 2:30:00 AM 4.6 40.28 0.241 8.11 4.57 11.72
2/19/2023 2:45:00 AM 4.61 40.298 0.241 8.11 4.7 11.71
2/19/2023 3:00:00 AM 4.6 40.28 0.241 8.11 4.68 11.73
2/19/2023 3:15:00 AM 4.6 40.28 0.241 8.12 4.69 11.73
2/19/2023 3:30:00 AM 4.6 40.28 0.241 8.12 4.51 11.73
2/19/2023 3:45:00 AM 4.6 40.28 0.241 8.1 4.69 11.71
2/19/2023 4:00:00 AM 4.6 40.28 0.242 8.1 4.68 11.72
2/19/2023 4:15:00 AM 4.6 40.28 0.242 8.1 5.07 11.75
2/19/2023 4:30:00 AM 4.6 40.28 0.242 8.11 4.95 11.74
2/19/2023 4:45:00 AM 4.6 40.28 0.242 8.11 4.71 11.73
2/19/2023 5:00:00 AM 4.6 40.28 0.242 8.11 4.76 11.72
2/19/2023 5:15:00 AM 4.6 40.28 0.242 8.11 4.8 11.72
2/19/2023 5:30:00 AM 4.6 40.28 0.242 8.1 4.83 11.69
2/19/2023 5:45:00 AM 4.6 40.28 0.242 8.09 4.62 11.66
2/19/2023 6:00:00 AM 4.6 40.28 0.242 8.09 4.43 11.62
2/19/2023 6:15:00 AM 4.6 40.28 0.242 8.08 4.28 11.59
2/19/2023 6:30:00 AM 4.6 40.28 0.242 8.07 4.26 11.59
2/19/2023 6:45:00 AM 4.66 40.388 0.242 8.08 5.15 11.68
2/19/2023 7:00:00 AM 4.65 40.37 0.242 8.11 5.56 11.77
2/19/2023 7:15:00 AM 4.52 40.136 0.243 8.12 5.7 11.79
2/19/2023 7:30:00 AM 4.43 39.974 0.243 8.13 6.19 11.8
2/19/2023 7:45:00 AM 4.38 39.884 0.243 8.13 7.03 11.8
2/19/2023 8:00:00 AM 4.35 39.83 0.243 8.13 5.38 11.8
2/19/2023 8:15:00 AM 4.33 39.794 0.243 8.13 5.84 11.8
2/19/2023 8:30:00 AM 4.31 39.758 0.243 8.13 5.92 11.81
2/19/2023 8:45:00 AM 4.29 39.722 0.243 8.13 5.56 11.81
2/19/2023 9:00:00 AM 4.29 39.722 0.243 8.13 5.28 11.82
2/19/2023 9:15:00 AM 4.29 39.722 0.243 8.13 5.96 11.83
2/19/2023 9:30:00 AM 4.29 39.722 0.243 8.13 6.65 11.84
2/19/2023 9:45:00 AM 4.31 39.758 0.243 8.13 6.43 11.85
2/19/2023 10:00:00 AM 4.32 39.776 0.243 8.13 5.64 11.86
2/19/2023 10:15:00 AM 4.33 39.794 0.243 8.13 5.54 11.86
2/19/2023 10:30:00 AM 4.35 39.83 0.243 8.13 6.12 11.87
2/19/2023 10:45:00 AM 4.35 39.83 0.243 8.13 6.3 11.89
2/19/2023 11:00:00 AM 4.36 39.848 0.243 8.13 6.15 11.89
2/19/2023 11:15:00 AM 4.38 39.884 0.243 8.14 5.38 11.9
2/19/2023 11:30:00 AM 4.4 39.92 0.243 8.14 5.95 11.91
2/19/2023 11:45:00 AM 4.43 39.974 0.243 8.14 5.8 11.91
2/19/2023 12:00:00 PM 4.47 40.046 0.243 8.14 6.34 11.92
2/19/2023 12:15:00 PM 4.5 40.1 0.243 8.14 5.16 11.92
2/19/2023 12:30:00 PM 4.55 40.19 0.243 8.14 5.61 11.93
2/19/2023 12:45:00 PM 4.56 40.208 0.243 8.14 5.2 11.93
2/19/2023 1:00:00 PM 4.56 40.208 0.243 8.14 5.12 11.91
2/19/2023 1:15:00 PM 4.56 40.208 0.243 8.14 5.12 11.9
2/19/2023 1:30:00 PM 4.56 40.208 0.243 8.14 4.86 11.89
2/19/2023 1:45:00 PM 4.56 40.208 0.243 8.14 4.6 11.88
2/19/2023 2:00:00 PM 4.56 40.208 0.243 8.14 4.89 11.87
2/19/2023 2:15:00 PM 4.56 40.208 0.243 8.14 4.94 11.86
2/19/2023 2:30:00 PM 4.56 40.208 0.243 8.14 4.39 11.86
2/19/2023 2:45:00 PM 4.56 40.208 0.243 8.13 4.75 11.86
2/19/2023 3:00:00 PM 4.56 40.208 0.243 8.13 4.73 11.85
2/19/2023 3:15:00 PM 4.56 40.208 0.243 8.14 4.46 11.84
2/19/2023 3:30:00 PM 4.56 40.208 0.243 8.13 5.05 11.82
2/19/2023 3:45:00 PM 4.57 40.226 0.243 8.13 4.68 11.82
2/19/2023 4:00:00 PM 4.57 40.226 0.243 8.12 4.33 11.81
2/19/2023 4:15:00 PM 4.57 40.226 0.243 8.12 4.51 11.77
2/19/2023 4:30:00 PM 4.57 40.226 0.243 8.12 4.33 11.75
2/19/2023 4:45:00 PM 4.57 40.226 0.243 8.12 4.6 11.76
2/19/2023 5:00:00 PM 4.57 40.226 0.243 8.12 4.38 11.75
2/19/2023 5:15:00 PM 4.57 40.226 0.243 8.12 4.31 11.78
2/19/2023 5:30:00 PM 4.57 40.226 0.243 8.12 4.35 11.77
2/19/2023 5:45:00 PM 4.57 40.226 0.243 8.12 4.55 11.77
2/19/2023 6:00:00 PM 4.57 40.226 0.243 8.12 4.28 11.75
2/19/2023 6:15:00 PM 4.57 40.226 0.243 8.12 4.46 11.77
2/19/2023 6:30:00 PM 4.57 40.226 0.243 8.11 4.32 11.74
2/19/2023 6:45:00 PM 4.57 40.226 0.243 8.11 4.39 11.73
2/19/2023 7:00:00 PM 4.57 40.226 0.243 8.1 4.34 11.72
2/19/2023 7:15:00 PM 4.57 40.226 0.243 8.11 4.22 11.71
2/19/2023 7:30:00 PM 4.57 40.226 0.243 8.1 4.2 11.7
2/19/2023 7:45:00 PM 4.57 40.226 0.243 8.11 4.17 11.69
2/19/2023 8:00:00 PM 4.57 40.226 0.243 8.1 4.13 11.67
2/19/2023 8:15:00 PM 4.57 40.226 0.243 8.1 4.11 11.68
2/19/2023 8:30:00 PM 4.57 40.226 0.243 8.11 4.25 11.67
2/19/2023 8:45:00 PM 4.57 40.226 0.243 8.11 4.18 11.65
2/19/2023 9:00:00 PM 4.57 40.226 0.243 8.1 4.3 11.66
2/19/2023 9:15:00 PM 4.57 40.226 0.243 8.1 4.06 11.64
2/19/2023 9:30:00 PM 4.57 40.226 0.243 8.1 4.12 11.65
2/19/2023 9:45:00 PM 4.58 40.244 0.243 8.1 4.32 11.67
2/19/2023 10:00:00 PM 4.58 40.244 0.243 8.1 4.08 11.64
2/19/2023 10:15:00 PM 4.58 40.244 0.243 8.1 4.07 11.62
2/19/2023 10:30:00 PM 4.58 40.244 0.243 8.1 4.16 11.63
2/19/2023 10:45:00 PM 4.58 40.244 0.243 8.1 4.15 11.63
2/19/2023 11:00:00 PM 4.58 40.244 0.243 8.09 4.08 11.6
2/19/2023 11:15:00 PM 4.58 40.244 0.243 8.09 4.02 11.58
2/19/2023 11:30:00 PM 4.58 40.244 0.243 8.09 4.02 11.59
2/19/2023 11:45:00 PM 4.58 40.244 0.243 8.08 3.97 11.59
2/20/2023 12:00:00 AM 4.58 40.244 0.244 8.09 4.14 11.58
2/20/2023 12:15:00 AM 4.58 40.244 0.244 8.08 3.96 11.56
2/20/2023 12:30:00 AM 4.58 40.244 0.244 8.09 4.17 11.56
2/20/2023 12:45:00 AM 4.58 40.244 0.244 8.08 3.92 11.57
2/20/2023 1:00:00 AM 4.58 40.244 0.244 8.09 4.05 11.56
2/20/2023 1:15:00 AM 4.58 40.244 0.244 8.07 4.02 11.55
2/20/2023 1:30:00 AM 4.58 40.244 0.244 8.08 4.06 11.58
2/20/2023 1:45:00 AM 4.58 40.244 0.243 8.09 4.01 11.57
2/20/2023 2:00:00 AM 4.58 40.244 0.243 8.09 4.13 11.56
2/20/2023 2:15:00 AM 4.59 40.262 0.244 8.09 3.94 11.55
2/20/2023 2:30:00 AM 4.59 40.262 0.244 8.07 4.06 11.54
2/20/2023 2:45:00 AM 4.59 40.262 0.244 8.08 3.93 11.53
2/20/2023 3:00:00 AM 4.59 40.262 0.244 8.08 4.02 11.55
2/20/2023 3:15:00 AM 4.59 40.262 0.244 8.08 4.09 11.53
2/20/2023 3:30:00 AM 4.59 40.262 0.244 8.08 3.97 11.54
2/20/2023 3:45:00 AM 4.59 40.262 0.244 8.08 3.89 11.52
2/20/2023 4:00:00 AM 4.59 40.262 0.244 8.07 4 11.53
2/20/2023 4:15:00 AM 4.6 40.28 0.244 8.07 3.93 11.5
2/20/2023 4:30:00 AM 4.6 40.28 0.244 8.07 4.01 11.49
2/20/2023 4:45:00 AM 4.6 40.28 0.244 8.06 4.09 11.51
2/20/2023 5:00:00 AM 4.6 40.28 0.244 8.07 3.88 11.47
2/20/2023 5:15:00 AM 4.6 40.28 0.244 8.06 3.99 11.46
2/20/2023 5:30:00 AM 4.6 40.28 0.244 8.06 3.94 11.47
2/20/2023 5:45:00 AM 4.6 40.28 0.244 8.07 4.03 11.49
2/20/2023 6:00:00 AM 4.61 40.298 0.244 8.06 4.09 11.48
2/20/2023 6:15:00 AM 4.61 40.298 0.244 8.06 4.12 11.47
2/20/2023 6:30:00 AM 4.61 40.298 0.244 8.06 4.13 11.45
2/20/2023 6:45:00 AM 4.61 40.298 0.244 8.05 3.97 11.46
2/20/2023 7:00:00 AM 4.69 40.442 0.244 8.07 5.18 11.62
2/20/2023 7:15:00 AM 4.74 40.532 0.244 8.09 5.01 11.7
2/20/2023 7:30:00 AM 4.68 40.424 0.243 8.13 5.62 11.77
2/20/2023 7:45:00 AM 4.64 40.352 0.243 8.15 6.31 11.78
2/20/2023 8:00:00 AM 4.62 40.316 0.243 8.15 6.35 11.79
2/20/2023 8:15:00 AM 4.6 40.28 0.243 8.15 6.75 11.79
2/20/2023 8:30:00 AM 4.59 40.262 0.243 8.15 6.31 11.79
2/20/2023 8:45:00 AM 4.58 40.244 0.243 8.14 6.43 11.79
2/20/2023 9:00:00 AM 4.57 40.226 0.242 8.15 5.91 11.79
2/20/2023 9:15:00 AM 4.56 40.208 0.242 8.14 5.3 11.79
2/20/2023 9:30:00 AM 4.56 40.208 0.242 8.14 5.48 11.8
2/20/2023 9:45:00 AM 4.56 40.208 0.242 8.14 6.38 11.8
2/20/2023 10:00:00 AM 4.57 40.226 0.242 8.15 6.07 11.8
2/20/2023 10:15:00 AM 4.57 40.226 0.242 8.15 6.63 11.81
2/20/2023 10:30:00 AM 4.58 40.244 0.242 8.15 6.26 11.82
2/20/2023 10:45:00 AM 4.6 40.28 0.242 8.15 5.05 11.83
2/20/2023 11:00:00 AM 4.64 40.352 0.242 8.15 5.8 11.84
2/20/2023 11:15:00 AM 4.68 40.424 0.242 8.15 7.05 11.85
2/20/2023 11:30:00 AM 4.73 40.514 0.242 8.16 6.24 11.86
2/20/2023 11:45:00 AM 4.79 40.622 0.242 8.16 5.79 11.87
2/20/2023 12:00:00 PM 4.85 40.73 0.242 8.16 6.57 11.88
2/20/2023 12:15:00 PM 4.91 40.838 0.242 8.16 6.3 11.88
2/20/2023 12:30:00 PM 4.96 40.928 0.242 8.16 6.59 11.89
2/20/2023 12:45:00 PM 5.02 41.036 0.242 8.16 5.96 11.9
2/20/2023 1:00:00 PM 5.09 41.162 0.242 8.17 6.44 11.91
2/20/2023 1:15:00 PM 5.15 41.27 0.242 8.17 6.65 11.92
2/20/2023 1:30:00 PM 5.19 41.342 0.242 8.17 6.36 11.93
2/20/2023 1:45:00 PM 5.24 41.432 0.242 8.17 5.96 11.94
2/20/2023 2:00:00 PM 5.29 41.522 0.242 8.18 6.42 11.94
2/20/2023 2:15:00 PM 5.34 41.612 0.241 8.18 6.49 11.95
2/20/2023 2:30:00 PM 5.35 41.63 0.241 8.18 6.27 11.95
2/20/2023 2:45:00 PM 5.37 41.666 0.241 8.18 6.06 11.96
2/20/2023 3:00:00 PM 5.37 41.666 0.241 8.18 6.59 11.96
2/20/2023 3:15:00 PM 5.37 41.666 0.241 8.18 6.17 11.95
2/20/2023 3:30:00 PM 5.37 41.666 0.241 8.18 5.02 11.95
2/20/2023 3:45:00 PM 5.37 41.666 0.242 8.19 4.74 11.94
2/20/2023 4:00:00 PM 5.37 41.666 0.242 8.18 4.57 11.93
2/20/2023 4:15:00 PM 5.37 41.666 0.242 8.18 4.69 11.91
2/20/2023 4:30:00 PM 5.37 41.666 0.242 8.18 4.61 11.91
2/20/2023 4:45:00 PM 5.37 41.666 0.242 8.18 4.49 11.89
2/20/2023 5:00:00 PM 5.37 41.666 0.242 8.18 4.66 11.9
2/20/2023 5:15:00 PM 5.37 41.666 0.242 8.18 4.76 11.9
2/20/2023 5:30:00 PM 5.37 41.666 0.242 8.18 4.51 11.9
2/20/2023 5:45:00 PM 5.37 41.666 0.242 8.18 4.57 11.89
2/20/2023 6:00:00 PM 5.37 41.666 0.242 8.18 4.76 11.88
2/20/2023 6:15:00 PM 5.37 41.666 0.242 8.17 4.4 11.87
2/20/2023 6:30:00 PM 5.37 41.666 0.242 8.17 4.51 11.87
2/20/2023 6:45:00 PM 5.37 41.666 0.242 8.17 4.38 11.86
2/20/2023 7:00:00 PM 5.37 41.666 0.242 8.18 4.53 11.86
2/20/2023 7:15:00 PM 5.36 41.648 0.242 8.17 4.52 11.85
2/20/2023 7:30:00 PM 5.36 41.648 0.242 8.17 4.08 11.83
2/20/2023 7:45:00 PM 5.36 41.648 0.242 8.17 4.35 11.83
2/20/2023 8:00:00 PM 5.36 41.648 0.242 8.16 4.2 11.83
2/20/2023 8:15:00 PM 5.36 41.648 0.242 8.15 4.3 11.81
2/20/2023 8:30:00 PM 5.36 41.648 0.242 8.17 4.33 11.81
2/20/2023 8:45:00 PM 5.36 41.648 0.242 8.16 4.26 11.8
2/20/2023 9:00:00 PM 5.36 41.648 0.242 8.16 4.08 11.78
2/20/2023 9:15:00 PM 5.35 41.63 0.242 8.15 4.15 11.78
2/20/2023 9:30:00 PM 5.35 41.63 0.242 8.16 4.14 11.78
2/20/2023 9:45:00 PM 5.35 41.63 0.242 8.16 4.47 11.76
2/20/2023 10:00:00 PM 5.35 41.63 0.242 8.15 4.25 11.76
2/20/2023 10:15:00 PM 5.35 41.63 0.242 8.15 4.29 11.74
2/20/2023 10:30:00 PM 5.35 41.63 0.242 8.14 4.25 11.73
2/20/2023 10:45:00 PM 5.35 41.63 0.242 8.15 4.27 11.73
2/20/2023 11:00:00 PM 5.35 41.63 0.242 8.15 4.18 11.71
2/20/2023 11:15:00 PM 5.35 41.63 0.242 8.14 4.2 11.7
2/20/2023 11:30:00 PM 5.35 41.63 0.242 8.14 3.98 11.66
2/20/2023 11:45:00 PM 5.35 41.63 0.242 8.13 3.97 11.67
2/21/2023 12:00:00 AM 5.34 41.612 0.242 8.13 4.16 11.67
2/21/2023 12:15:00 AM 5.34 41.612 0.242 8.14 4.03 11.66
2/21/2023 12:30:00 AM 5.34 41.612 0.242 8.15 3.9 11.67
2/21/2023 12:45:00 AM 5.34 41.612 0.242 8.14 4.07 11.67
2/21/2023 1:00:00 AM 5.34 41.612 0.242 8.13 3.94 11.66
2/21/2023 1:15:00 AM 5.34 41.612 0.242 8.13 3.9 11.64
2/21/2023 1:30:00 AM 5.34 41.612 0.242 8.14 3.94 11.65
2/21/2023 1:45:00 AM 5.34 41.612 0.242 8.13 3.93 11.64
2/21/2023 2:00:00 AM 5.34 41.612 0.242 8.13 3.95 11.58
2/21/2023 2:15:00 AM 5.34 41.612 0.242 8.13 3.75 11.56
2/21/2023 2:30:00 AM 5.34 41.612 0.242 8.12 3.87 11.56
2/21/2023 2:45:00 AM 5.34 41.612 0.242 8.12 3.88 11.52
2/21/2023 3:00:00 AM 5.33 41.594 0.242 8.13 4.05 11.55
2/21/2023 3:15:00 AM 5.33 41.594 0.242 8.11 3.95 11.54
2/21/2023 3:30:00 AM 5.33 41.594 0.242 8.12 3.94 11.52
2/21/2023 3:45:00 AM 5.33 41.594 0.242 8.12 3.92 11.52
2/21/2023 4:00:00 AM 5.33 41.594 0.242 8.11 3.93 11.5
2/21/2023 4:15:00 AM 5.33 41.594 0.242 8.11 3.93 11.51
2/21/2023 4:30:00 AM 5.33 41.594 0.242 8.11 3.82 11.5
2/21/2023 4:45:00 AM 5.33 41.594 0.242 8.11 3.78 11.49
2/21/2023 5:00:00 AM 5.33 41.594 0.242 8.12 3.85 11.48
2/21/2023 5:15:00 AM 5.33 41.594 0.242 8.11 3.98 11.48
2/21/2023 5:30:00 AM 5.33 41.594 0.242 8.11 3.86 11.47
2/21/2023 5:45:00 AM 5.33 41.594 0.242 8.1 3.76 11.44
2/21/2023 6:00:00 AM 5.33 41.594 0.242 8.11 3.73 11.44
2/21/2023 6:15:00 AM 5.33 41.594 0.242 8.1 3.84 11.47
2/21/2023 6:30:00 AM 5.33 41.594 0.242 8.11 3.8 11.45
2/21/2023 6:45:00 AM 5.33 41.594 0.242 8.12 3.85 11.48
2/21/2023 7:00:00 AM 5.34 41.612 0.244 8.03 5.84 11.32
2/21/2023 7:15:00 AM 5.21 41.378 0.241 8.13 6.41 11.7
2/21/2023 7:30:00 AM 5.1 41.18 0.24 8.14 5.97 11.72
2/21/2023 7:45:00 AM 5.04 41.072 0.24 8.15 6.35 11.73
2/21/2023 8:00:00 AM 5.01 41.018 0.24 8.15 6.62 11.72
2/21/2023 8:15:00 AM 5 41 0.24 8.15 5.84 11.73
2/21/2023 8:30:00 AM 4.98 40.964 0.24 8.15 6.65 11.72
2/21/2023 8:45:00 AM 4.96 40.928 0.24 8.15 6.31 11.73
2/21/2023 9:00:00 AM 4.95 40.91 0.239 8.14 6.54 11.73
2/21/2023 9:15:00 AM 4.95 40.91 0.239 8.15 5.9 11.74
2/21/2023 9:30:00 AM 4.95 40.91 0.239 8.15 6.44 11.75
2/21/2023 9:45:00 AM 4.95 40.91 0.239 8.15 5.88 11.75
2/21/2023 10:00:00 AM 4.96 40.928 0.239 8.15 5.78 11.76
2/21/2023 10:15:00 AM 4.98 40.964 0.239 8.15 5.55 11.78
2/21/2023 10:30:00 AM 5 41 0.239 8.15 6.23 11.79
2/21/2023 10:45:00 AM 5.01 41.018 0.239 8.16 6.12 11.79
2/21/2023 11:00:00 AM 5.03 41.054 0.239 8.16 5.57 11.8
2/21/2023 11:15:00 AM 5.08 41.144 0.239 8.16 5.2 11.8
2/21/2023 11:30:00 AM 5.09 41.162 0.239 8.16 5.15 11.81
2/21/2023 11:45:00 AM 5.11 41.198 0.239 8.17 5.62 11.83
2/21/2023 12:00:00 PM 5.13 41.234 0.239 8.17 5.32 11.83
2/21/2023 12:15:00 PM 5.16 41.288 0.239 8.17 4.78 11.84
2/21/2023 12:30:00 PM 5.2 41.36 0.239 8.17 5.01 11.85
2/21/2023 12:45:00 PM 5.23 41.414 0.239 8.17 5.82 11.85
2/21/2023 1:00:00 PM 5.24 41.432 0.239 8.17 5.21 11.85
2/21/2023 1:15:00 PM 5.26 41.468 0.239 8.17 4.91 11.84
2/21/2023 1:30:00 PM 5.28 41.504 0.239 8.18 4.85 11.85
2/21/2023 1:45:00 PM 5.31 41.558 0.239 8.17 5.27 11.85
2/21/2023 2:00:00 PM 5.36 41.648 0.238 8.18 5.09 11.86
2/21/2023 2:15:00 PM 5.41 41.738 0.238 8.18 4.9 11.86
2/21/2023 2:30:00 PM 5.48 41.864 0.238 8.19 5.01 11.88
2/21/2023 2:45:00 PM 5.5 41.9 0.238 8.19 5.08 11.89
2/21/2023 3:00:00 PM 5.51 41.918 0.238 8.19 4.97 11.89
2/21/2023 3:15:00 PM 5.53 41.954 0.238 8.2 5.36 11.89
2/21/2023 3:30:00 PM 5.53 41.954 0.238 8.2 4.8 11.89
2/21/2023 3:45:00 PM 5.53 41.954 0.238 8.2 4.72 11.88
2/21/2023 4:00:00 PM 5.54 41.972 0.238 8.2 4.48 11.87
2/21/2023 4:15:00 PM 5.53 41.954 0.238 8.2 4.67 11.85
2/21/2023 4:30:00 PM 5.53 41.954 0.238 8.19 4.61 11.85
2/21/2023 4:45:00 PM 5.54 41.972 0.238 8.19 4.58 11.84
2/21/2023 5:00:00 PM 5.54 41.972 0.238 8.19 4.8 11.82
2/21/2023 5:15:00 PM 5.53 41.954 0.238 8.19 4.43 11.8
2/21/2023 5:30:00 PM 5.53 41.954 0.238 8.19 4.48 11.82
2/21/2023 5:45:00 PM 5.53 41.954 0.238 8.18 4.74 11.8
2/21/2023 6:00:00 PM 5.53 41.954 0.238 8.17 4.36 11.79
2/21/2023 6:15:00 PM 5.53 41.954 0.238 8.18 4.25 11.77
2/21/2023 6:30:00 PM 5.53 41.954 0.238 8.18 4.79 11.77
2/21/2023 6:45:00 PM 5.53 41.954 0.238 8.18 3.95 11.77
2/21/2023 7:00:00 PM 5.53 41.954 0.238 8.18 4.22 11.78
2/21/2023 7:15:00 PM 5.53 41.954 0.238 8.17 4.33 11.76
2/21/2023 7:30:00 PM 5.53 41.954 0.238 8.18 4.25 11.75
2/21/2023 7:45:00 PM 5.53 41.954 0.238 8.17 4.25 11.73
2/21/2023 8:00:00 PM 5.53 41.954 0.238 8.18 4.25 11.73
2/21/2023 8:15:00 PM 5.53 41.954 0.238 8.17 4.38 11.74
2/21/2023 8:30:00 PM 5.53 41.954 0.238 8.17 4.06 11.73
2/21/2023 8:45:00 PM 5.53 41.954 0.238 8.16 4.36 11.73
2/21/2023 9:00:00 PM 5.53 41.954 0.238 8.18 4.06 11.74
2/21/2023 9:15:00 PM 5.53 41.954 0.238 8.17 4.2 11.71
2/21/2023 9:30:00 PM 5.53 41.954 0.238 8.16 4.02 11.71
2/21/2023 9:45:00 PM 5.53 41.954 0.238 8.17 4.22 11.7
2/21/2023 10:00:00 PM 5.53 41.954 0.238 8.17 3.97 11.71
2/21/2023 10:15:00 PM 5.53 41.954 0.238 8.15 4.29 11.68
2/21/2023 10:30:00 PM 5.53 41.954 0.238 8.16 3.91 11.66
2/21/2023 10:45:00 PM 5.53 41.954 0.239 8.17 3.96 11.63
2/21/2023 11:00:00 PM 5.53 41.954 0.239 8.15 4.01 11.64
2/21/2023 11:15:00 PM 5.53 41.954 0.238 8.16 3.94 11.63
2/21/2023 11:30:00 PM 5.53 41.954 0.239 8.15 3.9 11.64
2/21/2023 11:45:00 PM 5.53 41.954 0.239 8.16 3.98 11.64
2/22/2023 12:00:00 AM 5.53 41.954 0.239 8.16 3.92 11.58
2/22/2023 12:15:00 AM 5.53 41.954 0.239 8.15 3.85 11.55
2/22/2023 12:30:00 AM 5.53 41.954 0.239 8.15 3.73 11.58
2/22/2023 12:45:00 AM 5.53 41.954 0.239 8.15 3.95 11.55
2/22/2023 1:00:00 AM 5.53 41.954 0.239 8.15 3.87 11.53
2/22/2023 1:15:00 AM 5.53 41.954 0.239 8.15 3.92 11.56
2/22/2023 1:30:00 AM 5.53 41.954 0.239 8.16 4.02 11.57
2/22/2023 1:45:00 AM 5.52 41.936 0.239 8.16 4.13 11.63
2/22/2023 2:00:00 AM 5.52 41.936 0.239 8.16 4.18 11.64
2/22/2023 2:15:00 AM 5.52 41.936 0.239 8.15 4.02 11.59
2/22/2023 2:30:00 AM 5.51 41.918 0.239 8.13 3.98 11.53
2/22/2023 2:45:00 AM 5.51 41.918 0.239 8.13 3.91 11.52
2/22/2023 3:00:00 AM 5.51 41.918 0.239 8.11 3.75 11.46
2/22/2023 3:15:00 AM 5.51 41.918 0.239 8.12 3.77 11.46
2/22/2023 3:30:00 AM 5.51 41.918 0.239 8.12 3.73 11.43
2/22/2023 3:45:00 AM 5.51 41.918 0.239 8.12 3.76 11.41
2/22/2023 4:00:00 AM 5.51 41.918 0.239 8.1 3.66 11.37
2/22/2023 4:15:00 AM 5.51 41.918 0.239 8.11 3.64 11.34
2/22/2023 4:30:00 AM 5.51 41.918 0.239 8.11 3.65 11.33
2/22/2023 4:45:00 AM 5.51 41.918 0.239 8.1 3.61 11.3
2/22/2023 5:00:00 AM 5.51 41.918 0.239 8.1 3.62 11.29
2/22/2023 5:15:00 AM 5.51 41.918 0.239 8.09 3.57 11.29
2/22/2023 5:30:00 AM 5.51 41.918 0.239 8.1 3.53 11.27
2/22/2023 5:45:00 AM 5.51 41.918 0.239 8.1 3.54 11.29
2/22/2023 6:00:00 AM 5.51 41.918 0.239 8.1 3.61 11.26
2/22/2023 6:15:00 AM 5.51 41.918 0.239 8.09 3.58 11.28
2/22/2023 6:30:00 AM 5.51 41.918 0.239 8.09 3.53 11.27
2/22/2023 6:45:00 AM 5.51 41.918 0.239 8.1 3.63 11.31
2/22/2023 7:00:00 AM 5.54 41.972 0.239 8.1 4.51 11.44
2/22/2023 7:15:00 AM 5.03 41.054 0.239 8.14 5.17 11.71
2/22/2023 7:30:00 AM 4.71 40.478 0.239 8.15 5.2 11.75
2/22/2023 7:45:00 AM 4.55 40.19 0.239 8.16 5.32 11.77
2/22/2023 8:00:00 AM 4.47 40.046 0.239 8.15 4.75 11.78
2/22/2023 8:15:00 AM 4.42 39.956 0.239 8.15 5.28 11.78
2/22/2023 8:30:00 AM 4.39 39.902 0.239 8.15 4.97 11.79
2/22/2023 8:45:00 AM 4.36 39.848 0.239 8.15 4.8 11.79
2/22/2023 9:00:00 AM 4.34 39.812 0.239 8.15 5 11.79
2/22/2023 9:15:00 AM 4.32 39.776 0.239 8.15 5.61 11.8
2/22/2023 9:30:00 AM 4.31 39.758 0.239 8.15 5.01 11.8
2/22/2023 9:45:00 AM 4.29 39.722 0.238 8.14 5.07 11.8
2/22/2023 10:00:00 AM 4.28 39.704 0.238 8.15 5.07 11.81
2/22/2023 10:15:00 AM 4.26 39.668 0.238 8.14 5.6 11.82
2/22/2023 10:30:00 AM 4.25 39.65 0.238 8.15 5.27 11.83
2/22/2023 10:45:00 AM 4.24 39.632 0.238 8.15 4.76 11.84
2/22/2023 11:00:00 AM 4.23 39.614 0.238 8.14 4.83 11.85
2/22/2023 11:15:00 AM 4.23 39.614 0.238 8.14 4.91 11.86
2/22/2023 11:30:00 AM 4.22 39.596 0.238 8.15 5.93 11.87
2/22/2023 11:45:00 AM 4.21 39.578 0.238 8.15 4.66 11.88
2/22/2023 12:00:00 PM 4.2 39.56 0.238 8.15 4.87 11.88
2/22/2023 12:15:00 PM 4.17 39.506 0.238 8.15 4.95 11.89
2/22/2023 12:30:00 PM 4.14 39.452 0.238 8.15 4.79 11.9
2/22/2023 12:45:00 PM 4.12 39.416 0.238 8.15 4.83 11.9
2/22/2023 1:00:00 PM 4.11 39.398 0.238 8.15 5.74 11.91
2/22/2023 1:15:00 PM 4.1 39.38 0.238 8.15 5.24 11.92
2/22/2023 1:30:00 PM 4.09 39.362 0.238 8.16 4.79 11.93
2/22/2023 1:45:00 PM 4.09 39.362 0.238 8.16 4.9 11.95
2/22/2023 2:00:00 PM 4.08 39.344 0.238 8.16 5.34 11.96
2/22/2023 2:15:00 PM 4.08 39.344 0.237 8.16 4.69 11.96
2/22/2023 2:30:00 PM 4.07 39.326 0.237 8.16 4.68 11.96
2/22/2023 2:45:00 PM 4.07 39.326 0.237 8.16 4.47 11.96
2/22/2023 3:00:00 PM 4.05 39.29 0.237 8.16 4.87 11.98
2/22/2023 3:15:00 PM 4.05 39.29 0.237 8.16 4.46 11.99
2/22/2023 3:30:00 PM 4.05 39.29 0.237 8.16 4.42 11.97
2/22/2023 3:45:00 PM 4.05 39.29 0.237 8.16 5.3 11.95
2/22/2023 4:00:00 PM 4.05 39.29 0.237 8.17 4.66 11.94
2/22/2023 4:15:00 PM 4.05 39.29 0.237 8.16 4.45 11.93
2/22/2023 4:30:00 PM 4.05 39.29 0.237 8.16 4.41 11.93
2/22/2023 4:45:00 PM 4.05 39.29 0.237 8.16 4.33 11.92
2/22/2023 5:00:00 PM 4.05 39.29 0.237 8.16 4.04 11.92
2/22/2023 5:15:00 PM 4.06 39.308 0.237 8.15 4.39 11.92
2/22/2023 5:30:00 PM 4.06 39.308 0.237 8.15 4.09 11.91
2/22/2023 5:45:00 PM 4.06 39.308 0.237 8.15 4.25 11.89
2/22/2023 6:00:00 PM 4.06 39.308 0.237 8.15 4.43 11.88
2/22/2023 6:15:00 PM 4.07 39.326 0.237 8.16 4.23 11.88
2/22/2023 6:30:00 PM 4.07 39.326 0.237 8.15 4.25 11.86
2/22/2023 6:45:00 PM 4.07 39.326 0.237 8.15 4.23 11.87
2/22/2023 7:00:00 PM 4.07 39.326 0.237 8.15 4.42 11.85
2/22/2023 7:15:00 PM 4.07 39.326 0.237 8.14 4.12 11.84
2/22/2023 7:30:00 PM 4.07 39.326 0.237 8.14 4.17 11.83
2/22/2023 7:45:00 PM 4.07 39.326 0.237 8.15 4.11 11.85
2/22/2023 8:00:00 PM 4.07 39.326 0.237 8.14 4.1 11.84
2/22/2023 8:15:00 PM 4.07 39.326 0.237 8.15 4.05 11.82
2/22/2023 8:30:00 PM 4.07 39.326 0.237 8.14 4.02 11.82
2/22/2023 8:45:00 PM 4.08 39.344 0.237 8.14 4.04 11.82
2/22/2023 9:00:00 PM 4.08 39.344 0.237 8.14 3.97 11.8
2/22/2023 9:15:00 PM 4.08 39.344 0.237 8.14 3.92 11.8
2/22/2023 9:30:00 PM 4.08 39.344 0.237 8.13 3.91 11.79
2/22/2023 9:45:00 PM 4.08 39.344 0.237 8.14 3.92 11.79
2/22/2023 10:00:00 PM 4.09 39.362 0.237 8.14 3.9 11.76
2/22/2023 10:15:00 PM 4.09 39.362 0.237 8.13 3.95 11.78
2/22/2023 10:30:00 PM 4.09 39.362 0.237 8.13 3.95 11.78
2/22/2023 10:45:00 PM 4.09 39.362 0.237 8.13 3.93 11.76
2/22/2023 11:00:00 PM 4.09 39.362 0.237 8.14 3.93 11.76
2/22/2023 11:15:00 PM 4.09 39.362 0.237 8.14 3.89 11.75
2/22/2023 11:30:00 PM 4.09 39.362 0.237 8.13 3.9 11.74
2/22/2023 11:45:00 PM 4.09 39.362 0.237 8.13 3.85 11.75
2/23/2023 12:00:00 AM 4.09 39.362 0.237 8.13 3.81 11.74
2/23/2023 12:15:00 AM 4.09 39.362 0.237 8.13 3.85 11.75
2/23/2023 12:30:00 AM 4.1 39.38 0.237 8.12 4.06 11.71
2/23/2023 12:45:00 AM 4.1 39.38 0.237 8.12 3.82 11.72
2/23/2023 1:00:00 AM 4.1 39.38 0.237 8.13 3.91 11.73
2/23/2023 1:15:00 AM 4.1 39.38 0.237 8.13 3.89 11.71
2/23/2023 1:30:00 AM 4.1 39.38 0.237 8.12 3.87 11.7
2/23/2023 1:45:00 AM 4.11 39.398 0.237 8.12 3.81 11.71
2/23/2023 2:00:00 AM 4.11 39.398 0.237 8.13 3.82 11.71
2/23/2023 2:15:00 AM 4.12 39.416 0.237 8.13 3.95 11.72
2/23/2023 2:30:00 AM 4.12 39.416 0.237 8.13 3.92 11.71
2/23/2023 2:45:00 AM 4.12 39.416 0.237 8.13 3.97 11.72
2/23/2023 3:00:00 AM 4.13 39.434 0.237 8.13 3.97 11.7
2/23/2023 3:15:00 AM 4.13 39.434 0.237 8.12 3.86 11.71
2/23/2023 3:30:00 AM 4.14 39.452 0.237 8.12 3.86 11.69
2/23/2023 3:45:00 AM 4.14 39.452 0.237 8.11 3.84 11.7
2/23/2023 4:00:00 AM 4.15 39.47 0.237 8.12 3.86 11.68
2/23/2023 4:15:00 AM 4.15 39.47 0.237 8.13 3.88 11.67
2/23/2023 4:30:00 AM 4.15 39.47 0.237 8.11 3.88 11.67
2/23/2023 4:45:00 AM 4.16 39.488 0.237 8.12 3.81 11.66
2/23/2023 5:00:00 AM 4.16 39.488 0.237 8.12 3.83 11.66
2/23/2023 5:15:00 AM 4.16 39.488 0.238 8.11 3.98 11.63
2/23/2023 5:30:00 AM 4.17 39.506 0.238 8.1 3.75 11.62
2/23/2023 5:45:00 AM 4.17 39.506 0.238 8.11 3.75 11.6
2/23/2023 6:00:00 AM 4.17 39.506 0.238 8.11 4.51 11.6
2/23/2023 6:15:00 AM 4.17 39.506 0.238 8.1 3.71 11.56
2/23/2023 6:30:00 AM 4.17 39.506 0.238 8.11 3.71 11.56
2/23/2023 6:45:00 AM 4.17 39.506 0.238 8.1 3.72 11.54
2/23/2023 7:00:00 AM 4.17 39.506 0.238 8.09 3.72 11.54
2/23/2023 7:15:00 AM 4.32 39.776 0.238 8.1 4.39 11.65
2/23/2023 7:30:00 AM 4.19 39.542 0.237 8.11 4.98 11.81
2/23/2023 7:45:00 AM 4.08 39.344 0.236 8.12 4.8 11.89
2/23/2023 8:00:00 AM 4 39.2 0.236 8.12 4.99 11.94
2/23/2023 8:15:00 AM 3.98 39.164 0.236 8.12 5.36 11.94
2/23/2023 8:30:00 AM 3.97 39.146 0.236 8.12 4.98 11.94
2/23/2023 8:45:00 AM 3.97 39.146 0.236 8.12 4.92 11.94
2/23/2023 9:00:00 AM 3.97 39.146 0.236 8.12 5.58 11.96
2/23/2023 9:15:00 AM 3.97 39.146 0.236 8.12 4.82 11.96
2/23/2023 9:30:00 AM 3.98 39.164 0.236 8.12 4.69 11.96
2/23/2023 9:45:00 AM 3.99 39.182 0.236 8.13 5.01 11.98
2/23/2023 10:00:00 AM 4 39.2 0.236 8.13 4.75 11.99
2/23/2023 10:15:00 AM 4.01 39.218 0.236 8.13 4.85 11.99
2/23/2023 10:30:00 AM 4.03 39.254 0.236 8.13 5 12
2/23/2023 10:45:00 AM 4.05 39.29 0.236 8.13 4.99 12.01
2/23/2023 11:00:00 AM 4.08 39.344 0.236 8.13 4.7 12.02
2/23/2023 11:15:00 AM 4.11 39.398 0.236 8.14 4.99 12.03
2/23/2023 11:30:00 AM 4.14 39.452 0.236 8.14 4.99 12.05
2/23/2023 11:45:00 AM 4.17 39.506 0.236 8.14 5.11 12.06
2/23/2023 12:00:00 PM 4.22 39.596 0.236 8.15 5.4 12.07
2/23/2023 12:15:00 PM 4.25 39.65 0.236 8.15 5.17 12.08
2/23/2023 12:30:00 PM 4.29 39.722 0.236 8.15 4.96 12.11
2/23/2023 12:45:00 PM 4.33 39.794 0.236 8.15 5.06 12.11
2/23/2023 1:00:00 PM 4.38 39.884 0.236 8.16 4.76 12.12
2/23/2023 1:15:00 PM 4.45 40.01 0.236 8.16 5.12 12.13
2/23/2023 1:30:00 PM 4.52 40.136 0.236 8.16 4.66 12.14
2/23/2023 1:45:00 PM 4.57 40.226 0.236 8.16 4.88 12.15
2/23/2023 2:00:00 PM 4.61 40.298 0.236 8.17 5.03 12.15
2/23/2023 2:15:00 PM 4.66 40.388 0.236 8.17 4.34 12.17
2/23/2023 2:30:00 PM 4.7 40.46 0.236 8.17 4.57 12.18
2/23/2023 2:45:00 PM 4.76 40.568 0.236 8.17 4.74 12.18
2/23/2023 3:00:00 PM 4.83 40.694 0.236 8.18 5.15 12.2
2/23/2023 3:15:00 PM 4.87 40.766 0.236 8.18 5.35 12.2
2/23/2023 3:30:00 PM 4.87 40.766 0.236 8.18 4.54 12.19
2/23/2023 3:45:00 PM 4.88 40.784 0.236 8.18 4.38 12.17
2/23/2023 4:00:00 PM 4.88 40.784 0.236 8.17 4.41 12.16
2/23/2023 4:15:00 PM 4.88 40.784 0.236 8.17 4.44 12.15
2/23/2023 4:30:00 PM 4.88 40.784 0.236 8.17 4.29 12.13
2/23/2023 4:45:00 PM 4.88 40.784 0.236 8.17 4.27 12.12
2/23/2023 5:00:00 PM 4.88 40.784 0.236 8.17 3.97 12.13
2/23/2023 5:15:00 PM 4.88 40.784 0.236 8.16 3.97 12.1
2/23/2023 5:30:00 PM 4.88 40.784 0.236 8.16 3.94 12.1
2/23/2023 5:45:00 PM 4.88 40.784 0.236 8.16 4.2 12.1
2/23/2023 6:00:00 PM 4.88 40.784 0.236 8.16 4.02 12.09
2/23/2023 6:15:00 PM 4.88 40.784 0.236 8.16 4.27 12.08
2/23/2023 6:30:00 PM 4.88 40.784 0.236 8.14 4.14 12.07
2/23/2023 6:45:00 PM 4.88 40.784 0.236 8.15 4.13 12.06
2/23/2023 7:00:00 PM 4.88 40.784 0.236 8.16 4.18 12.06
2/23/2023 7:15:00 PM 4.88 40.784 0.236 8.16 4.05 12.04
2/23/2023 7:30:00 PM 4.88 40.784 0.236 8.15 3.95 12.02
2/23/2023 7:45:00 PM 4.88 40.784 0.236 8.15 3.97 12
2/23/2023 8:00:00 PM 4.88 40.784 0.236 8.16 3.97 12.02
2/23/2023 8:15:00 PM 4.88 40.784 0.236 8.15 3.95 12.01
2/23/2023 8:30:00 PM 4.88 40.784 0.236 8.15 4.01 12.01
2/23/2023 8:45:00 PM 4.87 40.766 0.236 8.15 3.92 12.02
2/23/2023 9:00:00 PM 4.87 40.766 0.236 8.14 3.95 12
2/23/2023 9:15:00 PM 4.87 40.766 0.236 8.16 3.85 12
2/23/2023 9:30:00 PM 4.87 40.766 0.236 8.15 3.99 11.99
2/23/2023 9:45:00 PM 4.87 40.766 0.236 8.14 3.85 11.97
2/23/2023 10:00:00 PM 4.87 40.766 0.236 8.15 3.97 11.98
2/23/2023 10:15:00 PM 4.87 40.766 0.236 8.14 3.86 11.97
2/23/2023 10:30:00 PM 4.87 40.766 0.236 8.14 3.95 11.95
2/23/2023 10:45:00 PM 4.87 40.766 0.236 8.14 3.97 11.94
2/23/2023 11:00:00 PM 4.87 40.766 0.236 8.15 3.94 11.93
2/23/2023 11:15:00 PM 4.87 40.766 0.236 8.14 4 11.94
2/23/2023 11:30:00 PM 4.87 40.766 0.236 8.14 3.87 11.92
2/23/2023 11:45:00 PM 4.87 40.766 0.236 8.14 3.79 11.91
2/24/2023 12:00:00 AM 4.87 40.766 0.236 8.14 3.82 11.92
2/24/2023 12:15:00 AM 4.87 40.766 0.236 8.13 3.93 11.93
2/24/2023 12:30:00 AM 4.87 40.766 0.236 8.14 3.87 11.92
2/24/2023 12:45:00 AM 4.87 40.766 0.236 8.14 3.94 11.89
2/24/2023 1:00:00 AM 4.87 40.766 0.236 8.13 3.89 11.88
2/24/2023 1:15:00 AM 4.87 40.766 0.236 8.14 3.9 11.87
2/24/2023 1:30:00 AM 4.87 40.766 0.236 8.13 3.79 11.87
2/24/2023 1:45:00 AM 4.87 40.766 0.236 8.13 3.87 11.85
2/24/2023 2:00:00 AM 4.87 40.766 0.236 8.13 3.72 11.85
2/24/2023 2:15:00 AM 4.87 40.766 0.236 8.12 3.84 11.81
2/24/2023 2:30:00 AM 4.87 40.766 0.236 8.12 3.7 11.79
2/24/2023 2:45:00 AM 4.86 40.748 0.236 8.11 3.74 11.83
2/24/2023 3:00:00 AM 4.86 40.748 0.236 8.11 3.72 11.82
2/24/2023 3:15:00 AM 4.86 40.748 0.236 8.12 3.88 11.82
2/24/2023 3:30:00 AM 4.86 40.748 0.236 8.14 3.69 11.81
2/24/2023 3:45:00 AM 4.86 40.748 0.236 8.13 3.89 11.82
2/24/2023 4:00:00 AM 4.86 40.748 0.236 8.12 3.85 11.82
2/24/2023 4:15:00 AM 4.86 40.748 0.236 8.12 3.75 11.78
2/24/2023 4:30:00 AM 4.86 40.748 0.236 8.12 3.76 11.79
2/24/2023 4:45:00 AM 4.86 40.748 0.236 8.11 3.78 11.75
2/24/2023 5:00:00 AM 4.86 40.748 0.236 8.11 3.64 11.76
2/24/2023 5:15:00 AM 4.86 40.748 0.236 8.11 3.67 11.76
2/24/2023 5:30:00 AM 4.86 40.748 0.236 8.11 3.73 11.73
2/24/2023 5:45:00 AM 4.86 40.748 0.236 8.12 3.67 11.71
2/24/2023 6:00:00 AM 4.86 40.748 0.236 8.12 3.72 11.69
2/24/2023 6:15:00 AM 4.86 40.748 0.236 8.1 3.69 11.67
2/24/2023 6:30:00 AM 4.86 40.748 0.236 8.11 3.63 11.66
2/24/2023 6:45:00 AM 4.85 40.73 0.236 8.11 3.72 11.68
2/24/2023 7:00:00 AM 4.87 40.766 0.236 8.1 3.54 11.62
2/24/2023 7:15:00 AM 4.92 40.856 0.238 8.13 4.54 11.95
2/24/2023 7:30:00 AM 4.82 40.676 0.24 8.14 4.59 11.95
2/24/2023 7:45:00 AM 4.75 40.55 0.241 8.15 5.02 11.95
2/24/2023 8:00:00 AM 4.7 40.46 0.242 8.15 4.69 11.95
2/24/2023 8:15:00 AM 4.66 40.388 0.242 8.16 5.11 11.96
2/24/2023 8:30:00 AM 4.63 40.334 0.242 8.16 5.28 11.96
2/24/2023 8:45:00 AM 4.62 40.316 0.242 8.15 4.78 11.96
2/24/2023 9:00:00 AM 4.59 40.262 0.242 8.16 5.36 11.97
2/24/2023 9:15:00 AM 4.57 40.226 0.242 8.16 5.02 11.98
2/24/2023 9:30:00 AM 4.59 40.262 0.241 8.16 5.4 11.98
2/24/2023 9:45:00 AM 4.6 40.28 0.242 8.16 5.22 11.99
2/24/2023 10:00:00 AM 4.58 40.244 0.241 8.16 4.78 12
2/24/2023 10:15:00 AM 4.56 40.208 0.241 8.17 5.63 12.02
2/24/2023 10:30:00 AM 4.57 40.226 0.241 8.17 5.79 12.02
2/24/2023 10:45:00 AM 4.58 40.244 0.241 8.17 5.25 12.04
2/24/2023 11:00:00 AM 4.58 40.244 0.241 8.18 5.73 12.05
2/24/2023 11:15:00 AM 4.59 40.262 0.241 8.18 5.28 12.07
2/24/2023 11:30:00 AM 4.61 40.298 0.241 8.18 5.83 12.08
2/24/2023 11:45:00 AM 4.63 40.334 0.241 8.19 5.34 12.09
2/24/2023 12:00:00 PM 4.65 40.37 0.24 8.19 5.42 12.11
2/24/2023 12:15:00 PM 4.69 40.442 0.24 8.19 5.5 12.11
2/24/2023 12:30:00 PM 4.74 40.532 0.24 8.19 5.41 12.12
2/24/2023 12:45:00 PM 4.78 40.604 0.24 8.2 5.89 12.12
2/24/2023 1:00:00 PM 4.82 40.676 0.24 8.2 5.28 12.14
2/24/2023 1:15:00 PM 4.86 40.748 0.24 8.2 5.12 12.14
2/24/2023 1:30:00 PM 4.9 40.82 0.24 8.2 5.74 12.15
2/24/2023 1:45:00 PM 4.92 40.856 0.24 8.2 5.71 12.15
2/24/2023 2:00:00 PM 4.94 40.892 0.24 8.2 5.39 12.16
2/24/2023 2:15:00 PM 4.98 40.964 0.24 8.21 5.4 12.18
2/24/2023 2:30:00 PM 5.01 41.018 0.24 8.21 5.65 12.18
2/24/2023 2:45:00 PM 5.06 41.108 0.24 8.21 5.41 12.19
2/24/2023 3:00:00 PM 5.1 41.18 0.24 8.21 5.32 12.21
2/24/2023 3:15:00 PM 5.11 41.198 0.24 8.22 5.14 12.21
2/24/2023 3:30:00 PM 5.11 41.198 0.24 8.21 4.3 12.19
2/24/2023 3:45:00 PM 5.11 41.198 0.24 8.21 4.29 12.18
2/24/2023 4:00:00 PM 5.11 41.198 0.24 8.21 3.98 12.17
2/24/2023 4:15:00 PM 5.11 41.198 0.24 8.21 4.55 12.16
2/24/2023 4:30:00 PM 5.11 41.198 0.24 8.21 3.93 12.13
2/24/2023 4:45:00 PM 5.11 41.198 0.24 8.21 4.23 12.14
2/24/2023 5:00:00 PM 5.11 41.198 0.24 8.21 4 12.11
2/24/2023 5:15:00 PM 5.11 41.198 0.24 8.2 4.08 12.09
2/24/2023 5:30:00 PM 5.11 41.198 0.24 8.2 4.07 12.1
2/24/2023 5:45:00 PM 5.11 41.198 0.24 8.19 4.18 12.08
2/24/2023 6:00:00 PM 5.11 41.198 0.24 8.19 4.05 12.08
2/24/2023 6:15:00 PM 5.11 41.198 0.24 8.19 4.06 12.06
2/24/2023 6:30:00 PM 5.11 41.198 0.24 8.19 4.01 12.07
2/24/2023 6:45:00 PM 5.11 41.198 0.24 8.21 4.1 12.06
2/24/2023 7:00:00 PM 5.11 41.198 0.24 8.19 3.9 12.05
2/24/2023 7:15:00 PM 5.11 41.198 0.24 8.18 3.77 12.05
2/24/2023 7:30:00 PM 5.11 41.198 0.24 8.19 3.86 12.02
2/24/2023 7:45:00 PM 5.11 41.198 0.24 8.18 3.97 12.01
2/24/2023 8:00:00 PM 5.11 41.198 0.24 8.17 3.75 12
2/24/2023 8:15:00 PM 5.11 41.198 0.24 8.18 4.02 12.01
2/24/2023 8:30:00 PM 5.11 41.198 0.24 8.19 4.02 12.02
2/24/2023 8:45:00 PM 5.11 41.198 0.24 8.18 3.86 12
2/24/2023 9:00:00 PM 5.11 41.198 0.24 8.17 3.81 11.99
2/24/2023 9:15:00 PM 5.11 41.198 0.24 8.18 3.79 11.97
2/24/2023 9:30:00 PM 5.11 41.198 0.24 8.17 3.8 11.97
2/24/2023 9:45:00 PM 5.11 41.198 0.24 8.18 3.88 11.95
2/24/2023 10:00:00 PM 5.11 41.198 0.24 8.17 3.81 11.97
2/24/2023 10:15:00 PM 5.11 41.198 0.24 8.18 3.66 11.99
2/24/2023 10:30:00 PM 5.11 41.198 0.24 8.17 3.86 11.98
2/24/2023 10:45:00 PM 5.11 41.198 0.24 8.18 3.83 11.96
2/24/2023 11:00:00 PM 5.11 41.198 0.24 8.18 3.77 11.96
2/24/2023 11:15:00 PM 5.11 41.198 0.24 8.17 3.71 11.94
2/24/2023 11:30:00 PM 5.11 41.198 0.24 8.17 3.86 11.92
2/24/2023 11:45:00 PM 5.11 41.198 0.24 8.16 3.65 11.91
2/25/2023 12:00:00 AM 5.11 41.198 0.24 8.16 3.89 11.88
2/25/2023 12:15:00 AM 5.11 41.198 0.24 8.16 3.74 11.9
2/25/2023 12:30:00 AM 5.11 41.198 0.24 8.16 3.73 11.88
2/25/2023 12:45:00 AM 5.1 41.18 0.24 8.17 3.72 11.86
2/25/2023 1:00:00 AM 5.11 41.198 0.24 8.15 3.77 11.82
2/25/2023 1:15:00 AM 5.1 41.18 0.241 8.15 3.62 11.81
2/25/2023 1:30:00 AM 5.11 41.198 0.24 8.16 3.52 11.77
2/25/2023 1:45:00 AM 5.1 41.18 0.24 8.13 3.72 11.76
2/25/2023 2:00:00 AM 5.1 41.18 0.241 8.15 3.64 11.72
2/25/2023 2:15:00 AM 5.1 41.18 0.241 8.14 3.68 11.72
2/25/2023 2:30:00 AM 5.1 41.18 0.241 8.13 3.68 11.69
2/25/2023 2:45:00 AM 5.1 41.18 0.241 8.14 3.72 11.67
2/25/2023 3:00:00 AM 5.1 41.18 0.241 8.14 3.75 11.7
2/25/2023 3:15:00 AM 5.1 41.18 0.241 8.15 3.72 11.71
2/25/2023 3:30:00 AM 5.1 41.18 0.241 8.14 3.7 11.68
2/25/2023 3:45:00 AM 5.1 41.18 0.241 8.14 3.77 11.66
2/25/2023 4:00:00 AM 5.1 41.18 0.241 8.13 3.68 11.66
2/25/2023 4:15:00 AM 5.1 41.18 0.241 8.14 3.67 11.62
2/25/2023 4:30:00 AM 5.1 41.18 0.241 8.13 3.67 11.58
2/25/2023 4:45:00 AM 5.1 41.18 0.241 8.11 3.63 11.57
2/25/2023 5:00:00 AM 5.1 41.18 0.241 8.11 3.6 11.55
2/25/2023 5:15:00 AM 5.1 41.18 0.241 8.11 3.55 11.51
2/25/2023 5:30:00 AM 5.1 41.18 0.241 8.12 3.59 11.54
2/25/2023 5:45:00 AM 5.05 41.09 0.242 8.14 4.86 11.94
2/25/2023 6:00:00 AM 4.45 40.01 0.244 8.16 5.41 12.12
2/25/2023 6:15:00 AM 4.15 39.47 0.245 8.17 5.5 12.19
2/25/2023 6:30:00 AM 3.98 39.164 0.245 8.17 6.26 12.21
2/25/2023 6:45:00 AM 3.89 39.002 0.246 8.17 5.51 12.21
2/25/2023 7:00:00 AM 3.82 38.876 0.246 8.16 5.67 12.21
2/25/2023 7:15:00 AM 3.78 38.804 0.246 8.16 5.38 12.2
2/25/2023 7:30:00 AM 3.74 38.732 0.246 8.16 5.48 12.2
2/25/2023 7:45:00 AM 3.71 38.678 0.245 8.16 6.48 12.19
2/25/2023 8:00:00 AM 3.68 38.624 0.245 8.15 6.2 12.19
2/25/2023 8:15:00 AM 3.66 38.588 0.245 8.15 6.41 12.19
2/25/2023 8:30:00 AM 3.68 38.624 0.245 8.15 5.36 12.19
2/25/2023 8:45:00 AM 3.64 38.552 0.245 8.15 5.47 12.2
2/25/2023 9:00:00 AM 3.61 38.498 0.245 8.15 5.96 12.2
2/25/2023 9:15:00 AM 3.59 38.462 0.245 8.15 6.42 12.21
2/25/2023 9:30:00 AM 3.59 38.462 0.245 8.15 4.77 12.21
2/25/2023 9:45:00 AM 3.58 38.444 0.244 8.16 5.62 12.22
2/25/2023 10:00:00 AM 3.57 38.426 0.244 8.15 5.49 12.23
2/25/2023 10:15:00 AM 3.57 38.426 0.244 8.15 6.2 12.25
2/25/2023 10:30:00 AM 3.56 38.408 0.244 8.16 5.9 12.26
2/25/2023 10:45:00 AM 3.56 38.408 0.244 8.16 5.8 12.27
2/25/2023 11:00:00 AM 3.55 38.39 0.243 8.16 5.89 12.28
2/25/2023 11:15:00 AM 3.55 38.39 0.243 8.16 6.39 12.29
2/25/2023 11:30:00 AM 3.56 38.408 0.243 8.16 7.14 12.3
2/25/2023 11:45:00 AM 3.56 38.408 0.243 8.16 6.83 12.31
2/25/2023 12:00:00 PM 3.56 38.408 0.243 8.16 6.53 12.32
2/25/2023 12:15:00 PM 3.57 38.426 0.243 8.16 7.21 12.32
2/25/2023 12:30:00 PM 3.57 38.426 0.242 8.17 5.74 12.33
2/25/2023 12:45:00 PM 3.57 38.426 0.242 8.16 6.29 12.33
2/25/2023 1:00:00 PM 3.58 38.444 0.242 8.17 6.03 12.35
2/25/2023 1:15:00 PM 3.59 38.462 0.242 8.17 6.04 12.35
2/25/2023 1:30:00 PM 3.59 38.462 0.242 8.17 5.8 12.34
2/25/2023 1:45:00 PM 3.59 38.462 0.242 8.16 4.75 12.32
2/25/2023 2:00:00 PM 3.59 38.462 0.242 8.16 5.28 12.31
2/25/2023 2:15:00 PM 3.59 38.462 0.242 8.16 5.21 12.31
2/25/2023 2:30:00 PM 3.59 38.462 0.242 8.17 5.17 12.31
2/25/2023 2:45:00 PM 3.6 38.48 0.242 8.16 4.76 12.31
2/25/2023 3:00:00 PM 3.6 38.48 0.242 8.16 4.77 12.3
2/25/2023 3:15:00 PM 3.6 38.48 0.242 8.17 5.38 12.29
2/25/2023 3:30:00 PM 3.6 38.48 0.242 8.16 4.5 12.29
2/25/2023 3:45:00 PM 3.6 38.48 0.242 8.16 4.79 12.3
2/25/2023 4:00:00 PM 3.61 38.498 0.242 8.17 4.4 12.28
2/25/2023 4:15:00 PM 3.62 38.516 0.242 8.16 4.91 12.27
2/25/2023 4:30:00 PM 3.62 38.516 0.242 8.16 4.77 12.26
2/25/2023 4:45:00 PM 3.62 38.516 0.242 8.16 4.76 12.26
2/25/2023 5:00:00 PM 3.62 38.516 0.242 8.16 4.45 12.25
2/25/2023 5:15:00 PM 3.62 38.516 0.242 8.14 4.45 12.24
2/25/2023 5:30:00 PM 3.63 38.534 0.242 8.16 5.16 12.24
2/25/2023 5:45:00 PM 3.63 38.534 0.242 8.16 4.45 12.24
2/25/2023 6:00:00 PM 3.63 38.534 0.242 8.15 4.42 12.23
2/25/2023 6:15:00 PM 3.63 38.534 0.242 8.14 4.31 12.24
2/25/2023 6:30:00 PM 3.63 38.534 0.242 8.15 4.31 12.23
2/25/2023 6:45:00 PM 3.64 38.552 0.242 8.15 4.36 12.23
2/25/2023 7:00:00 PM 3.64 38.552 0.242 8.15 4.26 12.21
2/25/2023 7:15:00 PM 3.65 38.57 0.242 8.15 4.28 12.21
2/25/2023 7:30:00 PM 3.65 38.57 0.242 8.15 4.39 12.21
2/25/2023 7:45:00 PM 3.66 38.588 0.242 8.15 4.31 12.21
2/25/2023 8:00:00 PM 3.66 38.588 0.242 8.15 4.07 12.2
2/25/2023 8:15:00 PM 3.67 38.606 0.242 8.15 4.28 12.19
2/25/2023 8:30:00 PM 3.67 38.606 0.242 8.15 4.33 12.17
2/25/2023 8:45:00 PM 3.68 38.624 0.242 8.15 4.19 12.17
2/25/2023 9:00:00 PM 3.68 38.624 0.242 8.15 3.85 12.15
2/25/2023 9:15:00 PM 3.68 38.624 0.242 8.15 4.25 12.17
2/25/2023 9:30:00 PM 3.69 38.642 0.242 8.15 4.04 12.16
2/25/2023 9:45:00 PM 3.69 38.642 0.242 8.13 3.99 12.14
2/25/2023 10:00:00 PM 3.7 38.66 0.242 8.15 4.02 12.13
2/25/2023 10:15:00 PM 3.7 38.66 0.242 8.15 4.09 12.13
2/25/2023 10:30:00 PM 3.71 38.678 0.242 8.13 3.96 12.09
2/25/2023 10:45:00 PM 3.71 38.678 0.242 8.14 4.09 12.1
2/25/2023 11:00:00 PM 3.73 38.714 0.242 8.15 4.07 12.11
2/25/2023 11:15:00 PM 3.74 38.732 0.242 8.13 4.19 12.1
2/25/2023 11:30:00 PM 3.75 38.75 0.242 8.14 4.03 12.1
2/25/2023 11:45:00 PM 3.76 38.768 0.242 8.13 4.11 12.09
2/26/2023 12:00:00 AM 3.76 38.768 0.242 8.14 3.85 12.07
2/26/2023 12:15:00 AM 3.77 38.786 0.242 8.14 3.97 12.05
2/26/2023 12:30:00 AM 3.78 38.804 0.242 8.13 3.88 12.04
2/26/2023 12:45:00 AM 3.79 38.822 0.242 8.12 3.92 12.05
2/26/2023 1:00:00 AM 3.79 38.822 0.242 8.14 3.95 12.06
2/26/2023 1:15:00 AM 3.8 38.84 0.242 8.13 3.95 12.05
2/26/2023 1:30:00 AM 3.8 38.84 0.242 8.13 3.82 12.02
2/26/2023 1:45:00 AM 3.8 38.84 0.242 8.13 3.69 12.02
2/26/2023 2:00:00 AM 3.79 38.822 0.242 8.13 3.89 12.01
2/26/2023 2:15:00 AM 3.79 38.822 0.242 8.12 3.7 12.02
2/26/2023 2:30:00 AM 3.79 38.822 0.242 8.12 3.86 12.01
2/26/2023 2:45:00 AM 3.79 38.822 0.242 8.13 4.34 12
2/26/2023 3:00:00 AM 3.79 38.822 0.243 8.13 3.81 11.98
2/26/2023 3:15:00 AM 3.79 38.822 0.243 8.12 3.75 11.98
2/26/2023 3:30:00 AM 3.79 38.822 0.243 8.12 3.67 11.99
2/26/2023 3:45:00 AM 3.8 38.84 0.243 8.13 3.64 11.97
2/26/2023 4:00:00 AM 3.8 38.84 0.243 8.12 3.84 11.97
2/26/2023 4:15:00 AM 3.8 38.84 0.243 8.13 3.77 11.95
2/26/2023 4:30:00 AM 3.8 38.84 0.243 8.11 3.76 11.93
2/26/2023 4:45:00 AM 3.8 38.84 0.243 8.11 3.67 11.95
2/26/2023 5:00:00 AM 3.8 38.84 0.243 8.12 3.82 11.96
2/26/2023 5:15:00 AM 3.8 38.84 0.243 8.11 3.72 11.95
2/26/2023 5:30:00 AM 3.8 38.84 0.243 8.12 3.65 11.96
2/26/2023 5:45:00 AM 3.81 38.858 0.243 8.11 3.72 11.93
2/26/2023 6:00:00 AM 3.56 38.408 0.241 8.13 10.83 12.16
2/26/2023 6:15:00 AM 3.12 37.616 0.236 8.16 11.27 12.28
2/26/2023 6:30:00 AM 2.98 37.364 0.235 8.17 12.14 12.29
2/26/2023 6:45:00 AM 2.93 37.274 0.234 8.17 12.61 12.3
2/26/2023 7:00:00 AM 2.91 37.238 0.234 8.17 10.99 12.3
2/26/2023 7:15:00 AM 2.9 37.22 0.234 8.17 13.81 12.3
2/26/2023 7:30:00 AM 2.9 37.22 0.234 8.17 12.14 12.3
2/26/2023 7:45:00 AM 2.89 37.202 0.234 8.17 13.15 12.3
2/26/2023 8:00:00 AM 2.91 37.238 0.234 8.17 10.61 12.29
2/26/2023 8:15:00 AM 2.93 37.274 0.234 8.17 9.21 12.29
2/26/2023 8:30:00 AM 2.91 37.238 0.235 8.17 10.15 12.29
2/26/2023 8:45:00 AM 2.9 37.22 0.234 8.17 8.67 12.29
2/26/2023 9:00:00 AM 2.9 37.22 0.235 8.17 9.06 12.29
2/26/2023 9:15:00 AM 2.91 37.238 0.235 8.16 9.63 12.29
2/26/2023 9:30:00 AM 2.92 37.256 0.235 8.16 8.93 12.29
2/26/2023 9:45:00 AM 2.93 37.274 0.235 8.16 9.37 12.3
2/26/2023 10:00:00 AM 2.95 37.31 0.236 8.16 9.23 12.3
2/26/2023 10:15:00 AM 2.97 37.346 0.236 8.16 9.7 12.3
2/26/2023 10:30:00 AM 3 37.4 0.236 8.16 12.53 12.31
2/26/2023 10:45:00 AM 3.03 37.454 0.237 8.16 10.31 12.31
2/26/2023 11:00:00 AM 3.08 37.544 0.237 8.16 10.66 12.31
2/26/2023 11:15:00 AM 3.12 37.616 0.237 8.16 11.08 12.31
2/26/2023 11:30:00 AM 3.15 37.67 0.238 8.16 9.16 12.31
2/26/2023 11:45:00 AM 3.19 37.742 0.238 8.16 8.51 12.32
2/26/2023 12:00:00 PM 3.24 37.832 0.239 8.16 10.67 12.32
2/26/2023 12:15:00 PM 3.29 37.922 0.239 8.16 9.37 12.33
2/26/2023 12:30:00 PM 3.33 37.994 0.24 8.16 10.31 12.34
2/26/2023 12:45:00 PM 3.38 38.084 0.241 8.16 10.38 12.34
2/26/2023 1:00:00 PM 3.42 38.156 0.242 8.16 9.93 12.35
2/26/2023 1:15:00 PM 3.47 38.246 0.242 8.16 10.9 12.34
2/26/2023 1:30:00 PM 3.49 38.282 0.243 8.16 10.77 12.35
2/26/2023 1:45:00 PM 3.49 38.282 0.243 8.16 10.82 12.34
2/26/2023 2:00:00 PM 3.49 38.282 0.243 8.16 9.51 12.34
2/26/2023 2:15:00 PM 3.49 38.282 0.243 8.16 10.04 12.33
2/26/2023 2:30:00 PM 3.49 38.282 0.243 8.16 9.4 12.33
2/26/2023 2:45:00 PM 3.5 38.3 0.243 8.16 9.38 12.31
2/26/2023 3:00:00 PM 3.5 38.3 0.243 8.15 8.97 12.31
2/26/2023 3:15:00 PM 3.5 38.3 0.243 8.15 8.62 12.31
2/26/2023 3:30:00 PM 3.5 38.3 0.243 8.15 8.53 12.29
2/26/2023 3:45:00 PM 3.5 38.3 0.243 8.16 8.5 12.3
2/26/2023 4:00:00 PM 3.5 38.3 0.243 8.15 8.86 12.29
2/26/2023 4:15:00 PM 3.5 38.3 0.243 8.15 8.7 12.27
2/26/2023 4:30:00 PM 3.5 38.3 0.243 8.15 8.31 12.27
2/26/2023 4:45:00 PM 3.5 38.3 0.243 8.15 7.65 12.27
2/26/2023 5:00:00 PM 3.5 38.3 0.243 8.15 8.02 12.27
2/26/2023 5:15:00 PM 3.49 38.282 0.243 8.15 7.67 12.25
2/26/2023 5:30:00 PM 3.49 38.282 0.243 8.15 8.51 12.23
2/26/2023 5:45:00 PM 3.49 38.282 0.243 8.14 7.98 12.22
2/26/2023 6:00:00 PM 3.49 38.282 0.243 8.14 8.51 12.21
2/26/2023 6:15:00 PM 3.49 38.282 0.243 8.15 8.17 12.21
2/26/2023 6:30:00 PM 3.49 38.282 0.243 8.15 7.43 12.21
2/26/2023 6:45:00 PM 3.49 38.282 0.243 8.14 7.69 12.21
2/26/2023 7:00:00 PM 3.49 38.282 0.243 8.14 7.08 12.2
2/26/2023 7:15:00 PM 3.48 38.264 0.243 8.15 8.01 12.2
2/26/2023 7:30:00 PM 3.48 38.264 0.243 8.14 7.66 12.2
2/26/2023 7:45:00 PM 3.48 38.264 0.243 8.14 7.46 12.19
2/26/2023 8:00:00 PM 3.48 38.264 0.243 8.14 7.5 12.18
2/26/2023 8:15:00 PM 3.48 38.264 0.243 8.13 7.25 12.17
2/26/2023 8:30:00 PM 3.48 38.264 0.243 8.13 7.45 12.15
2/26/2023 8:45:00 PM 3.48 38.264 0.243 8.14 6.79 12.18
2/26/2023 9:00:00 PM 3.47 38.246 0.242 8.14 8.27 12.18
2/26/2023 9:15:00 PM 3.47 38.246 0.242 8.14 7.51 12.16
2/26/2023 9:30:00 PM 3.47 38.246 0.242 8.13 6.92 12.16
2/26/2023 9:45:00 PM 3.48 38.264 0.242 8.12 7.45 12.14
2/26/2023 10:00:00 PM 3.48 38.264 0.242 8.12 7.5 12.12
2/26/2023 10:15:00 PM 3.49 38.282 0.242 8.13 7.21 12.12
2/26/2023 10:30:00 PM 3.49 38.282 0.242 8.13 6.97 12.12
2/26/2023 10:45:00 PM 3.5 38.3 0.242 8.12 7.22 12.11
2/26/2023 11:00:00 PM 3.5 38.3 0.242 8.12 7.08 12.11
2/26/2023 11:15:00 PM 3.5 38.3 0.242 8.13 6.81 12.1
2/26/2023 11:30:00 PM 3.5 38.3 0.242 8.12 7.03 12.1
2/26/2023 11:45:00 PM 3.51 38.318 0.242 8.12 7.07 12.09
2/27/2023 12:00:00 AM 3.51 38.318 0.242 8.12 7.09 12.1
2/27/2023 12:15:00 AM 3.51 38.318 0.242 8.12 6.82 12.11
2/27/2023 12:30:00 AM 3.51 38.318 0.242 8.12 6.92 12.1
2/27/2023 12:45:00 AM 3.52 38.336 0.242 8.12 6.94 12.11
2/27/2023 1:00:00 AM 3.52 38.336 0.242 8.11 6.66 12.1
2/27/2023 1:15:00 AM 3.52 38.336 0.242 8.12 6.71 12.09
2/27/2023 1:30:00 AM 3.52 38.336 0.242 8.12 6.94 12.08
2/27/2023 1:45:00 AM 3.52 38.336 0.242 8.11 6.77 12.09
2/27/2023 2:00:00 AM 3.52 38.336 0.242 8.11 6.76 12.08
2/27/2023 2:15:00 AM 3.52 38.336 0.242 8.1 6.51 12.08
2/27/2023 2:30:00 AM 3.52 38.336 0.242 8.11 6.96 12.09
2/27/2023 2:45:00 AM 3.52 38.336 0.242 8.11 6.81 12.08
2/27/2023 3:00:00 AM 3.52 38.336 0.242 8.12 6.58 12.08
2/27/2023 3:15:00 AM 3.52 38.336 0.242 8.11 6.93 12.08
2/27/2023 3:30:00 AM 3.53 38.354 0.242 8.11 6.95 12.06
2/27/2023 3:45:00 AM 3.53 38.354 0.242 8.1 6.65 12.05
2/27/2023 4:00:00 AM 3.54 38.372 0.242 8.11 6.53 12.02
2/27/2023 4:15:00 AM 3.54 38.372 0.242 8.09 6.74 12.03
2/27/2023 4:30:00 AM 3.54 38.372 0.242 8.1 6.59 12.02
2/27/2023 4:45:00 AM 3.54 38.372 0.242 8.1 6.67 12.05
2/27/2023 5:00:00 AM 3.55 38.39 0.242 8.11 6.74 12.03
2/27/2023 5:15:00 AM 3.56 38.408 0.242 8.11 6.71 12.01
2/27/2023 5:30:00 AM 3.56 38.408 0.242 8.1 6.62 12.02
2/27/2023 5:45:00 AM 3.57 38.426 0.242 8.1 6.42 12
2/27/2023 6:00:00 AM 3.57 38.426 0.242 8.1 6.45 12
2/27/2023 6:15:00 AM 3.57 38.426 0.242 8.11 6.78 12.01
2/27/2023 6:30:00 AM 3.58 38.444 0.242 8.11 6.37 11.99
2/27/2023 6:45:00 AM 3.58 38.444 0.242 8.1 6.61 11.99
2/27/2023 7:00:00 AM 3.65 38.57 0.241 8.08 6.58 11.91
2/27/2023 7:15:00 AM 3.25 37.85 0.246 8.08 13.4 12.23
2/27/2023 7:30:00 AM 2.87 37.166 0.249 8.08 17.78 12.31
2/27/2023 7:45:00 AM 2.79 37.022 0.249 8.09 16.8 12.33
2/27/2023 8:00:00 AM 2.75 36.95 0.248 8.09 18.63 12.34
2/27/2023 8:15:00 AM 2.74 36.932 0.248 8.09 15.14 12.34
2/27/2023 8:30:00 AM 2.73 36.914 0.248 8.09 16.12 12.34
2/27/2023 8:45:00 AM 2.73 36.914 0.247 8.08 18.29 12.35
2/27/2023 9:00:00 AM 2.74 36.932 0.247 8.09 16.57 12.35
2/27/2023 9:15:00 AM 2.78 37.004 0.247 8.09 14.77 12.36
2/27/2023 9:30:00 AM 2.77 36.986 0.246 8.09 17.77 12.36
2/27/2023 9:45:00 AM 2.78 37.004 0.246 8.09 16.18 12.36
2/27/2023 10:00:00 AM 2.8 37.04 0.245 8.09 15.59 12.36
2/27/2023 10:15:00 AM 2.83 37.094 0.245 8.09 15.64 12.36
2/27/2023 10:30:00 AM 2.87 37.166 0.245 8.09 16.65 12.37
2/27/2023 10:45:00 AM 2.9 37.22 0.244 8.09 16.55 12.38
2/27/2023 11:00:00 AM 2.95 37.31 0.244 8.09 16.83 12.38
2/27/2023 11:15:00 AM 2.98 37.364 0.244 8.09 16.62 12.38
2/27/2023 11:30:00 AM 3.01 37.418 0.243 8.09 15.53 12.38
2/27/2023 11:45:00 AM 3.04 37.472 0.243 8.09 16.34 12.39
2/27/2023 12:00:00 PM 3.07 37.526 0.243 8.09 14.94 12.39
2/27/2023 12:15:00 PM 3.09 37.562 0.243 8.09 16.42 12.39
2/27/2023 12:30:00 PM 3.11 37.598 0.242 8.09 15.56 12.4
2/27/2023 12:45:00 PM 3.14 37.652 0.242 8.09 15.26 12.4
2/27/2023 1:00:00 PM 3.19 37.742 0.242 8.09 15.11 12.4
2/27/2023 1:15:00 PM 3.22 37.796 0.241 8.09 15.66 12.41
2/27/2023 1:30:00 PM 3.25 37.85 0.241 8.09 15.42 12.41
2/27/2023 1:45:00 PM 3.27 37.886 0.241 8.09 14.22 12.39
2/27/2023 2:00:00 PM 3.29 37.922 0.241 8.09 16.68 12.42
2/27/2023 2:15:00 PM 3.3 37.94 0.24 8.1 17.38 12.43
2/27/2023 2:30:00 PM 3.32 37.976 0.24 8.1 14.9 12.43
2/27/2023 2:45:00 PM 3.34 38.012 0.24 8.09 16.46 12.44
2/27/2023 3:00:00 PM 3.37 38.066 0.24 8.1 16.35 12.44
2/27/2023 3:15:00 PM 3.38 38.084 0.24 8.1 15.29 12.44
2/27/2023 3:30:00 PM 3.38 38.084 0.24 8.1 14.66 12.42
2/27/2023 3:45:00 PM 3.38 38.084 0.24 8.1 15.13 12.42
2/27/2023 4:00:00 PM 3.38 38.084 0.24 8.1 14.74 12.42
2/27/2023 4:15:00 PM 3.38 38.084 0.24 8.1 14.58 12.42
2/27/2023 4:30:00 PM 3.39 38.102 0.24 8.1 14.6 12.41
2/27/2023 4:45:00 PM 3.39 38.102 0.24 8.09 14.62 12.4
2/27/2023 5:00:00 PM 3.39 38.102 0.24 8.09 14.73 12.4
2/27/2023 5:15:00 PM 3.39 38.102 0.24 8.1 14.41 12.39
2/27/2023 5:30:00 PM 3.39 38.102 0.24 8.09 14.29 12.38
2/27/2023 5:45:00 PM 3.39 38.102 0.24 8.1 14.01 12.39
2/27/2023 6:00:00 PM 3.4 38.12 0.24 8.1 13.93 12.38
2/27/2023 6:15:00 PM 3.4 38.12 0.24 8.09 14.33 12.38
2/27/2023 6:30:00 PM 3.4 38.12 0.24 8.09 14.15 12.37
2/27/2023 6:45:00 PM 3.4 38.12 0.24 8.09 13.52 12.36
2/27/2023 7:00:00 PM 3.4 38.12 0.24 8.09 13.77 12.36
2/27/2023 7:15:00 PM 3.4 38.12 0.24 8.08 14.27 12.35
2/27/2023 7:30:00 PM 3.4 38.12 0.24 8.09 13.48 12.35
2/27/2023 7:45:00 PM 3.4 38.12 0.24 8.09 13.44 12.35
2/27/2023 8:00:00 PM 3.4 38.12 0.24 8.09 13.97 12.34
2/27/2023 8:15:00 PM 3.39 38.102 0.24 8.09 13.38 12.35
2/27/2023 8:30:00 PM 3.39 38.102 0.24 8.09 13.5 12.35
2/27/2023 8:45:00 PM 3.39 38.102 0.24 8.09 13.37 12.35
2/27/2023 9:00:00 PM 3.39 38.102 0.24 8.09 14.04 12.34
2/27/2023 9:15:00 PM 3.4 38.12 0.24 8.09 13.34 12.33
2/27/2023 9:30:00 PM 3.4 38.12 0.24 8.08 13.19 12.31
2/27/2023 9:45:00 PM 3.4 38.12 0.24 8.09 13.09 12.33
2/27/2023 10:00:00 PM 3.4 38.12 0.24 8.09 13.2 12.31
2/27/2023 10:15:00 PM 3.4 38.12 0.24 8.09 13.4 12.32
2/27/2023 10:30:00 PM 3.4 38.12 0.24 8.08 12.97 12.31
2/27/2023 10:45:00 PM 3.4 38.12 0.24 8.09 13.05 12.32
2/27/2023 11:00:00 PM 3.4 38.12 0.24 8.08 13.21 12.31
2/27/2023 11:15:00 PM 3.4 38.12 0.24 8.08 13.03 12.3
2/27/2023 11:30:00 PM 3.4 38.12 0.24 8.08 13.44 12.3
2/27/2023 11:45:00 PM 3.4 38.12 0.24 8.07 13.03 12.29
2/28/2023 12:00:00 AM 3.4 38.12 0.24 8.08 12.96 12.28
2/28/2023 12:15:00 AM 3.4 38.12 0.24 8.08 12.45 12.29
2/28/2023 12:30:00 AM 3.4 38.12 0.24 8.08 13.15 12.28
2/28/2023 12:45:00 AM 3.4 38.12 0.24 8.08 12.73 12.27
2/28/2023 1:00:00 AM 3.4 38.12 0.24 8.07 12.86 12.27
2/28/2023 1:15:00 AM 3.4 38.12 0.24 8.08 12.88 12.28
2/28/2023 1:30:00 AM 3.4 38.12 0.24 8.07 12.08 12.28
2/28/2023 1:45:00 AM 3.4 38.12 0.24 8.07 13 12.29
2/28/2023 2:00:00 AM 3.4 38.12 0.24 8.08 12.78 12.27
2/28/2023 2:15:00 AM 3.4 38.12 0.24 8.08 12.93 12.27
2/28/2023 2:30:00 AM 3.4 38.12 0.24 8.08 12.58 12.27
2/28/2023 2:45:00 AM 3.4 38.12 0.24 8.08 12.6 12.26
2/28/2023 3:00:00 AM 3.41 38.138 0.24 8.08 12.88 12.26
2/28/2023 3:15:00 AM 3.41 38.138 0.24 8.07 12.75 12.25
2/28/2023 3:30:00 AM 3.42 38.156 0.24 8.07 11.19 12.26
2/28/2023 3:45:00 AM 3.42 38.156 0.24 8.07 12.53 12.24
2/28/2023 4:00:00 AM 3.42 38.156 0.24 8.07 12.53 12.24
2/28/2023 4:15:00 AM 3.43 38.174 0.24 8.07 12.86 12.23
2/28/2023 4:30:00 AM 3.44 38.192 0.24 8.06 12.4 12.2
2/28/2023 4:45:00 AM 3.45 38.21 0.24 8.07 12.33 12.2
2/28/2023 5:00:00 AM 3.46 38.228 0.24 8.06 12.28 12.19
2/28/2023 5:15:00 AM 3.47 38.246 0.24 8.06 11.93 12.18
2/28/2023 5:30:00 AM 3.48 38.264 0.24 8.06 11.93 12.16
2/28/2023 5:45:00 AM 3.48 38.264 0.24 8.05 12.17 12.17
2/28/2023 6:00:00 AM 3.49 38.282 0.24 8.06 11.66 12.15
2/28/2023 6:15:00 AM 3.49 38.282 0.24 8.06 11.63 12.14
2/28/2023 6:30:00 AM 3.5 38.3 0.24 8.06 11.75 12.14
2/28/2023 6:45:00 AM 3.51 38.318 0.24 8.06 11.16 12.14
2/28/2023 7:00:00 AM 3.51 38.318 0.24 8.07 11.97 12.13
2/28/2023 7:15:00 AM 3.56 38.408 0.24 8.04 9.09 11.97
2/28/2023 7:30:00 AM 3.5 38.3 0.238 8.05 13.14 12.17
2/28/2023 7:45:00 AM 3.12 37.616 0.231 8.08 12.79 12.28
2/28/2023 8:00:00 AM 2.95 37.31 0.229 8.08 11.74 12.31
2/28/2023 8:15:00 AM 2.86 37.148 0.227 8.09 12.01 12.33
2/28/2023 8:30:00 AM 2.83 37.094 0.226 8.09 12.89 12.33
2/28/2023 8:45:00 AM 2.82 37.076 0.226 8.09 13.26 12.34
2/28/2023 9:00:00 AM 2.81 37.058 0.226 8.09 12.89 12.34
2/28/2023 9:15:00 AM 2.82 37.076 0.226 8.09 13.02 12.34
2/28/2023 9:30:00 AM 2.82 37.076 0.226 8.09 13.03 12.35
2/28/2023 9:45:00 AM 2.83 37.094 0.225 8.09 13.61 12.35
2/28/2023 10:00:00 AM 2.84 37.112 0.225 8.09 12.44 12.35
2/28/2023 10:15:00 AM 2.85 37.13 0.225 8.09 11.94 12.35
2/28/2023 10:30:00 AM 2.85 37.13 0.225 8.09 11.79 12.36
2/28/2023 10:45:00 AM 2.85 37.13 0.225 8.09 12.68 12.36
2/28/2023 11:00:00 AM 2.86 37.148 0.225 8.09 11.87 12.37
2/28/2023 11:15:00 AM 2.87 37.166 0.224 8.09 11.74 12.37
2/28/2023 11:30:00 AM 2.89 37.202 0.224 8.09 12.52 12.38
2/28/2023 11:45:00 AM 2.9 37.22 0.224 8.1 11.81 12.39
2/28/2023 12:00:00 PM 2.92 37.256 0.224 8.1 12.16 12.39
2/28/2023 12:15:00 PM 2.94 37.292 0.224 8.1 11.98 12.39
2/28/2023 12:30:00 PM 2.96 37.328 0.224 8.1 11.17 12.39
2/28/2023 12:45:00 PM 2.98 37.364 0.224 8.1 12.25 12.39
2/28/2023 1:00:00 PM 3 37.4 0.223 8.1 11.79 12.4
2/28/2023 1:15:00 PM 3.03 37.454 0.223 8.1 10.91 12.4
2/28/2023 1:30:00 PM 3.05 37.49 0.223 8.1 11.7 12.41
2/28/2023 1:45:00 PM 3.07 37.526 0.223 8.1 11.23 12.41
2/28/2023 2:00:00 PM 3.09 37.562 0.223 8.11 12 12.42
2/28/2023 2:15:00 PM 3.12 37.616 0.223 8.11 11.13 12.42
2/28/2023 2:30:00 PM 3.14 37.652 0.223 8.11 11.11 12.43
2/28/2023 2:45:00 PM 3.14 37.652 0.223 8.11 10.24 12.43
2/28/2023 3:00:00 PM 3.15 37.67 0.223 8.11 9.89 12.42
2/28/2023 3:15:00 PM 3.15 37.67 0.223 8.11 9.55 12.41
2/28/2023 3:30:00 PM 3.15 37.67 0.223 8.11 9.09 12.39
2/28/2023 3:45:00 PM 3.15 37.67 0.223 8.11 9.62 12.38
2/28/2023 4:00:00 PM 3.15 37.67 0.223 8.11 9.01 12.37
2/28/2023 4:15:00 PM 3.15 37.67 0.224 8.1 9.1 12.33
2/28/2023 4:30:00 PM 3.15 37.67 0.224 8.1 9.12 12.31
2/28/2023 4:45:00 PM 3.15 37.67 0.224 8.1 8.6 12.29
2/28/2023 5:00:00 PM 3.15 37.67 0.224 8.09 8.64 12.28
2/28/2023 5:15:00 PM 3.16 37.688 0.224 8.09 8.83 12.28
2/28/2023 5:30:00 PM 3.16 37.688 0.224 8.09 8.65 12.27
2/28/2023 5:45:00 PM 3.16 37.688 0.224 8.09 8.98 12.26
2/28/2023 6:00:00 PM 3.16 37.688 0.224 8.09 9.08 12.28
2/28/2023 6:15:00 PM 3.16 37.688 0.224 8.08 8.7 12.28
2/28/2023 6:30:00 PM 3.16 37.688 0.224 8.08 8.81 12.25
2/28/2023 6:45:00 PM 3.17 37.706 0.224 8.08 8.46 12.23
2/28/2023 7:00:00 PM 3.17 37.706 0.224 8.08 8.48 12.22
2/28/2023 7:15:00 PM 3.17 37.706 0.224 8.07 8.41 12.22
2/28/2023 7:30:00 PM 3.17 37.706 0.224 8.08 8.34 12.21
2/28/2023 7:45:00 PM 3.18 37.724 0.225 8.07 9.01 12.18
2/28/2023 8:00:00 PM 3.18 37.724 0.225 8.07 8.02 12.18
2/28/2023 8:15:00 PM 3.19 37.742 0.225 8.07 8.09 12.15
2/28/2023 8:30:00 PM 3.19 37.742 0.226 8.07 7.87 12.14
2/28/2023 8:45:00 PM 3.19 37.742 0.226 8.07 8.01 12.12
2/28/2023 9:00:00 PM 3.2 37.76 0.226 8.07 8.26 12.08
2/28/2023 9:15:00 PM 3.2 37.76 0.226 8.07 8.52 12.08
2/28/2023 9:30:00 PM 3.2 37.76 0.226 8.07 7.84 12.09
2/28/2023 9:45:00 PM 3.21 37.778 0.226 8.06 7.61 12.08
2/28/2023 10:00:00 PM 3.21 37.778 0.226 8.06 8.01 12.04
2/28/2023 10:15:00 PM 3.22 37.796 0.226 8.06 8.44 12.05
2/28/2023 10:30:00 PM 3.22 37.796 0.226 8.07 7.75 12.04
2/28/2023 10:45:00 PM 3.22 37.796 0.226 8.07 7.61 12.03
2/28/2023 11:00:00 PM 3.23 37.814 0.226 8.06 8.14 12.02
2/28/2023 11:15:00 PM 3.23 37.814 0.225 8.07 7.66 12.04
2/28/2023 11:30:00 PM 3.23 37.814 0.225 8.05 8.21 12.04
2/28/2023 11:45:00 PM 3.24 37.832 0.225 8.06 7.76 12.03
3/1/2023 12:00:00 AM 3.24 37.832 0.225 8.07 7.65 12.04
3/1/2023 12:15:00 AM 3.25 37.85 0.225 8.06 7.72 12.03
3/1/2023 12:30:00 AM 3.25 37.85 0.225 8.06 7.67 12.01
3/1/2023 12:45:00 AM 3.25 37.85 0.225 8.07 7.6 12
3/1/2023 1:00:00 AM 3.25 37.85 0.225 8.06 7.6 12.01
3/1/2023 1:15:00 AM 3.25 37.85 0.225 8.06 7.72 12.02
3/1/2023 1:30:00 AM 3.26 37.868 0.225 8.07 7.6 12
3/1/2023 1:45:00 AM 3.26 37.868 0.225 8.06 7.51 11.98
3/1/2023 2:00:00 AM 3.26 37.868 0.225 8.06 7.48 11.97
3/1/2023 2:15:00 AM 3.26 37.868 0.225 8.06 7.46 11.95
3/1/2023 2:30:00 AM 3.26 37.868 0.225 8.06 7.57 11.96
3/1/2023 2:45:00 AM 3.27 37.886 0.225 8.06 7.61 11.96
3/1/2023 3:00:00 AM 3.27 37.886 0.225 8.05 7.47 11.96
3/1/2023 3:15:00 AM 3.27 37.886 0.225 8.06 7.43 11.95
3/1/2023 3:30:00 AM 3.27 37.886 0.225 8.06 7.31 11.95
3/1/2023 3:45:00 AM 3.28 37.904 0.225 8.06 7.29 11.95
3/1/2023 4:00:00 AM 3.28 37.904 0.225 8.07 7.51 11.93
3/1/2023 4:15:00 AM 3.28 37.904 0.225 8.07 7.41 11.94
3/1/2023 4:30:00 AM 3.28 37.904 0.225 8.07 7.47 11.95
3/1/2023 4:45:00 AM 3.28 37.904 0.225 8.07 7.76 11.93
3/1/2023 5:00:00 AM 3.28 37.904 0.225 8.06 7.45 11.95
3/1/2023 5:15:00 AM 3.29 37.922 0.225 8.07 7.29 11.95
3/1/2023 5:30:00 AM 3.29 37.922 0.225 8.07 7.45 11.96
3/1/2023 5:45:00 AM 3.29 37.922 0.225 8.07 7.54 11.95
3/1/2023 6:00:00 AM 3.29 37.922 0.225 8.06 7.38 11.94
3/1/2023 6:15:00 AM 3.29 37.922 0.225 8.06 7.32 11.93
3/1/2023 6:30:00 AM 3.3 37.94 0.225 8.07 7.31 11.91
3/1/2023 6:45:00 AM 3.3 37.94 0.225 8.06 7.47 11.91
3/1/2023 7:00:00 AM 3.3 37.94 0.225 8.06 7.41 11.91
3/1/2023 7:15:00 AM 3.29 37.922 0.225 8.07 7.81 11.99
3/1/2023 7:30:00 AM 3.25 37.85 0.224 8.07 8.98 12.23
3/1/2023 7:45:00 AM 3.1 37.58 0.224 8.07 8.91 12.3
3/1/2023 8:00:00 AM 2.9 37.22 0.224 8.08 9.21 12.41
3/1/2023 8:15:00 AM 2.84 37.112 0.224 8.09 9.93 12.43
3/1/2023 8:30:00 AM 2.84 37.112 0.224 8.09 9.15 12.43
3/1/2023 8:45:00 AM 2.87 37.166 0.224 8.08 7.97 12.37
3/1/2023 9:00:00 AM 2.86 37.148 0.224 8.09 9.15 12.44
3/1/2023 9:15:00 AM 2.87 37.166 0.224 8.09 9.14 12.46
3/1/2023 9:30:00 AM 2.88 37.184 0.224 8.09 9.21 12.46
3/1/2023 9:45:00 AM 2.9 37.22 0.223 8.09 9.01 12.48
3/1/2023 10:00:00 AM 2.94 37.292 0.224 8.09 8.33 12.49
3/1/2023 10:15:00 AM 2.98 37.364 0.223 8.09 9.12 12.49
3/1/2023 10:30:00 AM 3.03 37.454 0.223 8.1 9.37 12.5
3/1/2023 10:45:00 AM 3.08 37.544 0.223 8.1 9.2 12.51
3/1/2023 11:00:00 AM 3.13 37.634 0.223 8.1 9.15 12.51
3/1/2023 11:15:00 AM 3.19 37.742 0.223 8.1 8.16 12.53
3/1/2023 11:30:00 AM 3.23 37.814 0.223 8.1 7.66 12.54
3/1/2023 11:45:00 AM 3.28 37.904 0.223 8.1 8.79 12.54
3/1/2023 12:00:00 PM 3.32 37.976 0.223 8.1 8.78 12.54
3/1/2023 12:15:00 PM 3.37 38.066 0.223 8.1 8.54 12.56
3/1/2023 12:30:00 PM 3.41 38.138 0.223 8.11 8.84 12.56
3/1/2023 12:45:00 PM 3.46 38.228 0.223 8.11 8.34 12.57
3/1/2023 1:00:00 PM 3.52 38.336 0.224 8.11 8.55 12.58
3/1/2023 1:15:00 PM 3.57 38.426 0.223 8.12 8.6 12.59
3/1/2023 1:30:00 PM 3.61 38.498 0.224 8.12 8.8 12.59
3/1/2023 1:45:00 PM 3.65 38.57 0.224 8.12 8.2 12.6
3/1/2023 2:00:00 PM 3.68 38.624 0.224 8.12 7.96 12.6
3/1/2023 2:15:00 PM 3.71 38.678 0.224 8.12 8.53 12.61
3/1/2023 2:30:00 PM 3.73 38.714 0.224 8.12 8.42 12.61
3/1/2023 2:45:00 PM 3.76 38.768 0.224 8.13 7.44 12.63
3/1/2023 3:00:00 PM 3.8 38.84 0.224 8.13 7.77 12.63
3/1/2023 3:15:00 PM 3.8 38.84 0.224 8.13 7.21 12.63
3/1/2023 3:30:00 PM 3.81 38.858 0.224 8.13 7.19 12.62
3/1/2023 3:45:00 PM 3.81 38.858 0.224 8.13 7.04 12.61
3/1/2023 4:00:00 PM 3.81 38.858 0.224 8.13 6.63 12.6
3/1/2023 4:15:00 PM 3.81 38.858 0.224 8.13 6.61 12.58
3/1/2023 4:30:00 PM 3.81 38.858 0.224 8.13 6.8 12.58
3/1/2023 4:45:00 PM 3.81 38.858 0.224 8.12 6.75 12.57
3/1/2023 5:00:00 PM 3.81 38.858 0.224 8.12 6.8 12.56
3/1/2023 5:15:00 PM 3.8 38.84 0.224 8.13 6.52 12.55
3/1/2023 5:30:00 PM 3.81 38.858 0.224 8.12 6.69 12.56
3/1/2023 5:45:00 PM 3.8 38.84 0.224 8.12 6.54 12.55
3/1/2023 6:00:00 PM 3.8 38.84 0.224 8.11 6.58 12.53
3/1/2023 6:15:00 PM 3.8 38.84 0.224 8.12 6.53 12.54
3/1/2023 6:30:00 PM 3.8 38.84 0.224 8.12 6.48 12.54
3/1/2023 6:45:00 PM 3.8 38.84 0.224 8.12 6.62 12.52
3/1/2023 7:00:00 PM 3.8 38.84 0.224 8.12 6.54 12.52
3/1/2023 7:15:00 PM 3.8 38.84 0.224 8.11 6.41 12.52
3/1/2023 7:30:00 PM 3.8 38.84 0.224 8.11 6.27 12.51
3/1/2023 7:45:00 PM 3.8 38.84 0.224 8.1 6.25 12.49
3/1/2023 8:00:00 PM 3.8 38.84 0.224 8.11 6.49 12.5
3/1/2023 8:15:00 PM 3.8 38.84 0.224 8.1 6.64 12.48
3/1/2023 8:30:00 PM 3.8 38.84 0.224 8.11 6.11 12.47
3/1/2023 8:45:00 PM 3.8 38.84 0.224 8.1 6.36 12.47
3/1/2023 9:00:00 PM 3.8 38.84 0.224 8.1 6.27 12.45
3/1/2023 9:15:00 PM 3.8 38.84 0.224 8.12 6.35 12.45
3/1/2023 9:30:00 PM 3.8 38.84 0.224 8.1 6.27 12.44
3/1/2023 9:45:00 PM 3.8 38.84 0.224 8.1 5.99 12.44
3/1/2023 10:00:00 PM 3.8 38.84 0.224 8.1 6.1 12.42
3/1/2023 10:15:00 PM 3.81 38.858 0.224 8.1 6.35 12.41
3/1/2023 10:30:00 PM 3.81 38.858 0.224 8.08 6.07 12.39
3/1/2023 10:45:00 PM 3.81 38.858 0.224 8.1 6.11 12.38
3/1/2023 11:00:00 PM 3.81 38.858 0.224 8.09 6.08 12.37
3/1/2023 11:15:00 PM 3.81 38.858 0.224 8.08 6.06 12.36
3/1/2023 11:30:00 PM 3.82 38.876 0.224 8.09 6.28 12.34
3/1/2023 11:45:00 PM 3.82 38.876 0.224 8.09 6.12 12.33
3/2/2023 12:00:00 AM 3.82 38.876 0.224 8.08 5.82 12.31
3/2/2023 12:15:00 AM 3.82 38.876 0.224 8.1 5.94 12.29
3/2/2023 12:30:00 AM 3.83 38.894 0.224 8.1 6.08 12.32
3/2/2023 12:45:00 AM 3.82 38.876 0.224 8.08 6.08 12.31
3/2/2023 1:00:00 AM 3.83 38.894 0.224 8.08 5.94 12.29
3/2/2023 1:15:00 AM 3.83 38.894 0.224 8.08 5.82 12.29
3/2/2023 1:30:00 AM 3.83 38.894 0.224 8.09 6.01 12.27
3/2/2023 1:45:00 AM 3.83 38.894 0.224 8.09 6.14 12.33
3/2/2023 2:00:00 AM 3.83 38.894 0.224 8.09 6.12 12.32
3/2/2023 2:15:00 AM 3.83 38.894 0.224 8.08 6.06 12.29
3/2/2023 2:30:00 AM 3.83 38.894 0.224 8.08 5.88 12.28
3/2/2023 2:45:00 AM 3.83 38.894 0.224 8.08 5.65 12.28
3/2/2023 3:00:00 AM 3.83 38.894 0.224 8.09 5.91 12.26
3/2/2023 3:15:00 AM 3.83 38.894 0.224 8.08 5.98 12.27
3/2/2023 3:30:00 AM 3.83 38.894 0.224 8.08 5.94 12.25
3/2/2023 3:45:00 AM 3.83 38.894 0.224 8.07 6.06 12.24
3/2/2023 4:00:00 AM 3.83 38.894 0.224 8.08 5.98 12.24
3/2/2023 4:15:00 AM 3.83 38.894 0.224 8.07 5.86 12.21
3/2/2023 4:30:00 AM 3.83 38.894 0.224 8.06 5.97 12.2
3/2/2023 4:45:00 AM 3.83 38.894 0.224 8.06 5.66 12.19
3/2/2023 5:00:00 AM 3.83 38.894 0.224 8.04 5.72 12.17
3/2/2023 5:15:00 AM 3.83 38.894 0.224 8.06 5.73 12.17
3/2/2023 5:30:00 AM 3.84 38.912 0.224 8.05 5.71 12.17
3/2/2023 5:45:00 AM 3.84 38.912 0.225 8.05 5.68 12.15
3/2/2023 6:00:00 AM 3.84 38.912 0.225 8.05 5.65 12.15
3/2/2023 6:15:00 AM 3.84 38.912 0.225 8.04 5.76 12.15
3/2/2023 6:30:00 AM 3.84 38.912 0.225 8.05 5.77 12.13
3/2/2023 6:45:00 AM 3.84 38.912 0.225 8.04 5.74 12.14
3/2/2023 7:00:00 AM 3.85 38.93 0.225 8.04 5.66 12.14
3/2/2023 7:15:00 AM 3.85 38.93 0.225 8.04 6 12.1
3/2/2023 7:30:00 AM 3.83 38.894 0.226 7.97 7.9 12.33
3/2/2023 7:45:00 AM 3.67 38.606 0.228 8.04 7.59 12.35
3/2/2023 8:00:00 AM 3.6 38.48 0.228 8.07 7.69 12.33
3/2/2023 8:15:00 AM 3.53 38.354 0.229 8.08 7.81 12.34
3/2/2023 8:30:00 AM 3.51 38.318 0.229 8.09 7.18 12.34
3/2/2023 8:45:00 AM 3.5 38.3 0.229 8.09 7.96 12.34
3/2/2023 9:00:00 AM 3.5 38.3 0.229 8.08 6.86 12.34
3/2/2023 9:15:00 AM 3.5 38.3 0.23 8.09 7.16 12.34
3/2/2023 9:30:00 AM 3.51 38.318 0.23 8.09 7.57 12.35
3/2/2023 9:45:00 AM 3.52 38.336 0.23 8.09 6.78 12.35
3/2/2023 10:00:00 AM 3.54 38.372 0.23 8.09 7.44 12.35
3/2/2023 10:15:00 AM 3.57 38.426 0.23 8.09 7.15 12.37
3/2/2023 10:30:00 AM 3.61 38.498 0.23 8.09 6.47 12.38
3/2/2023 10:45:00 AM 3.66 38.588 0.23 8.1 8.25 12.39
3/2/2023 11:00:00 AM 3.7 38.66 0.231 8.1 6.49 12.39
3/2/2023 11:15:00 AM 3.74 38.732 0.231 8.1 6.54 12.4
3/2/2023 11:30:00 AM 3.78 38.804 0.231 8.1 6.85 12.4
3/2/2023 11:45:00 AM 3.81 38.858 0.231 8.1 6.79 12.41
3/2/2023 12:00:00 PM 3.85 38.93 0.231 8.1 6.77 12.41
3/2/2023 12:15:00 PM 3.88 38.984 0.231 8.11 7.5 12.42
3/2/2023 12:30:00 PM 3.92 39.056 0.231 8.11 6.32 12.43
3/2/2023 12:45:00 PM 3.98 39.164 0.231 8.12 7.42 12.45
3/2/2023 1:00:00 PM 4.01 39.218 0.231 8.12 6.84 12.45
3/2/2023 1:15:00 PM 4.05 39.29 0.231 8.12 7.31 12.47
3/2/2023 1:30:00 PM 4.07 39.326 0.231 8.12 7.31 12.47
3/2/2023 1:45:00 PM 4.08 39.344 0.231 8.13 7.39 12.48
3/2/2023 2:00:00 PM 4.1 39.38 0.231 8.13 7.14 12.48
3/2/2023 2:15:00 PM 4.11 39.398 0.231 8.14 7.33 12.49
3/2/2023 2:30:00 PM 4.13 39.434 0.231 8.14 7.15 12.5
3/2/2023 2:45:00 PM 4.15 39.47 0.231 8.14 6.93 12.51
3/2/2023 3:00:00 PM 4.18 39.524 0.231 8.15 7.21 12.52
3/2/2023 3:15:00 PM 4.21 39.578 0.231 8.15 6.35 12.52
3/2/2023 3:30:00 PM 4.21 39.578 0.231 8.15 6.55 12.51
3/2/2023 3:45:00 PM 4.22 39.596 0.231 8.15 6.09 12.51
3/2/2023 4:00:00 PM 4.22 39.596 0.231 8.15 6.33 12.5
3/2/2023 4:15:00 PM 4.22 39.596 0.231 8.15 6.35 12.49
3/2/2023 4:30:00 PM 4.22 39.596 0.231 8.15 6.5 12.48
3/2/2023 4:45:00 PM 4.22 39.596 0.231 8.15 6.15 12.48
3/2/2023 5:00:00 PM 4.22 39.596 0.231 8.14 6.23 12.47
3/2/2023 5:15:00 PM 4.23 39.614 0.231 8.14 6.06 12.46
3/2/2023 5:30:00 PM 4.23 39.614 0.231 8.14 5.96 12.46
3/2/2023 5:45:00 PM 4.23 39.614 0.231 8.14 6 12.45
3/2/2023 6:00:00 PM 4.23 39.614 0.231 8.14 6.09 12.45
3/2/2023 6:15:00 PM 4.23 39.614 0.231 8.14 6.09 12.43
3/2/2023 6:30:00 PM 4.23 39.614 0.231 8.13 6.16 12.44
3/2/2023 6:45:00 PM 4.23 39.614 0.231 8.14 5.57 12.43
3/2/2023 7:00:00 PM 4.23 39.614 0.231 8.14 5.76 12.42
3/2/2023 7:15:00 PM 4.23 39.614 0.231 8.12 5.86 12.42
3/2/2023 7:30:00 PM 4.23 39.614 0.231 8.12 5.77 12.4
3/2/2023 7:45:00 PM 4.23 39.614 0.231 8.13 5.74 12.4
3/2/2023 8:00:00 PM 4.23 39.614 0.231 8.12 5.74 12.38
3/2/2023 8:15:00 PM 4.23 39.614 0.231 8.12 5.55 12.35
3/2/2023 8:30:00 PM 4.23 39.614 0.231 8.12 5.78 12.3
3/2/2023 8:45:00 PM 4.23 39.614 0.231 8.11 5.77 12.27
3/2/2023 9:00:00 PM 4.23 39.614 0.231 8.1 6.24 12.26
3/2/2023 9:15:00 PM 4.23 39.614 0.231 8.11 5.67 12.27
3/2/2023 9:30:00 PM 4.23 39.614 0.231 8.1 5.37 12.29
3/2/2023 9:45:00 PM 4.23 39.614 0.231 8.11 5.66 12.29
3/2/2023 10:00:00 PM 4.22 39.596 0.231 8.11 5.51 12.32
3/2/2023 10:15:00 PM 4.23 39.614 0.231 8.12 5.61 12.28
3/2/2023 10:30:00 PM 4.23 39.614 0.231 8.11 5.5 12.27
3/2/2023 10:45:00 PM 4.23 39.614 0.231 8.1 5.58 12.23
3/2/2023 11:00:00 PM 4.23 39.614 0.231 8.11 5.65 12.27
3/2/2023 11:15:00 PM 4.23 39.614 0.231 8.11 5.7 12.29
3/2/2023 11:30:00 PM 4.23 39.614 0.231 8.11 5.57 12.26
3/2/2023 11:45:00 PM 4.22 39.596 0.231 8.1 5.7 12.25
3/3/2023 12:00:00 AM 4.22 39.596 0.231 8.1 5.4 12.22
3/3/2023 12:15:00 AM 4.22 39.596 0.231 8.1 5.48 12.25
3/3/2023 12:30:00 AM 4.22 39.596 0.231 8.1 5.47 12.23
3/3/2023 12:45:00 AM 4.22 39.596 0.231 8.1 5.4 12.25
3/3/2023 1:00:00 AM 4.22 39.596 0.231 8.09 5.54 12.23
3/3/2023 1:15:00 AM 4.22 39.596 0.231 8.09 5.29 12.25
3/3/2023 1:30:00 AM 4.22 39.596 0.231 8.1 5.51 12.24
3/3/2023 1:45:00 AM 4.22 39.596 0.231 8.09 5.21 12.24
3/3/2023 2:00:00 AM 4.22 39.596 0.231 8.09 5.37 12.21
3/3/2023 2:15:00 AM 4.22 39.596 0.231 8.08 5.42 12.19
3/3/2023 2:30:00 AM 4.22 39.596 0.231 8.07 5.03 12.18
3/3/2023 2:45:00 AM 4.22 39.596 0.231 8.07 5.11 12.16
3/3/2023 3:00:00 AM 4.22 39.596 0.232 8.06 5.17 12.14
3/3/2023 3:15:00 AM 4.22 39.596 0.231 8.06 5.29 12.13
3/3/2023 3:30:00 AM 4.22 39.596 0.232 8.06 5.1 12.14
3/3/2023 3:45:00 AM 4.22 39.596 0.232 8.05 5.16 12.11
3/3/2023 4:00:00 AM 4.22 39.596 0.232 8.05 5.42 12.1
3/3/2023 4:15:00 AM 4.22 39.596 0.232 8.04 5.4 12.08
3/3/2023 4:30:00 AM 4.22 39.596 0.232 8.05 5.09 12.08
3/3/2023 4:45:00 AM 4.22 39.596 0.232 8.04 5.3 12.07
3/3/2023 5:00:00 AM 4.22 39.596 0.232 8.04 5.07 12.09
3/3/2023 5:15:00 AM 4.22 39.596 0.232 8.04 5.18 12.08
3/3/2023 5:30:00 AM 4.22 39.596 0.232 8.04 5.43 12.08
3/3/2023 5:45:00 AM 4.23 39.614 0.232 8.04 5.17 12.08
3/3/2023 6:00:00 AM 4.23 39.614 0.232 8.03 5.05 12.06
3/3/2023 6:15:00 AM 4.23 39.614 0.232 8.03 5.29 12.05
3/3/2023 6:30:00 AM 4.23 39.614 0.232 8.03 5.13 12.03
3/3/2023 6:45:00 AM 4.23 39.614 0.232 8.03 5.23 12.01
3/3/2023 7:00:00 AM 4.25 39.65 0.231 8.06 6.31 12.08
3/3/2023 7:15:00 AM 4.25 39.65 0.232 8.03 6.01 12.21
3/3/2023 7:30:00 AM 3.98 39.164 0.232 8.07 6.91 12.21
3/3/2023 7:45:00 AM 3.82 38.876 0.232 8.11 6.38 12.23
3/3/2023 8:00:00 AM 3.75 38.75 0.232 8.11 6.01 12.23
3/3/2023 8:15:00 AM 3.73 38.714 0.232 8.11 6.19 12.23
3/3/2023 8:30:00 AM 3.71 38.678 0.232 8.12 6.23 12.24
3/3/2023 8:45:00 AM 3.7 38.66 0.232 8.12 6.18 12.24
3/3/2023 9:00:00 AM 3.7 38.66 0.232 8.12 5.96 12.25
3/3/2023 9:15:00 AM 3.7 38.66 0.232 8.12 5.88 12.25
3/3/2023 9:30:00 AM 3.71 38.678 0.232 8.13 5.82 12.27
3/3/2023 9:45:00 AM 3.72 38.696 0.232 8.13 6.28 12.28
3/3/2023 10:00:00 AM 3.74 38.732 0.232 8.13 5.97 12.29
3/3/2023 10:15:00 AM 3.76 38.768 0.232 8.13 6.73 12.3
3/3/2023 10:30:00 AM 3.79 38.822 0.232 8.13 6.36 12.31
3/3/2023 10:45:00 AM 3.82 38.876 0.232 8.13 6.13 12.32
3/3/2023 11:00:00 AM 3.85 38.93 0.232 8.14 6.15 12.33
3/3/2023 11:15:00 AM 3.88 38.984 0.232 8.14 6.54 12.34
3/3/2023 11:30:00 AM 3.92 39.056 0.232 8.14 5.87 12.35
3/3/2023 11:45:00 AM 3.94 39.092 0.232 8.15 6.81 12.36
3/3/2023 12:00:00 PM 3.97 39.146 0.232 8.14 5.74 12.38
3/3/2023 12:15:00 PM 3.99 39.182 0.232 8.15 6.2 12.38
3/3/2023 12:30:00 PM 4.01 39.218 0.232 8.15 5.87 12.39
3/3/2023 12:45:00 PM 4.03 39.254 0.232 8.15 5.54 12.39
3/3/2023 1:00:00 PM 4.04 39.272 0.232 8.16 5.8 12.4
3/3/2023 1:15:00 PM 4.05 39.29 0.232 8.16 5.81 12.41
3/3/2023 1:30:00 PM 4.07 39.326 0.232 8.16 6.03 12.42
3/3/2023 1:45:00 PM 4.08 39.344 0.232 8.16 5.63 12.43
3/3/2023 2:00:00 PM 4.09 39.362 0.232 8.16 5.82 12.43
3/3/2023 2:15:00 PM 4.09 39.362 0.232 8.17 5.68 12.43
3/3/2023 2:30:00 PM 4.09 39.362 0.232 8.17 6.1 12.44
3/3/2023 2:45:00 PM 4.1 39.38 0.231 8.17 6.14 12.45
3/3/2023 3:00:00 PM 4.11 39.398 0.231 8.17 6 12.45
3/3/2023 3:15:00 PM 4.11 39.398 0.231 8.17 6.17 12.44
3/3/2023 3:30:00 PM 4.11 39.398 0.231 8.16 5.77 12.43
3/3/2023 3:45:00 PM 4.12 39.416 0.231 8.16 5.26 12.41
3/3/2023 4:00:00 PM 4.12 39.416 0.231 8.16 5.7 12.41
3/3/2023 4:15:00 PM 4.12 39.416 0.231 8.16 5.53 12.39
3/3/2023 4:30:00 PM 4.12 39.416 0.231 8.16 5.62 12.38
3/3/2023 4:45:00 PM 4.12 39.416 0.231 8.16 5.32 12.38
3/3/2023 5:00:00 PM 4.12 39.416 0.231 8.16 5.29 12.37
3/3/2023 5:15:00 PM 4.12 39.416 0.232 8.16 5.21 12.37
3/3/2023 5:30:00 PM 4.12 39.416 0.231 8.15 5.25 12.36
3/3/2023 5:45:00 PM 4.12 39.416 0.231 8.15 5.78 12.37
3/3/2023 6:00:00 PM 4.12 39.416 0.231 8.16 5.41 12.36
3/3/2023 6:15:00 PM 4.12 39.416 0.232 8.15 5.28 12.36
3/3/2023 6:30:00 PM 4.12 39.416 0.232 8.15 5.23 12.36
3/3/2023 6:45:00 PM 4.12 39.416 0.231 8.14 5.19 12.35
3/3/2023 7:00:00 PM 4.12 39.416 0.232 8.15 5.27 12.34
3/3/2023 7:15:00 PM 4.13 39.434 0.232 8.14 4.94 12.32
3/3/2023 7:30:00 PM 4.12 39.416 0.232 8.14 5.11 12.32
3/3/2023 7:45:00 PM 4.13 39.434 0.232 8.15 5.17 12.32
3/3/2023 8:00:00 PM 4.13 39.434 0.232 8.13 4.85 12.3
3/3/2023 8:15:00 PM 4.13 39.434 0.232 8.14 5.12 12.29
3/3/2023 8:30:00 PM 4.13 39.434 0.232 8.14 5.17 12.28
3/3/2023 8:45:00 PM 4.13 39.434 0.232 8.14 4.96 12.3
3/3/2023 9:00:00 PM 4.13 39.434 0.232 8.15 4.94 12.29
3/3/2023 9:15:00 PM 4.13 39.434 0.232 8.13 4.65 12.29
3/3/2023 9:30:00 PM 4.13 39.434 0.232 8.13 4.94 12.27
3/3/2023 9:45:00 PM 4.13 39.434 0.232 8.14 5.01 12.29
3/3/2023 10:00:00 PM 4.13 39.434 0.232 8.14 5.11 12.29
3/3/2023 10:15:00 PM 4.13 39.434 0.232 8.15 5.23 12.28
3/3/2023 10:30:00 PM 4.13 39.434 0.232 8.14 5.07 12.26
3/3/2023 10:45:00 PM 4.13 39.434 0.232 8.14 5.09 12.26
3/3/2023 11:00:00 PM 4.13 39.434 0.232 8.14 5.26 12.27
3/3/2023 11:15:00 PM 4.13 39.434 0.232 8.13 5.05 12.25
3/3/2023 11:30:00 PM 4.13 39.434 0.232 8.14 4.85 12.24
3/3/2023 11:45:00 PM 4.13 39.434 0.232 8.12 4.83 12.23
3/4/2023 12:00:00 AM 4.13 39.434 0.232 8.12 4.84 12.25
3/4/2023 12:15:00 AM 4.13 39.434 0.232 8.11 5 12.23
3/4/2023 12:30:00 AM 4.13 39.434 0.232 8.13 4.82 12.22
3/4/2023 12:45:00 AM 4.13 39.434 0.232 8.13 4.95 12.22
3/4/2023 1:00:00 AM 4.13 39.434 0.232 8.13 4.96 12.23
3/4/2023 1:15:00 AM 4.13 39.434 0.232 8.13 4.89 12.22
3/4/2023 1:30:00 AM 4.13 39.434 0.232 8.13 5.02 12.24
3/4/2023 1:45:00 AM 4.13 39.434 0.232 8.11 4.72 12.23
3/4/2023 2:00:00 AM 4.13 39.434 0.232 8.14 4.79 12.23
3/4/2023 2:15:00 AM 4.13 39.434 0.232 8.12 4.83 12.22
3/4/2023 2:30:00 AM 4.14 39.452 0.232 8.12 4.85 12.2
3/4/2023 2:45:00 AM 4.14 39.452 0.232 8.13 4.56 12.21
3/4/2023 3:00:00 AM 4.14 39.452 0.232 8.12 4.75 12.2
3/4/2023 3:15:00 AM 4.14 39.452 0.232 8.12 4.88 12.18
3/4/2023 3:30:00 AM 4.14 39.452 0.232 8.1 4.97 12.16
3/4/2023 3:45:00 AM 4.14 39.452 0.232 8.11 4.82 12.13
3/4/2023 4:00:00 AM 4.14 39.452 0.232 8.1 4.85 12.14
3/4/2023 4:15:00 AM 4.14 39.452 0.232 8.1 4.9 12.13
3/4/2023 4:30:00 AM 4.14 39.452 0.232 8.09 4.86 12.12
3/4/2023 4:45:00 AM 4.14 39.452 0.232 8.09 4.87 12.11
3/4/2023 5:00:00 AM 4.14 39.452 0.232 8.1 4.64 12.12
3/4/2023 5:15:00 AM 4.14 39.452 0.232 8.09 4.78 12.1
3/4/2023 5:30:00 AM 4.15 39.47 0.232 8.09 4.73 12.08
3/4/2023 5:45:00 AM 4.15 39.47 0.232 8.09 4.64 12.08
3/4/2023 6:00:00 AM 4.15 39.47 0.232 8.08 4.82 12.06
3/4/2023 6:15:00 AM 4.15 39.47 0.232 8.08 4.87 12.05
3/4/2023 6:30:00 AM 4.15 39.47 0.232 8.08 4.61 12.04
3/4/2023 6:45:00 AM 4.15 39.47 0.232 8.08 4.78 12.01
3/4/2023 7:00:00 AM 4.15 39.47 0.232 8.07 4.81 12.01
3/4/2023 7:15:00 AM 4.16 39.488 0.232 8.07 4.65 11.99
3/4/2023 7:30:00 AM 4.19 39.542 0.232 8.09 4.89 12.12
3/4/2023 7:45:00 AM 4.14 39.452 0.236 8.09 6.68 12.14
3/4/2023 8:00:00 AM 4.01 39.218 0.239 8.11 6.94 12.09
3/4/2023 8:15:00 AM 3.97 39.146 0.24 8.12 6.32 12.07
3/4/2023 8:30:00 AM 3.96 39.128 0.241 8.12 6.91 12.06
3/4/2023 8:45:00 AM 3.98 39.164 0.241 8.13 6.5 12.06
3/4/2023 9:00:00 AM 3.99 39.182 0.242 8.12 6.85 12.06
3/4/2023 9:15:00 AM 4.01 39.218 0.242 8.13 6.94 12.06
3/4/2023 9:30:00 AM 4.06 39.308 0.242 8.13 7.31 12.05
3/4/2023 9:45:00 AM 4.06 39.308 0.243 8.13 6.12 12.05
3/4/2023 10:00:00 AM 4.07 39.326 0.243 8.13 6.56 12.05
3/4/2023 10:15:00 AM 4.08 39.344 0.243 8.13 6.89 12.06
3/4/2023 10:30:00 AM 4.1 39.38 0.244 8.14 7.11 12.05
3/4/2023 10:45:00 AM 4.11 39.398 0.244 8.13 8.21 12.06
3/4/2023 11:00:00 AM 4.12 39.416 0.244 8.13 8.27 12.06
3/4/2023 11:15:00 AM 4.13 39.434 0.245 8.14 8.75 12.06
3/4/2023 11:30:00 AM 4.13 39.434 0.245 8.14 8.92 12.06
3/4/2023 11:45:00 AM 4.13 39.434 0.245 8.14 9.59 12.06
3/4/2023 12:00:00 PM 4.14 39.452 0.246 8.13 9.78 12.06
3/4/2023 12:15:00 PM 4.14 39.452 0.246 8.13 9.25 12.06
3/4/2023 12:30:00 PM 4.15 39.47 0.246 8.13 9.79 12.06
3/4/2023 12:45:00 PM 4.17 39.506 0.247 8.13 9.79 12.06
3/4/2023 1:00:00 PM 4.18 39.524 0.247 8.13 9.69 12.07
3/4/2023 1:15:00 PM 4.19 39.542 0.248 8.13 10.49 12.07
3/4/2023 1:30:00 PM 4.21 39.578 0.248 8.13 11.95 12.07
3/4/2023 1:45:00 PM 4.23 39.614 0.248 8.13 9.69 12.07
3/4/2023 2:00:00 PM 4.25 39.65 0.249 8.14 10.84 12.07
3/4/2023 2:15:00 PM 4.27 39.686 0.249 8.13 10.13 12.07
3/4/2023 2:30:00 PM 4.28 39.704 0.249 8.14 9.43 12.06
3/4/2023 2:45:00 PM 4.28 39.704 0.249 8.13 8.44 12.06
3/4/2023 3:00:00 PM 4.28 39.704 0.249 8.14 8.11 12.05
3/4/2023 3:15:00 PM 4.28 39.704 0.249 8.13 8.35 12.04
3/4/2023 3:30:00 PM 4.28 39.704 0.249 8.14 8.91 12.03
3/4/2023 3:45:00 PM 4.28 39.704 0.249 8.13 8.38 12.04
3/4/2023 4:00:00 PM 4.28 39.704 0.249 8.13 8.34 12.02
3/4/2023 4:15:00 PM 4.28 39.704 0.249 8.13 7.77 12.01
3/4/2023 4:30:00 PM 4.28 39.704 0.249 8.13 8.11 11.98
3/4/2023 4:45:00 PM 4.28 39.704 0.249 8.12 7.97 11.97
3/4/2023 5:00:00 PM 4.28 39.704 0.249 8.12 7.82 11.96
3/4/2023 5:15:00 PM 4.28 39.704 0.249 8.12 8.03 11.98
3/4/2023 5:30:00 PM 4.28 39.704 0.249 8.13 7.78 11.98
3/4/2023 5:45:00 PM 4.28 39.704 0.249 8.13 7.76 11.99
3/4/2023 6:00:00 PM 4.28 39.704 0.249 8.13 8.05 11.99
3/4/2023 6:15:00 PM 4.28 39.704 0.249 8.12 7.67 11.98
3/4/2023 6:30:00 PM 4.28 39.704 0.249 8.12 7.55 11.97
3/4/2023 6:45:00 PM 4.28 39.704 0.249 8.12 7.62 11.96
3/4/2023 7:00:00 PM 4.28 39.704 0.249 8.12 7.88 11.96
3/4/2023 7:15:00 PM 4.28 39.704 0.249 8.12 7.45 11.95
3/4/2023 7:30:00 PM 4.28 39.704 0.249 8.12 7.31 11.96
3/4/2023 7:45:00 PM 4.28 39.704 0.249 8.1 8.02 11.93
3/4/2023 8:00:00 PM 4.29 39.722 0.249 8.1 7.66 11.92
3/4/2023 8:15:00 PM 4.29 39.722 0.249 8.11 7.31 11.93
3/4/2023 8:30:00 PM 4.29 39.722 0.249 8.11 7.24 11.93
3/4/2023 8:45:00 PM 4.28 39.704 0.249 8.11 7.48 11.94
3/4/2023 9:00:00 PM 4.28 39.704 0.249 8.11 7.45 11.93
3/4/2023 9:15:00 PM 4.28 39.704 0.249 8.11 7.35 11.92
3/4/2023 9:30:00 PM 4.29 39.722 0.249 8.11 7.3 11.9
3/4/2023 9:45:00 PM 4.29 39.722 0.249 8.11 6.88 11.9
3/4/2023 10:00:00 PM 4.29 39.722 0.249 8.1 7.23 11.91
3/4/2023 10:15:00 PM 4.29 39.722 0.249 8.11 7.32 11.91
3/4/2023 10:30:00 PM 4.29 39.722 0.249 8.11 7.3 11.9
3/4/2023 10:45:00 PM 4.29 39.722 0.249 8.1 7.06 11.89
3/4/2023 11:00:00 PM 4.29 39.722 0.249 8.1 7.07 11.9
3/4/2023 11:15:00 PM 4.29 39.722 0.249 8.09 7.16 11.88
3/4/2023 11:30:00 PM 4.29 39.722 0.249 8.1 6.97 11.87
3/4/2023 11:45:00 PM 4.29 39.722 0.249 8.1 6.99 11.86
3/5/2023 12:00:00 AM 4.29 39.722 0.249 8.11 7.07 11.87
3/5/2023 12:15:00 AM 4.29 39.722 0.249 8.11 6.84 11.86
3/5/2023 12:30:00 AM 4.29 39.722 0.249 8.1 7 11.86
3/5/2023 12:45:00 AM 4.29 39.722 0.249 8.11 6.6 11.84
3/5/2023 1:00:00 AM 4.29 39.722 0.249 8.1 6.88 11.83
3/5/2023 1:15:00 AM 4.29 39.722 0.249 8.09 6.9 11.81
3/5/2023 1:30:00 AM 4.29 39.722 0.249 8.09 6.77 11.81
3/5/2023 1:45:00 AM 4.29 39.722 0.249 8.06 6.88 11.79
3/5/2023 2:00:00 AM 4.29 39.722 0.249 8.08 6.28 11.79
3/5/2023 2:15:00 AM 4.3 39.74 0.249 8.07 6.65 11.78
3/5/2023 2:30:00 AM 4.29 39.722 0.249 8.08 6.75 11.74
3/5/2023 2:45:00 AM 4.3 39.74 0.249 8.06 6.25 11.72
3/5/2023 3:00:00 AM 4.3 39.74 0.25 8.07 6.8 11.71
3/5/2023 3:15:00 AM 4.3 39.74 0.249 8.07 6.46 11.7
3/5/2023 3:30:00 AM 4.3 39.74 0.25 8.06 6.56 11.66
3/5/2023 3:45:00 AM 4.3 39.74 0.25 8.05 6.65 11.62
3/5/2023 4:00:00 AM 4.3 39.74 0.25 8.03 6.09 11.57
3/5/2023 4:15:00 AM 4.3 39.74 0.25 8.04 6.58 11.57
3/5/2023 4:30:00 AM 4.3 39.74 0.25 8.04 6.42 11.59
3/5/2023 4:45:00 AM 4.3 39.74 0.25 8.03 6.49 11.58
3/5/2023 5:00:00 AM 4.3 39.74 0.25 8.03 6.43 11.57
3/5/2023 5:15:00 AM 4.3 39.74 0.25 8.03 6.56 11.54
3/5/2023 5:30:00 AM 4.3 39.74 0.25 8.03 6.63 11.52
3/5/2023 5:45:00 AM 4.3 39.74 0.25 8.02 6.51 11.5
3/5/2023 6:00:00 AM 4.3 39.74 0.25 8.01 6.37 11.49
3/5/2023 6:15:00 AM 4.3 39.74 0.25 8 6.35 11.47
3/5/2023 6:30:00 AM 4.3 39.74 0.25 8.01 6.17 11.45
3/5/2023 6:45:00 AM 4.3 39.74 0.25 8.01 6.36 11.5
3/5/2023 7:00:00 AM 4.3 39.74 0.25 8 6.27 11.51
3/5/2023 7:15:00 AM 4.31 39.758 0.25 8.01 5.9 11.47
3/5/2023 7:30:00 AM 4.24 39.632 0.248 8.01 11.5 11.84
3/5/2023 7:45:00 AM 3.98 39.164 0.244 8.03 13.42 11.91
3/5/2023 8:00:00 AM 3.84 38.912 0.241 8.03 12.94 11.95
3/5/2023 8:15:00 AM 3.78 38.804 0.241 8.03 12.43 11.96
3/5/2023 8:30:00 AM 3.76 38.768 0.241 8.03 12.89 11.97
3/5/2023 8:45:00 AM 3.75 38.75 0.241 8.03 12.92 11.98
3/5/2023 9:00:00 AM 3.75 38.75 0.241 8.03 12.97 11.98
3/5/2023 9:15:00 AM 3.75 38.75 0.241 8.03 12.02 11.99
3/5/2023 9:30:00 AM 3.75 38.75 0.241 8.03 12.32 11.99
3/5/2023 9:45:00 AM 3.76 38.768 0.241 8.03 12.25 11.99
3/5/2023 10:00:00 AM 3.77 38.786 0.241 8.03 11.18 12
3/5/2023 10:15:00 AM 3.77 38.786 0.241 8.03 12.82 12.01
3/5/2023 10:30:00 AM 3.79 38.822 0.241 8.03 11.87 12.01
3/5/2023 10:45:00 AM 3.81 38.858 0.241 8.03 11.69 12.02
3/5/2023 11:00:00 AM 3.83 38.894 0.241 8.03 12.31 12.03
3/5/2023 11:15:00 AM 3.85 38.93 0.241 8.03 11.57 12.04
3/5/2023 11:30:00 AM 3.87 38.966 0.24 8.03 11.86 12.05
3/5/2023 11:45:00 AM 3.9 39.02 0.24 8.03 10.77 12.05
3/5/2023 12:00:00 PM 3.93 39.074 0.24 8.04 11.77 12.07
3/5/2023 12:15:00 PM 3.97 39.146 0.24 8.04 10.68 12.07
3/5/2023 12:30:00 PM 4 39.2 0.24 8.04 10.8 12.09
3/5/2023 12:45:00 PM 4.02 39.236 0.24 8.04 9.86 12.1
3/5/2023 1:00:00 PM 4.05 39.29 0.24 8.04 9.85 12.1
3/5/2023 1:15:00 PM 4.08 39.344 0.239 8.05 11.38 12.11
3/5/2023 1:30:00 PM 4.12 39.416 0.239 8.05 11.62 12.12
3/5/2023 1:45:00 PM 4.15 39.47 0.239 8.05 10.46 12.13
3/5/2023 2:00:00 PM 4.19 39.542 0.239 8.05 11.26 12.14
3/5/2023 2:15:00 PM 4.23 39.614 0.239 8.06 9.09 12.15
3/5/2023 2:30:00 PM 4.23 39.614 0.239 8.05 8.11 12.14
3/5/2023 2:45:00 PM 4.23 39.614 0.239 8.06 7.94 12.13
3/5/2023 3:00:00 PM 4.23 39.614 0.239 8.06 7.72 12.12
3/5/2023 3:15:00 PM 4.22 39.596 0.239 8.05 7.9 12.12
3/5/2023 3:30:00 PM 4.22 39.596 0.239 8.05 7.99 12.11
3/5/2023 3:45:00 PM 4.23 39.614 0.239 8.05 8.03 12.11
3/5/2023 4:00:00 PM 4.23 39.614 0.239 8.05 7.53 12.1
3/5/2023 4:15:00 PM 4.23 39.614 0.239 8.05 7.36 12.09
3/5/2023 4:30:00 PM 4.23 39.614 0.239 8.05 7.09 12.07
3/5/2023 4:45:00 PM 4.23 39.614 0.239 8.04 7.53 12.07
3/5/2023 5:00:00 PM 4.23 39.614 0.239 8.05 7.49 12.06
3/5/2023 5:15:00 PM 4.23 39.614 0.239 8.05 7.47 12.06
3/5/2023 5:30:00 PM 4.23 39.614 0.239 8.05 7.17 12.05
3/5/2023 5:45:00 PM 4.23 39.614 0.239 8.04 7.22 12.03
3/5/2023 6:00:00 PM 4.23 39.614 0.239 8.03 7.49 11.99
3/5/2023 6:15:00 PM 4.23 39.614 0.239 8.03 7.24 11.99
3/5/2023 6:30:00 PM 4.23 39.614 0.239 8.04 7.34 12
3/5/2023 6:45:00 PM 4.23 39.614 0.239 8.03 7.44 12
3/5/2023 7:00:00 PM 4.23 39.614 0.239 8.03 7.13 12.01
3/5/2023 7:15:00 PM 4.23 39.614 0.239 8.04 6.9 12.01
3/5/2023 7:30:00 PM 4.23 39.614 0.239 8.04 6.98 12
3/5/2023 7:45:00 PM 4.23 39.614 0.239 8.03 7.12 11.98
3/5/2023 8:00:00 PM 4.23 39.614 0.239 8.03 6.83 11.96
3/5/2023 8:15:00 PM 4.23 39.614 0.239 8.03 7.27 11.96
3/5/2023 8:30:00 PM 4.23 39.614 0.239 8.03 6.99 11.98
3/5/2023 8:45:00 PM 4.23 39.614 0.239 8.03 7.02 11.99
3/5/2023 9:00:00 PM 4.23 39.614 0.239 8.03 6.98 11.96
3/5/2023 9:15:00 PM 4.23 39.614 0.239 8.02 6.88 11.93
3/5/2023 9:30:00 PM 4.23 39.614 0.239 8.02 6.87 11.93
3/5/2023 9:45:00 PM 4.23 39.614 0.239 8.02 7.13 11.94
3/5/2023 10:00:00 PM 4.23 39.614 0.239 8.02 6.7 11.93
3/5/2023 10:15:00 PM 4.23 39.614 0.239 8.03 6.55 11.9
3/5/2023 10:30:00 PM 4.23 39.614 0.239 8.01 6.33 11.91
3/5/2023 10:45:00 PM 4.23 39.614 0.239 8.02 6.94 11.89
3/5/2023 11:00:00 PM 4.23 39.614 0.239 8.02 6.75 11.88
3/5/2023 11:15:00 PM 4.23 39.614 0.239 8.02 6.44 11.85
3/5/2023 11:30:00 PM 4.23 39.614 0.239 8.01 6.6 11.84
3/5/2023 11:45:00 PM 4.23 39.614 0.239 8.01 6.33 11.81
3/6/2023 12:00:00 AM 4.23 39.614 0.239 7.99 6.47 11.79
3/6/2023 12:15:00 AM 4.23 39.614 0.24 7.99 6.61 11.79
3/6/2023 12:30:00 AM 4.23 39.614 0.24 7.99 6.14 11.75
3/6/2023 12:45:00 AM 4.23 39.614 0.24 8 6.3 11.74
3/6/2023 1:00:00 AM 4.23 39.614 0.24 7.98 6.11 11.72
3/6/2023 1:15:00 AM 4.23 39.614 0.24 7.98 6.14 11.65
3/6/2023 1:30:00 AM 4.23 39.614 0.24 7.99 6.14 11.64
3/6/2023 1:45:00 AM 4.23 39.614 0.24 7.97 6.15 11.62
3/6/2023 2:00:00 AM 4.23 39.614 0.24 7.98 6.16 11.63
3/6/2023 2:15:00 AM 4.23 39.614 0.24 7.98 6.11 11.65
3/6/2023 2:30:00 AM 4.23 39.614 0.24 7.98 5.95 11.67
3/6/2023 2:45:00 AM 4.23 39.614 0.24 7.98 6.46 11.67
3/6/2023 3:00:00 AM 4.23 39.614 0.24 7.98 6.57 11.69
3/6/2023 3:15:00 AM 4.23 39.614 0.24 7.98 6.45 11.73
3/6/2023 3:30:00 AM 4.24 39.632 0.24 7.98 6.43 11.71
3/6/2023 3:45:00 AM 4.24 39.632 0.24 7.99 6.68 11.72
3/6/2023 4:00:00 AM 4.25 39.65 0.24 7.99 6.58 11.71
3/6/2023 4:15:00 AM 4.25 39.65 0.24 7.98 6.49 11.69
3/6/2023 4:30:00 AM 4.25 39.65 0.24 7.99 6.51 11.69
3/6/2023 4:45:00 AM 4.25 39.65 0.24 7.97 6.37 11.66
3/6/2023 5:00:00 AM 4.25 39.65 0.24 7.98 6.08 11.66
3/6/2023 5:15:00 AM 4.25 39.65 0.24 7.97 6.37 11.64
3/6/2023 5:30:00 AM 4.25 39.65 0.24 7.97 6.31 11.63
3/6/2023 5:45:00 AM 4.25 39.65 0.24 7.95 6.12 11.59
3/6/2023 6:00:00 AM 4.25 39.65 0.241 7.95 6.06 11.55
3/6/2023 6:15:00 AM 4.26 39.668 0.241 7.93 5.98 11.54
3/6/2023 6:30:00 AM 4.26 39.668 0.241 7.93 6 11.51
3/6/2023 6:45:00 AM 4.26 39.668 0.241 7.92 6.24 11.51
3/6/2023 7:00:00 AM 4.26 39.668 0.242 7.91 6 11.51
3/6/2023 7:15:00 AM 4.01 39.218 0.234 7.96 34.36 11.99
3/6/2023 7:30:00 AM 3.74 38.732 0.226 8 15.68 12.09
3/6/2023 7:45:00 AM 3.67 38.606 0.224 8.01 10.65 12.12
3/6/2023 8:00:00 AM 3.69 38.642 0.224 8.02 12.22 12.13
3/6/2023 8:15:00 AM 3.65 38.57 0.224 8.02 13.93 12.14
3/6/2023 8:30:00 AM 3.63 38.534 0.223 8.03 11.4 12.15
3/6/2023 8:45:00 AM 3.62 38.516 0.223 8.03 12.86 12.16
3/6/2023 9:00:00 AM 3.62 38.516 0.223 8.02 11.78 12.16
3/6/2023 9:15:00 AM 3.62 38.516 0.223 8.03 11.5 12.17
3/6/2023 9:30:00 AM 3.63 38.534 0.222 8.02 12.91 12.18
3/6/2023 9:45:00 AM 3.65 38.57 0.222 8.03 11.73 12.19
3/6/2023 10:00:00 AM 3.67 38.606 0.222 8.03 12.5 12.19
3/6/2023 10:15:00 AM 3.71 38.678 0.222 8.03 11.89 12.2
3/6/2023 10:30:00 AM 3.73 38.714 0.221 8.03 11.52 12.21
3/6/2023 10:45:00 AM 3.75 38.75 0.221 8.03 12.74 12.22
3/6/2023 11:00:00 AM 3.77 38.786 0.221 8.03 10.87 12.22
3/6/2023 11:15:00 AM 3.8 38.84 0.22 8.03 11.73 12.22
3/6/2023 11:30:00 AM 3.84 38.912 0.22 8.03 11.1 12.22
3/6/2023 11:45:00 AM 3.88 38.984 0.22 8.03 10.49 12.23
3/6/2023 12:00:00 PM 3.93 39.074 0.219 8.04 12.88 12.24
3/6/2023 12:15:00 PM 3.96 39.128 0.219 8.04 10.86 12.25
3/6/2023 12:30:00 PM 3.99 39.182 0.219 8.04 10.79 12.25
3/6/2023 12:45:00 PM 4.02 39.236 0.219 8.04 11.41 12.26
3/6/2023 1:00:00 PM 4.05 39.29 0.219 8.04 10.73 12.26
3/6/2023 1:15:00 PM 4.1 39.38 0.218 8.04 11.01 12.27
3/6/2023 1:30:00 PM 4.17 39.506 0.219 8.05 11.43 12.28
3/6/2023 1:45:00 PM 4.23 39.614 0.219 8.05 12.79 12.29
3/6/2023 2:00:00 PM 4.28 39.704 0.218 8.05 12.41 12.29
3/6/2023 2:15:00 PM 4.31 39.758 0.218 8.05 12.79 12.3
3/6/2023 2:30:00 PM 4.35 39.83 0.218 8.05 13.57 12.3
3/6/2023 2:45:00 PM 4.39 39.902 0.218 8.05 10.86 12.31
3/6/2023 3:00:00 PM 4.43 39.974 0.217 8.05 11.99 12.31
3/6/2023 3:15:00 PM 4.43 39.974 0.217 8.06 8.2 12.3
3/6/2023 3:30:00 PM 4.43 39.974 0.217 8.06 8.29 12.29
3/6/2023 3:45:00 PM 4.43 39.974 0.217 8.06 8.41 12.29
3/6/2023 4:00:00 PM 4.43 39.974 0.217 8.06 8.35 12.28
3/6/2023 4:15:00 PM 4.43 39.974 0.217 8.06 8.1 12.27
3/6/2023 4:30:00 PM 4.43 39.974 0.217 8.06 8.21 12.26
3/6/2023 4:45:00 PM 4.43 39.974 0.217 8.05 8.34 12.25
3/6/2023 5:00:00 PM 4.43 39.974 0.217 8.05 8.04 12.25
3/6/2023 5:15:00 PM 4.43 39.974 0.217 8.05 8.18 12.25
3/6/2023 5:30:00 PM 4.43 39.974 0.218 8.05 7.67 12.24
3/6/2023 5:45:00 PM 4.43 39.974 0.218 8.05 7.56 12.24
3/6/2023 6:00:00 PM 4.43 39.974 0.218 8.05 7.48 12.23
3/6/2023 6:15:00 PM 4.43 39.974 0.218 8.05 7.44 12.23
3/6/2023 6:30:00 PM 4.43 39.974 0.218 8.04 7.64 12.22
3/6/2023 6:45:00 PM 4.43 39.974 0.218 8.05 7.57 12.22
3/6/2023 7:00:00 PM 4.43 39.974 0.218 8.05 7.29 12.19
3/6/2023 7:15:00 PM 4.43 39.974 0.218 8.04 7.33 12.19
3/6/2023 7:30:00 PM 4.43 39.974 0.218 8.04 7.19 12.18
3/6/2023 7:45:00 PM 4.43 39.974 0.218 8.04 7.21 12.16
3/6/2023 8:00:00 PM 4.43 39.974 0.218 8.04 7.11 12.11
3/6/2023 8:15:00 PM 4.43 39.974 0.219 8.03 6.9 12.09
3/6/2023 8:30:00 PM 4.43 39.974 0.218 8.02 7.1 12.1
3/6/2023 8:45:00 PM 4.43 39.974 0.218 8.03 7.18 12.12
3/6/2023 9:00:00 PM 4.43 39.974 0.218 8.02 7.01 12.13
3/6/2023 9:15:00 PM 4.43 39.974 0.218 8.03 6.83 12.11
3/6/2023 9:30:00 PM 4.43 39.974 0.218 8.03 7.21 12.12
3/6/2023 9:45:00 PM 4.43 39.974 0.219 8.02 6.72 12.07
3/6/2023 10:00:00 PM 4.43 39.974 0.219 8.03 6.68 12.06
3/6/2023 10:15:00 PM 4.42 39.956 0.219 8.03 6.65 12.05
3/6/2023 10:30:00 PM 4.43 39.974 0.219 8.01 6.77 12.03
3/6/2023 10:45:00 PM 4.42 39.956 0.219 8.02 6.98 12.03
3/6/2023 11:00:00 PM 4.42 39.956 0.219 8.01 6.38 12
3/6/2023 11:15:00 PM 4.42 39.956 0.22 8.01 6.48 12.02
3/6/2023 11:30:00 PM 4.42 39.956 0.22 8.01 6.65 11.96
3/6/2023 11:45:00 PM 4.42 39.956 0.22 8 6.4 11.94
3/7/2023 12:00:00 AM 4.42 39.956 0.22 8.01 6.22 11.91
3/7/2023 12:15:00 AM 4.42 39.956 0.22 8 5.91 11.9
3/7/2023 12:30:00 AM 4.42 39.956 0.22 8 6.59 11.89
3/7/2023 12:45:00 AM 4.42 39.956 0.22 8 6.43 11.92
3/7/2023 1:00:00 AM 4.42 39.956 0.22 8 6.3 11.9
3/7/2023 1:15:00 AM 4.42 39.956 0.22 8 6.48 11.88
3/7/2023 1:30:00 AM 4.42 39.956 0.22 8 6.41 11.86
3/7/2023 1:45:00 AM 4.42 39.956 0.22 8 6.15 11.86
3/7/2023 2:00:00 AM 4.42 39.956 0.221 7.99 6.22 11.81
3/7/2023 2:15:00 AM 4.42 39.956 0.221 7.98 6.13 11.78
3/7/2023 2:30:00 AM 4.42 39.956 0.221 7.98 6.15 11.77
3/7/2023 2:45:00 AM 4.42 39.956 0.221 7.99 5.93 11.77
3/7/2023 3:00:00 AM 4.42 39.956 0.221 7.97 6.2 11.76
3/7/2023 3:15:00 AM 4.42 39.956 0.221 7.99 5.95 11.75
3/7/2023 3:30:00 AM 4.42 39.956 0.221 8 6.08 11.73
3/7/2023 3:45:00 AM 4.42 39.956 0.221 7.99 5.92 11.71
3/7/2023 4:00:00 AM 4.42 39.956 0.221 7.99 5.88 11.69
3/7/2023 4:15:00 AM 4.42 39.956 0.221 7.98 5.89 11.69
3/7/2023 4:30:00 AM 4.42 39.956 0.222 7.97 5.81 11.67
3/7/2023 4:45:00 AM 4.42 39.956 0.222 7.96 5.75 11.65
3/7/2023 5:00:00 AM 4.42 39.956 0.222 7.97 5.91 11.63
3/7/2023 5:15:00 AM 4.42 39.956 0.222 7.97 5.9 11.61
3/7/2023 5:30:00 AM 4.43 39.974 0.222 7.98 5.9 11.59
3/7/2023 5:45:00 AM 4.43 39.974 0.222 7.98 5.66 11.58
3/7/2023 6:00:00 AM 4.43 39.974 0.222 7.98 5.73 11.57
3/7/2023 6:15:00 AM 4.43 39.974 0.222 7.98 5.83 11.56
3/7/2023 6:30:00 AM 4.43 39.974 0.222 7.98 5.68 11.55
3/7/2023 6:45:00 AM 4.44 39.992 0.222 7.97 5.75 11.53
3/7/2023 7:00:00 AM 4.43 39.974 0.222 7.94 7.36 11.72
3/7/2023 7:15:00 AM 4.18 39.524 0.214 7.99 18.02 11.99
3/7/2023 7:30:00 AM 3.97 39.146 0.209 7.99 17.97 12
3/7/2023 7:45:00 AM 3.93 39.074 0.208 7.99 15.18 11.99
3/7/2023 8:00:00 AM 3.88 38.984 0.208 8 15.92 12
3/7/2023 8:15:00 AM 3.86 38.948 0.208 8 14.03 12
3/7/2023 8:30:00 AM 3.85 38.93 0.208 8 15.34 12.01
3/7/2023 8:45:00 AM 3.84 38.912 0.208 8 14.18 12.01
3/7/2023 9:00:00 AM 3.84 38.912 0.208 8 15.75 12.01
3/7/2023 9:15:00 AM 3.85 38.93 0.209 8.01 16.88 12.03
3/7/2023 9:30:00 AM 3.87 38.966 0.209 8 17.39 12.03
3/7/2023 9:45:00 AM 3.89 39.002 0.21 8.01 17.4 12.04
3/7/2023 10:00:00 AM 3.92 39.056 0.21 8.01 14.15 12.04
3/7/2023 10:15:00 AM 3.95 39.11 0.211 8.01 16.23 12.05
3/7/2023 10:30:00 AM 3.99 39.182 0.211 8.01 15.6 12.05
3/7/2023 10:45:00 AM 4.01 39.218 0.212 8.02 15.71 12.07
3/7/2023 11:00:00 AM 4.04 39.272 0.212 8.02 16.22 12.08
3/7/2023 11:15:00 AM 4.07 39.326 0.213 8.02 14.93 12.09
3/7/2023 11:30:00 AM 4.12 39.416 0.213 8.03 12.19 12.1
3/7/2023 11:45:00 AM 4.16 39.488 0.213 8.02 15.18 12.11
3/7/2023 12:00:00 PM 4.21 39.578 0.214 8.03 14.54 12.12
3/7/2023 12:15:00 PM 4.24 39.632 0.214 8.03 13.44 12.12
3/7/2023 12:30:00 PM 4.29 39.722 0.215 8.03 11.16 12.13
3/7/2023 12:45:00 PM 4.33 39.794 0.215 8.04 13.44 12.15
3/7/2023 1:00:00 PM 4.36 39.848 0.215 8.04 14.74 12.15
3/7/2023 1:15:00 PM 4.39 39.902 0.216 8.04 14.6 12.16
3/7/2023 1:30:00 PM 4.4 39.92 0.216 8.05 12.69 12.17
3/7/2023 1:45:00 PM 4.43 39.974 0.217 8.05 13.48 12.19
3/7/2023 2:00:00 PM 4.46 40.028 0.218 8.05 13.65 12.2
3/7/2023 2:15:00 PM 4.5 40.1 0.218 8.05 12.79 12.21
3/7/2023 2:30:00 PM 4.54 40.172 0.219 8.06 14.3 12.22
3/7/2023 2:45:00 PM 4.57 40.226 0.22 8.06 12.21 12.23
3/7/2023 3:00:00 PM 4.59 40.262 0.22 8.06 11.2 12.22
3/7/2023 3:15:00 PM 4.59 40.262 0.22 8.06 11.13 12.22
3/7/2023 3:30:00 PM 4.59 40.262 0.22 8.07 10.07 12.21
3/7/2023 3:45:00 PM 4.59 40.262 0.22 8.06 9.86 12.2
3/7/2023 4:00:00 PM 4.59 40.262 0.22 8.05 10.01 12.19
3/7/2023 4:15:00 PM 4.59 40.262 0.22 8.06 10.02 12.19
3/7/2023 4:30:00 PM 4.59 40.262 0.22 8.06 9.82 12.18
3/7/2023 4:45:00 PM 4.59 40.262 0.22 8.05 10.09 12.18
3/7/2023 5:00:00 PM 4.59 40.262 0.22 8.06 9.87 12.16
3/7/2023 5:15:00 PM 4.59 40.262 0.22 8.05 9.94 12.15
3/7/2023 5:30:00 PM 4.59 40.262 0.22 8.05 9.62 12.15
3/7/2023 5:45:00 PM 4.59 40.262 0.22 8.05 9.5 12.15
3/7/2023 6:00:00 PM 4.59 40.262 0.22 8.05 9.6 12.13
3/7/2023 6:15:00 PM 4.59 40.262 0.22 8.05 9.37 12.14
3/7/2023 6:30:00 PM 4.59 40.262 0.22 8.05 9.32 12.13
3/7/2023 6:45:00 PM 4.59 40.262 0.22 8.05 9.01 12.12
3/7/2023 7:00:00 PM 4.59 40.262 0.22 8.04 9.54 12.13
3/7/2023 7:15:00 PM 4.59 40.262 0.22 8.04 10.06 12.12
3/7/2023 7:30:00 PM 4.59 40.262 0.22 8.05 9.33 12.11
3/7/2023 7:45:00 PM 4.59 40.262 0.22 8.04 9.59 12.09
3/7/2023 8:00:00 PM 4.59 40.262 0.22 8.03 9.27 12.09
3/7/2023 8:15:00 PM 4.59 40.262 0.22 8.03 9.19 12.07
3/7/2023 8:30:00 PM 4.59 40.262 0.22 8.03 9.14 12.06
3/7/2023 8:45:00 PM 4.59 40.262 0.22 8.03 9.51 12.03
3/7/2023 9:00:00 PM 4.59 40.262 0.22 8.03 9.62 12.03
3/7/2023 9:15:00 PM 4.58 40.244 0.22 8.02 9.23 12.05
3/7/2023 9:30:00 PM 4.58 40.244 0.22 8.02 8.92 12.04
3/7/2023 9:45:00 PM 4.58 40.244 0.22 8.02 9.24 12.04
3/7/2023 10:00:00 PM 4.58 40.244 0.22 8.03 9.12 12.04
3/7/2023 10:15:00 PM 4.58 40.244 0.22 8.03 9.12 12.04
3/7/2023 10:30:00 PM 4.58 40.244 0.22 8.03 9.11 12.04
3/7/2023 10:45:00 PM 4.59 40.262 0.22 8.02 9.04 12.03
3/7/2023 11:00:00 PM 4.58 40.244 0.22 8.02 9.21 12.01
3/7/2023 11:15:00 PM 4.58 40.244 0.22 8.01 8.54 12
3/7/2023 11:30:00 PM 4.58 40.244 0.22 8.02 9.11 12.01
3/7/2023 11:45:00 PM 4.58 40.244 0.22 8.02 8.95 11.99
3/8/2023 12:00:00 AM 4.58 40.244 0.22 8.01 8.79 11.98
3/8/2023 12:15:00 AM 4.58 40.244 0.22 8.01 8.83 11.97
3/8/2023 12:30:00 AM 4.58 40.244 0.22 8 8.99 11.97
3/8/2023 12:45:00 AM 4.58 40.244 0.22 8.02 8.78 11.98
3/8/2023 1:00:00 AM 4.58 40.244 0.22 8 8.72 11.98
3/8/2023 1:15:00 AM 4.58 40.244 0.22 8.01 9.13 11.97
3/8/2023 1:30:00 AM 4.57 40.226 0.22 8.02 8.88 11.97
3/8/2023 1:45:00 AM 4.57 40.226 0.22 8.02 8.96 11.99
3/8/2023 2:00:00 AM 4.57 40.226 0.22 8.01 8.96 11.99
3/8/2023 2:15:00 AM 4.58 40.244 0.22 8 8.8 11.98
3/8/2023 2:30:00 AM 4.58 40.244 0.22 8 9 11.95
3/8/2023 2:45:00 AM 4.58 40.244 0.22 8 8.8 11.95
3/8/2023 3:00:00 AM 4.58 40.244 0.22 8.01 8.82 11.94
3/8/2023 3:15:00 AM 4.58 40.244 0.22 8 8.92 11.97
3/8/2023 3:30:00 AM 4.58 40.244 0.22 7.98 8.06 11.92
3/8/2023 3:45:00 AM 4.59 40.262 0.22 7.99 8.8 11.94
3/8/2023 4:00:00 AM 4.59 40.262 0.22 7.99 8.6 11.91
3/8/2023 4:15:00 AM 4.59 40.262 0.22 7.98 8.75 11.89
3/8/2023 4:30:00 AM 4.59 40.262 0.22 7.99 8.63 11.91
3/8/2023 4:45:00 AM 4.59 40.262 0.22 7.98 8.69 11.91
3/8/2023 5:00:00 AM 4.59 40.262 0.22 7.99 8.24 11.91
3/8/2023 5:15:00 AM 4.59 40.262 0.22 7.99 8.72 11.91
3/8/2023 5:30:00 AM 4.59 40.262 0.22 8 8.47 11.92
3/8/2023 5:45:00 AM 4.59 40.262 0.22 7.98 8.68 11.9
3/8/2023 6:00:00 AM 4.59 40.262 0.22 7.97 8.63 11.87
3/8/2023 6:15:00 AM 4.6 40.28 0.22 7.97 8.66 11.85
3/8/2023 6:30:00 AM 4.6 40.28 0.22 7.95 8.46 11.82
3/8/2023 6:45:00 AM 4.6 40.28 0.22 7.94 8.42 11.81
3/8/2023 7:00:00 AM 4.6 40.28 0.22 7.94 8.49 11.81
3/8/2023 7:15:00 AM 4.68 40.424 0.221 7.89 10.29 11.86
3/8/2023 7:30:00 AM 4.5 40.1 0.226 7.95 10.24 11.97
3/8/2023 7:45:00 AM 4.11 39.398 0.235 7.99 8.83 12.07
3/8/2023 8:00:00 AM 3.97 39.146 0.238 8.01 8.87 12.11
3/8/2023 8:15:00 AM 3.91 39.038 0.239 8.02 8.68 12.12
3/8/2023 8:30:00 AM 3.87 38.966 0.239 8.02 8.11 12.14
3/8/2023 8:45:00 AM 3.86 38.948 0.239 8.03 7.51 12.14
3/8/2023 9:00:00 AM 3.85 38.93 0.239 8.03 8.38 12.15
3/8/2023 9:15:00 AM 3.85 38.93 0.239 8.03 8.44 12.16
3/8/2023 9:30:00 AM 3.84 38.912 0.238 8.03 8 12.16
3/8/2023 9:45:00 AM 3.84 38.912 0.238 8.03 7.84 12.17
3/8/2023 10:00:00 AM 3.84 38.912 0.237 8.04 8.49 12.18
3/8/2023 10:15:00 AM 3.85 38.93 0.237 8.04 8.54 12.19
3/8/2023 10:30:00 AM 3.86 38.948 0.236 8.04 7.91 12.2
3/8/2023 10:45:00 AM 3.88 38.984 0.236 8.04 8.33 12.2
3/8/2023 11:00:00 AM 3.9 39.02 0.236 8.04 8.56 12.21
3/8/2023 11:15:00 AM 3.92 39.056 0.235 8.04 8.22 12.22
3/8/2023 11:30:00 AM 3.95 39.11 0.235 8.04 8.06 12.23
3/8/2023 11:45:00 AM 3.97 39.146 0.234 8.04 8.8 12.24
3/8/2023 12:00:00 PM 4.01 39.218 0.234 8.05 8.26 12.26
3/8/2023 12:15:00 PM 4.04 39.272 0.234 8.05 7.72 12.26
3/8/2023 12:30:00 PM 4.09 39.362 0.234 8.06 7.54 12.28
3/8/2023 12:45:00 PM 4.14 39.452 0.233 8.06 8.19 12.3
3/8/2023 1:00:00 PM 4.19 39.542 0.233 8.06 8.06 12.3
3/8/2023 1:15:00 PM 4.26 39.668 0.232 8.07 7.71 12.33
3/8/2023 1:30:00 PM 4.34 39.812 0.232 8.07 8.14 12.34
3/8/2023 1:45:00 PM 4.41 39.938 0.232 8.08 7.44 12.35
3/8/2023 2:00:00 PM 4.46 40.028 0.231 8.08 7.12 12.35
3/8/2023 2:15:00 PM 4.47 40.046 0.231 8.09 8.32 12.36
3/8/2023 2:30:00 PM 4.51 40.118 0.231 8.09 8 12.36
3/8/2023 2:45:00 PM 4.53 40.154 0.231 8.09 7.94 12.37
3/8/2023 3:00:00 PM 4.56 40.208 0.23 8.08 7.76 12.38
3/8/2023 3:15:00 PM 4.57 40.226 0.23 8.1 7.3 12.38
3/8/2023 3:30:00 PM 4.57 40.226 0.23 8.1 7.75 12.37
3/8/2023 3:45:00 PM 4.57 40.226 0.23 8.09 7.54 12.36
3/8/2023 4:00:00 PM 4.57 40.226 0.23 8.1 7.08 12.36
3/8/2023 4:15:00 PM 4.57 40.226 0.23 8.09 7.18 12.34
3/8/2023 4:30:00 PM 4.57 40.226 0.23 8.08 7.3 12.33
3/8/2023 4:45:00 PM 4.57 40.226 0.23 8.09 7.26 12.33
3/8/2023 5:00:00 PM 4.57 40.226 0.23 8.09 7.01 12.32
3/8/2023 5:15:00 PM 4.57 40.226 0.23 8.08 7.35 12.32
3/8/2023 5:30:00 PM 4.57 40.226 0.23 8.07 6.88 12.31
3/8/2023 5:45:00 PM 4.57 40.226 0.23 8.08 6.92 12.31
3/8/2023 6:00:00 PM 4.57 40.226 0.23 8.08 6.89 12.31
3/8/2023 6:15:00 PM 4.57 40.226 0.23 8.08 7.09 12.3
3/8/2023 6:30:00 PM 4.57 40.226 0.23 8.05 6.87 12.27
3/8/2023 6:45:00 PM 4.57 40.226 0.23 8.07 7.09 12.29
3/8/2023 7:00:00 PM 4.57 40.226 0.23 8.07 6.75 12.28
3/8/2023 7:15:00 PM 4.57 40.226 0.23 8.06 6.62 12.27
3/8/2023 7:30:00 PM 4.57 40.226 0.23 8.07 6.9 12.28

These are provisional data and have not been subject to a quality assurance process, but rather are the raw data reported by the instrument.
H: value is above sensor operating range
L: value is below sensor operating range
Offline: station is not reporting data
NC: parameter is not collected at site

Data Availability & Limitations

Uncertainty and potential for error can be associated with environmental monitoring data. Provisional data have not been subject to a quality assurance process, but rather are the raw data reported by the instrument. Data users are cautioned to consider carefully the provisional nature of the information before using it for decisions that concern personal or public safety or the conduct of business that involves substantial monetary or operational consequences.

Approved data are currently available by request by emailing: [email protected]. Approved data have been subject to a quality assurance process to correct for equipment or fouling drift. Data recorded during equipment malfunctions have been removed.

View Historical Stations that have been discontinued.